Provisional Data: Lititz Run near Lititz, PA


Please select a monitoring station.
Please select start date.
Please select start date.

Toggle Unit: C/F Toggle Unit: C/F
Sample Time Temperature (C) Temperature (F) Specific Conductivity (mS/cm) pH   Turbidity (NTU+) DO (mg/L)
4/13/2022 12:00:00 AM 14.44 57.992 0.011 7.61 5.09 7.74
4/13/2022 12:15:00 AM 14.33 57.794 0.013 7.6 5.11 7.74
4/13/2022 12:30:00 AM 14.23 57.614 0.012 7.6 5.1 7.73
4/13/2022 12:45:00 AM 14.13 57.434 0.011 7.59 5.06 7.76
4/13/2022 1:00:00 AM 14.03 57.254 0.009 7.59 5.3 7.78
4/13/2022 1:15:00 AM 13.93 57.074 0.008 7.59 5.27 7.8
4/13/2022 1:30:00 AM 13.83 56.894 0.012 7.59 5.41 7.8
4/13/2022 1:45:00 AM 13.75 56.75 0.012 7.59 5.12 7.83
4/13/2022 2:00:00 AM 13.66 56.588 0.011 7.58 5.36 7.84
4/13/2022 2:15:00 AM 13.57 56.426 0.011 7.58 5.32 7.86
4/13/2022 2:30:00 AM 13.49 56.282 0.011 7.58 4.97 7.89
4/13/2022 2:45:00 AM 13.4 56.12 0.012 7.58 4.86 7.91
4/13/2022 3:00:00 AM 13.32 55.976 0.011 7.59 5.11 7.94
4/13/2022 3:15:00 AM 13.24 55.832 0.013 7.59 5.24 7.97
4/13/2022 3:30:00 AM 13.16 55.688 0.012 7.59 5.29 8
4/13/2022 3:45:00 AM 13.08 55.544 0.014 7.59 5.35 8.02
4/13/2022 4:00:00 AM 13 55.4 0.011 7.59 5.27 8.05
4/13/2022 4:15:00 AM 12.93 55.274 0.011 7.6 5.06 8.06
4/13/2022 4:30:00 AM 12.85 55.13 0.01 7.6 5.06 8.12
4/13/2022 4:45:00 AM 12.77 54.986 0.011 7.6 5.43 8.14
4/13/2022 5:00:00 AM 12.7 54.86 0.01 7.6 5.35 8.18
4/13/2022 5:15:00 AM 12.63 54.734 0.011 7.61 6.35 8.21
4/13/2022 5:30:00 AM 12.56 54.608 0.01 7.61 5.48 8.24
4/13/2022 5:45:00 AM 12.49 54.482 0.013 7.61 5.4 8.27
4/13/2022 6:00:00 AM 12.42 54.356 0.012 7.62 5.68 8.32
4/13/2022 6:15:00 AM 12.36 54.248 0.01 7.62 5.15 8.34
4/13/2022 6:30:00 AM 12.3 54.14 0.011 7.62 5.16 8.38
4/13/2022 6:45:00 AM 12.25 54.05 0.009 7.63 5.09 8.41
4/13/2022 7:00:00 AM 12.21 53.978 0.009 7.63 4.79 8.48
4/13/2022 7:15:00 AM 12.17 53.906 0.011 7.64 4.74 8.55
4/13/2022 7:30:00 AM 12.15 53.87 0.011 7.65 4.93 8.67
4/13/2022 7:45:00 AM 12.14 53.852 0.011 7.66 4.94 8.79
4/13/2022 8:00:00 AM 12.13 53.834 0.01 7.67 4.56 8.94
4/13/2022 8:15:00 AM 12.16 53.888 0.012 7.68 4.7 9.07
4/13/2022 8:30:00 AM 12.21 53.978 0.01 7.7 4.66 9.23
4/13/2022 8:45:00 AM 12.27 54.086 0.01 7.72 4.71 9.43
4/13/2022 9:00:00 AM 12.34 54.212 0.012 7.74 4.91 9.63
4/13/2022 9:15:00 AM 12.44 54.392 0.011 7.76 4.59 9.86
4/13/2022 9:30:00 AM 12.54 54.572 0.011 7.78 4.72 10.04
4/13/2022 9:45:00 AM 12.67 54.806 0.01 7.81 5.07 10.28
4/13/2022 10:00:00 AM 12.81 55.058 0.012 7.83 4.77 10.5
4/13/2022 10:15:00 AM 12.98 55.364 0.009 7.86 4.5 10.76
4/13/2022 10:30:00 AM 13.15 55.67 0.013 7.9 4.57 10.98
4/13/2022 10:45:00 AM 13.33 55.994 0.011 7.93 4.74 11.17
4/13/2022 11:00:00 AM 13.53 56.354 0.01 7.96 4.51 11.41
4/13/2022 11:15:00 AM 13.74 56.732 0.01 7.98 4.34 11.59
4/13/2022 11:30:00 AM 13.97 57.146 0.011 8.01 4.88 11.78
4/13/2022 11:45:00 AM 14.22 57.596 0.01 8.04 4.47 11.98
4/13/2022 12:00:00 PM 14.45 58.01 0.011 8.06 4.58 12.07
4/13/2022 12:15:00 PM 14.66 58.388 0.01 8.08 4.42 12.16
4/13/2022 12:30:00 PM 14.9 58.82 0.01 8.11 4.49 12.3
4/13/2022 12:45:00 PM 15.08 59.144 0.011 8.12 4.34 12.3
4/13/2022 1:00:00 PM 15.37 59.666 0.01 8.14 4.45 12.46
4/13/2022 1:15:00 PM 15.7 60.26 0.011 8.17 4.25 12.59
4/13/2022 1:30:00 PM 15.94 60.692 0.01 8.18 4.13 12.51
4/13/2022 1:45:00 PM 16.17 61.106 0.011 8.18 4.35 12.5
4/13/2022 2:00:00 PM 16.42 61.556 0.012 8.2 4.64 12.54
4/13/2022 2:15:00 PM 16.54 61.772 0.01 8.2 4.7 12.37
4/13/2022 2:30:00 PM 16.67 62.006 0.009 8.2 5.41 12.28
4/13/2022 2:45:00 PM 16.76 62.168 0.008 8.2 4.79 12.2
4/13/2022 3:00:00 PM 16.84 62.312 0.01 8.2 6.09 12.06
4/13/2022 3:15:00 PM 16.97 62.546 0.013 8.21 5.39 12.13
4/13/2022 3:30:00 PM 17.04 62.672 0.011 8.2 5.21 11.99
4/13/2022 3:45:00 PM 17.12 62.816 0.01 8.2 4.74 11.9
4/13/2022 4:00:00 PM 17.19 62.942 0.011 8.2 4.96 11.78
4/13/2022 4:15:00 PM 17.24 63.032 0.01 8.19 4.61 11.66
4/13/2022 4:30:00 PM 17.29 63.122 0.012 8.19 4.67 11.57
4/13/2022 4:45:00 PM 17.33 63.194 0.009 8.18 4.69 11.42
4/13/2022 5:00:00 PM 17.37 63.266 0.009 8.17 4.69 11.28
4/13/2022 5:15:00 PM 17.4 63.32 0.007 8.15 4.49 11.11
4/13/2022 5:30:00 PM 17.39 63.302 0.01 8.13 4.85 10.89
4/13/2022 5:45:00 PM 17.37 63.266 0.01 8.11 4.69 10.63
4/13/2022 6:00:00 PM 17.32 63.176 0.009 8.09 4.63 10.47
4/13/2022 6:15:00 PM 17.27 63.086 0.009 8.07 4.81 10.31
4/13/2022 6:30:00 PM 17.23 63.014 0.009 8.05 4.57 10.17
4/13/2022 6:45:00 PM 17.19 62.942 0.011 8.02 4.59 9.94
4/13/2022 7:00:00 PM 17.14 62.852 0.01 7.99 4.45 9.71
4/13/2022 7:15:00 PM 17.08 62.744 0.01 7.97 4.69 9.51
4/13/2022 7:30:00 PM 17.01 62.618 0.01 7.94 4.72 9.3
4/13/2022 7:45:00 PM 16.94 62.492 0.01 7.91 4.65 9.09
4/13/2022 8:00:00 PM 16.86 62.348 0.012 7.89 4.85 8.89
4/13/2022 8:15:00 PM 16.77 62.186 0.01 7.86 5.2 8.73
4/13/2022 8:30:00 PM 16.68 62.024 0.008 7.84 5.25 8.58
4/13/2022 8:45:00 PM 16.58 61.844 0.009 7.81 6.91 8.43
4/13/2022 9:00:00 PM 16.47 61.646 0.01 7.79 5.29 8.29
4/13/2022 9:15:00 PM 16.36 61.448 0.01 7.77 5.63 8.17
4/13/2022 9:30:00 PM 16.25 61.25 0.013 7.76 5.16 8.07
4/13/2022 9:45:00 PM 16.14 61.052 0.01 7.74 5.44 7.96
4/13/2022 10:00:00 PM 16.03 60.854 0.011 7.72 5.34 7.87
4/13/2022 10:15:00 PM 15.92 60.656 0.009 7.71 5.34 7.8
4/13/2022 10:30:00 PM 15.81 60.458 0.011 7.69 5.82 7.74
4/13/2022 10:45:00 PM 15.7 60.26 0.009 7.68 5.28 7.69
4/13/2022 11:00:00 PM 15.59 60.062 0.01 7.66 5.45 7.64
4/13/2022 11:15:00 PM 15.48 59.864 0.01 7.64 5.38 7.61
4/13/2022 11:30:00 PM 15.38 59.684 0.01 7.63 5.01 7.59
4/13/2022 11:45:00 PM 15.28 59.504 0.01 7.62 5.21 7.57
4/14/2022 12:00:00 AM 15.18 59.324 0.011 7.62 5.61 7.57
4/14/2022 12:15:00 AM 15.08 59.144 0.011 7.61 6.28 7.56
4/14/2022 12:30:00 AM 14.98 58.964 0.012 7.61 5.63 7.55
4/14/2022 12:45:00 AM 14.89 58.802 0.01 7.61 5.39 7.58
4/14/2022 1:00:00 AM 14.8 58.64 0.007 7.6 5.16 7.59
4/14/2022 1:15:00 AM 14.71 58.478 0.012 7.6 5.53 7.6
4/14/2022 1:30:00 AM 14.63 58.334 0.009 7.6 5.42 7.62
4/14/2022 1:45:00 AM 14.56 58.208 0.011 7.6 5.38 7.63
4/14/2022 2:00:00 AM 14.5 58.1 0.011 7.6 5.32 7.65
4/14/2022 2:15:00 AM 14.43 57.974 0.011 7.6 5.02 7.66
4/14/2022 2:30:00 AM 14.36 57.848 0.012 7.61 5.34 7.67
4/14/2022 2:45:00 AM 14.31 57.758 0.01 7.61 5.55 7.68
4/14/2022 3:00:00 AM 14.25 57.65 0.01 7.61 5.61 7.71
4/14/2022 3:15:00 AM 14.2 57.56 0.01 7.61 5.84 7.73
4/14/2022 3:30:00 AM 14.14 57.452 0.011 7.61 5.85 7.76
4/14/2022 3:45:00 AM 14.09 57.362 0.01 7.62 5.7 7.77
4/14/2022 4:00:00 AM 14.04 57.272 0.009 7.62 5.56 7.8
4/14/2022 4:15:00 AM 13.97 57.146 0.009 7.62 5.77 7.81
4/14/2022 4:30:00 AM 13.9 57.02 0.01 7.62 5.91 7.84
4/14/2022 4:45:00 AM 13.83 56.894 0.012 7.62 5.22 7.86
4/14/2022 5:00:00 AM 13.77 56.786 0.01 7.62 5.19 7.9
4/14/2022 5:15:00 AM 13.7 56.66 0.01 7.62 5.43 7.92
4/14/2022 5:30:00 AM 13.65 56.57 0.01 7.63 5.43 7.94
4/14/2022 5:45:00 AM 13.59 56.462 0.01 7.63 5.62 7.96
4/14/2022 6:00:00 AM 13.54 56.372 0.01 7.63 5.5 7.98
4/14/2022 6:15:00 AM 13.49 56.282 0.008 7.63 5.62 7.99
4/14/2022 6:30:00 AM 13.44 56.192 0.009 7.63 5.33 8.03
4/14/2022 6:45:00 AM 13.39 56.102 0.008 7.64 6.45 8.05
4/14/2022 7:00:00 AM 13.34 56.012 0.009 7.64 4.96 8.13
4/14/2022 7:15:00 AM 13.3 55.94 0.01 7.65 5.32 8.21
4/14/2022 7:30:00 AM 13.27 55.886 0.01 7.66 4.93 8.31
4/14/2022 7:45:00 AM 13.25 55.85 0.011 7.67 4.67 8.41
4/14/2022 8:00:00 AM 13.24 55.832 0.011 7.68 4.91 8.55
4/14/2022 8:15:00 AM 13.25 55.85 0.011 7.69 4.88 8.71
4/14/2022 8:30:00 AM 13.29 55.922 0.011 7.71 4.77 8.9
4/14/2022 8:45:00 AM 13.35 56.03 0.01 7.73 5.24 9.09
4/14/2022 9:00:00 AM 13.43 56.174 0.01 7.75 4.91 9.31
4/14/2022 9:15:00 AM 13.52 56.336 0.011 7.78 4.78 9.54
4/14/2022 9:30:00 AM 13.64 56.552 0.009 7.8 4.92 9.77
4/14/2022 9:45:00 AM 13.77 56.786 0.011 7.83 5.21 10.02
4/14/2022 10:00:00 AM 13.91 57.038 0.011 7.85 5 10.25
4/14/2022 10:15:00 AM 14.07 57.326 0.01 7.89 4.76 10.51
4/14/2022 10:30:00 AM 14.24 57.632 0.01 7.92 4.65 10.75
4/14/2022 10:45:00 AM 14.43 57.974 0.011 7.95 4.71 10.98
4/14/2022 11:00:00 AM 14.65 58.37 0.01 7.98 4.89 11.21
4/14/2022 11:15:00 AM 14.89 58.802 0.01 8.01 4.64 11.42
4/14/2022 11:30:00 AM 15.15 59.27 0.01 8.04 4.66 11.63
4/14/2022 11:45:00 AM 15.42 59.756 0.008 8.07 4.28 11.79
4/14/2022 12:00:00 PM 15.72 60.296 0.012 8.1 4.49 11.97
4/14/2022 12:15:00 PM 15.93 60.674 0.009 8.12 4.71 12.04
4/14/2022 12:30:00 PM 16.25 61.25 0.011 8.15 4.85 12.26
4/14/2022 12:45:00 PM 16.46 61.628 0.012 8.17 4.27 12.28
4/14/2022 1:00:00 PM 16.74 62.132 0.009 8.19 4.69 12.37
4/14/2022 1:15:00 PM 16.95 62.51 0.011 8.21 4.3 12.42
4/14/2022 1:30:00 PM 17.11 62.798 0.01 8.22 4.4 12.35
4/14/2022 1:45:00 PM 17.36 63.248 0.008 8.23 4.45 12.44
4/14/2022 2:00:00 PM 17.54 63.572 0.01 8.24 4.46 12.38
4/14/2022 2:15:00 PM 17.59 63.662 0.011 8.22 5.76 12.01
4/14/2022 2:30:00 PM 17.63 63.734 0.012 8.21 4.72 11.74
4/14/2022 2:45:00 PM 17.68 63.824 0.013 8.21 4.84 11.74
4/14/2022 3:00:00 PM 17.67 63.806 0.01 8.19 5.23 11.37
4/14/2022 3:15:00 PM 17.64 63.752 0.013 8.16 5.64 11.02
4/14/2022 3:30:00 PM 17.62 63.716 0.01 8.14 5.66 10.79
4/14/2022 3:45:00 PM 17.58 63.644 0.01 8.12 4.71 10.6
4/14/2022 4:00:00 PM 17.59 63.662 0.009 8.12 4.93 10.65
4/14/2022 4:15:00 PM 17.64 63.752 0.011 8.13 4.96 10.84
4/14/2022 4:30:00 PM 17.61 63.698 0.009 8.11 4.7 10.62
4/14/2022 4:45:00 PM 17.58 63.644 0.012 8.09 4.61 10.43
4/14/2022 5:00:00 PM 17.54 63.572 0.009 8.08 4.83 10.37
4/14/2022 5:15:00 PM 17.47 63.446 0.01 8.06 4.67 10.22
4/14/2022 5:30:00 PM 17.39 63.302 0.012 8.05 4.47 10.18
4/14/2022 5:45:00 PM 17.3 63.14 0.009 8.04 4.46 10.11
4/14/2022 6:00:00 PM 17.21 62.978 0.009 8.02 4.6 9.97
4/14/2022 6:15:00 PM 17.12 62.816 0.011 8 4.74 9.86
4/14/2022 6:30:00 PM 17 62.6 0.01 7.99 4.48 9.72
4/14/2022 6:45:00 PM 16.87 62.366 0.009 7.96 4.58 9.52
4/14/2022 7:00:00 PM 16.75 62.15 0.011 7.94 4.58 9.39
4/14/2022 7:15:00 PM 16.6 61.88 0.008 7.92 4.79 9.24
4/14/2022 7:30:00 PM 16.46 61.628 0.008 7.9 4.9 9.06
4/14/2022 7:45:00 PM 16.35 61.43 0.011 7.88 4.58 8.94
4/14/2022 8:00:00 PM 16.23 61.214 0.013 7.85 4.85 8.81
4/14/2022 8:15:00 PM 16.11 60.998 0.009 7.83 4.84 8.7
4/14/2022 8:30:00 PM 15.99 60.782 0.01 7.81 5.2 8.6
4/14/2022 8:45:00 PM 15.87 60.566 0.011 7.79 6.38 8.51
4/14/2022 9:00:00 PM 15.75 60.35 0.011 7.77 5.25 8.41
4/14/2022 9:15:00 PM 15.62 60.116 0.011 7.75 5 8.33
4/14/2022 9:30:00 PM 15.48 59.864 0.01 7.73 5.42 8.23
4/14/2022 9:45:00 PM 15.34 59.612 0.009 7.72 5.07 8.19
4/14/2022 10:00:00 PM 15.19 59.342 0.01 7.7 5.27 8.13
4/14/2022 10:15:00 PM 15.04 59.072 0.011 7.69 5.37 8.06
4/14/2022 10:30:00 PM 14.89 58.802 0.01 7.68 5.08 8.02
4/14/2022 10:45:00 PM 14.75 58.55 0.01 7.67 4.94 7.99
4/14/2022 11:00:00 PM 14.61 58.298 0.009 7.66 5.32 7.96
4/14/2022 11:15:00 PM 14.47 58.046 0.01 7.65 5.06 7.92
4/14/2022 11:30:00 PM 14.34 57.812 0.012 7.65 5.17 7.91
4/14/2022 11:45:00 PM 14.2 57.56 0.01 7.64 4.93 7.9
4/15/2022 12:00:00 AM 14.07 57.326 0.01 7.64 5.19 7.89
4/15/2022 12:15:00 AM 13.94 57.092 0.009 7.64 5.01 7.92
4/15/2022 12:30:00 AM 13.82 56.876 0.01 7.63 5.1 7.92
4/15/2022 12:45:00 AM 13.69 56.642 0.011 7.63 5.39 7.94
4/15/2022 1:00:00 AM 13.57 56.426 0.01 7.63 5.11 7.96
4/15/2022 1:15:00 AM 13.45 56.21 0.01 7.63 5.17 7.98
4/15/2022 1:30:00 AM 13.33 55.994 0.009 7.63 5.24 8.02
4/15/2022 1:45:00 AM 13.22 55.796 0.01 7.63 5.1 8.02
4/15/2022 2:00:00 AM 13.1 55.58 0.01 7.63 5.08 8.06
4/15/2022 2:15:00 AM 12.99 55.382 0.01 7.63 5.07 8.11
4/15/2022 2:30:00 AM 12.88 55.184 0.01 7.63 5.3 8.15
4/15/2022 2:45:00 AM 12.77 54.986 0.011 7.63 5.15 8.18
4/15/2022 3:00:00 AM 12.67 54.806 0.008 7.64 5.36 8.21
4/15/2022 3:15:00 AM 12.56 54.608 0.011 7.64 5.32 8.24
4/15/2022 3:30:00 AM 12.46 54.428 0.01 7.64 5.31 8.28
4/15/2022 3:45:00 AM 12.36 54.248 0.01 7.64 5.66 8.32
4/15/2022 4:00:00 AM 12.26 54.068 0.01 7.64 6.46 8.35
4/15/2022 4:15:00 AM 12.17 53.906 0.01 7.64 5.89 8.39
4/15/2022 4:30:00 AM 12.07 53.726 0.009 7.65 5.77 8.42
4/15/2022 4:45:00 AM 11.97 53.546 0.011 7.65 5.74 8.45
4/15/2022 5:00:00 AM 11.88 53.384 0.01 7.65 6.35 8.49
4/15/2022 5:15:00 AM 11.78 53.204 0.01 7.65 6.46 8.52
4/15/2022 5:30:00 AM 11.69 53.042 0.01 7.66 6.42 8.57
4/15/2022 5:45:00 AM 11.61 52.898 0.009 7.66 6.08 8.59
4/15/2022 6:00:00 AM 11.53 52.754 0.01 7.66 5.53 8.63
4/15/2022 6:15:00 AM 11.45 52.61 0.008 7.66 5.74 8.65
4/15/2022 6:30:00 AM 11.37 52.466 0.01 7.67 5.28 8.7
4/15/2022 6:45:00 AM 11.29 52.322 0.012 7.67 5.38 8.76
4/15/2022 7:00:00 AM 11.23 52.214 0.013 7.68 4.81 8.84
4/15/2022 7:15:00 AM 11.17 52.106 0.012 7.68 5.01 8.95
4/15/2022 7:30:00 AM 11.13 52.034 0.01 7.69 4.72 9.05
4/15/2022 7:45:00 AM 11.09 51.962 0.011 7.7 5.15 9.18
4/15/2022 8:00:00 AM 11.08 51.944 0.01 7.72 5.13 9.3
4/15/2022 8:15:00 AM 11.08 51.944 0.009 7.73 4.72 9.47
4/15/2022 8:30:00 AM 11.11 51.998 0.009 7.76 5 9.66
4/15/2022 8:45:00 AM 11.17 52.106 0.012 7.78 4.48 9.89
4/15/2022 9:00:00 AM 11.24 52.232 0.012 7.8 4.91 10.09
4/15/2022 9:15:00 AM 11.33 52.394 0.01 7.83 4.73 10.32
4/15/2022 9:30:00 AM 11.44 52.592 0.009 7.85 4.61 10.56
4/15/2022 9:45:00 AM 11.58 52.844 0.01 7.88 4.66 10.77
4/15/2022 10:00:00 AM 11.72 53.096 0.01 7.9 4.88 10.99
4/15/2022 10:15:00 AM 11.88 53.384 0.012 7.93 4.78 11.24
4/15/2022 10:30:00 AM 12.05 53.69 0.009 7.96 4.81 11.45
4/15/2022 10:45:00 AM 12.22 53.996 0.009 7.99 4.83 11.62
4/15/2022 11:00:00 AM 12.42 54.356 0.009 8.02 4.57 11.88
4/15/2022 11:15:00 AM 12.64 54.752 0.011 8.05 4.64 12.09
4/15/2022 11:30:00 AM 12.88 55.184 0.009 8.08 4.94 12.27
4/15/2022 11:45:00 AM 13.14 55.652 0.01 8.11 4.53 12.45
4/15/2022 12:00:00 PM 13.42 56.156 0.01 8.14 4.35 12.6
4/15/2022 12:15:00 PM 13.72 56.696 0.011 8.16 4.7 12.73
4/15/2022 12:30:00 PM 14.02 57.236 0.009 8.19 4.62 12.84
4/15/2022 12:45:00 PM 14.32 57.776 0.01 8.21 4.35 12.93
4/15/2022 1:00:00 PM 14.61 58.298 0.01 8.23 4.25 12.98
4/15/2022 1:15:00 PM 14.92 58.856 0.011 8.25 4.27 13.04
4/15/2022 1:30:00 PM 15.21 59.378 0.011 8.26 4.39 13.08
4/15/2022 1:45:00 PM 15.49 59.882 0.008 8.28 5.09 13.06
4/15/2022 2:00:00 PM 15.73 60.314 0.011 8.29 5.18 13.04
4/15/2022 2:15:00 PM 15.96 60.728 0.01 8.29 4.65 13.02
4/15/2022 2:30:00 PM 16.17 61.106 0.01 8.3 4.98 12.97
4/15/2022 2:45:00 PM 16.34 61.412 0.01 8.3 5.55 12.91
4/15/2022 3:00:00 PM 16.49 61.682 0.009 8.31 4.69 12.83
4/15/2022 3:15:00 PM 16.64 61.952 0.009 8.31 5.25 12.73
4/15/2022 3:30:00 PM 16.76 62.168 0.01 8.3 4.79 12.64
4/15/2022 3:45:00 PM 16.85 62.33 0.011 8.3 4.48 12.52
4/15/2022 4:00:00 PM 16.93 62.474 0.01 8.3 4.42 12.39
4/15/2022 4:15:00 PM 16.99 62.582 0.01 8.29 4.21 12.25
4/15/2022 4:30:00 PM 17.03 62.654 0.011 8.28 4.59 12.09
4/15/2022 4:45:00 PM 17.03 62.654 0.01 8.27 4.42 11.94
4/15/2022 5:00:00 PM 17 62.6 0.01 8.25 4.72 11.76
4/15/2022 5:15:00 PM 16.96 62.528 0.009 8.23 4.73 11.59
4/15/2022 5:30:00 PM 16.89 62.402 0.01 8.21 4.55 11.37
4/15/2022 5:45:00 PM 16.82 62.276 0.01 8.19 4.82 11.17
4/15/2022 6:00:00 PM 16.73 62.114 0.009 8.17 4.88 10.94
4/15/2022 6:15:00 PM 16.64 61.952 0.007 8.14 4.46 10.7
4/15/2022 6:30:00 PM 16.53 61.754 0.011 8.12 4.45 10.48
4/15/2022 6:45:00 PM 16.43 61.574 0.01 8.09 4.63 10.26
4/15/2022 7:00:00 PM 16.32 61.376 0.01 8.06 4.67 10.03
4/15/2022 7:15:00 PM 16.21 61.178 0.011 8.03 4.91 9.81
4/15/2022 7:30:00 PM 16.1 60.98 0.011 7.99 5.2 9.57
4/15/2022 7:45:00 PM 15.99 60.782 0.009 7.97 4.75 9.39
4/15/2022 8:00:00 PM 15.88 60.584 0.008 7.94 4.65 9.22
4/15/2022 8:15:00 PM 15.77 60.386 0.008 7.92 4.93 9.07
4/15/2022 8:30:00 PM 15.65 60.17 0.008 7.9 5.25 8.93
4/15/2022 8:45:00 PM 15.53 59.954 0.01 7.87 5.17 8.8
4/15/2022 9:00:00 PM 15.41 59.738 0.008 7.85 5.35 8.68
4/15/2022 9:15:00 PM 15.28 59.504 0.009 7.84 4.88 8.59
4/15/2022 9:30:00 PM 15.14 59.252 0.009 7.82 5.5 8.5
4/15/2022 9:45:00 PM 15.01 59.018 0.011 7.8 5.5 8.41
4/15/2022 10:00:00 PM 14.87 58.766 0.009 7.78 5.81 8.32
4/15/2022 10:15:00 PM 14.73 58.514 0.01 7.76 5.21 8.25
4/15/2022 10:30:00 PM 14.58 58.244 0.007 7.73 5.21 8.18
4/15/2022 10:45:00 PM 14.44 57.992 0.011 7.72 5.1 8.12
4/15/2022 11:00:00 PM 14.29 57.722 0.01 7.7 5.12 8.1
4/15/2022 11:15:00 PM 14.15 57.47 0.009 7.69 5.47 8.06
4/15/2022 11:30:00 PM 14.02 57.236 0.01 7.68 5.37 8.03
4/15/2022 11:45:00 PM 13.88 56.984 0.008 7.67 5.06 8.02
4/16/2022 12:00:00 AM 13.76 56.768 0.01 7.67 5.4 8
4/16/2022 12:15:00 AM 13.64 56.552 0.009 7.66 5.24 8.03
4/16/2022 12:30:00 AM 13.53 56.354 0.009 7.66 5.49 8.03
4/16/2022 12:45:00 AM 13.42 56.156 0.01 7.66 5.26 8.04
4/16/2022 1:00:00 AM 13.32 55.976 0.009 7.65 5.21 8.05
4/16/2022 1:15:00 AM 13.22 55.796 0.01 7.65 5.08 8.07
4/16/2022 1:30:00 AM 13.13 55.634 0.01 7.65 5.28 8.09
4/16/2022 1:45:00 AM 13.04 55.472 0.009 7.65 5.39 8.11
4/16/2022 2:00:00 AM 12.95 55.31 0.008 7.65 5.07 8.13
4/16/2022 2:15:00 AM 12.86 55.148 0.009 7.65 5.22 8.17
4/16/2022 2:30:00 AM 12.78 55.004 0.01 7.66 4.91 8.19
4/16/2022 2:45:00 AM 12.72 54.896 0.008 7.66 5.19 8.21
4/16/2022 3:00:00 AM 12.65 54.77 0.009 7.66 5.28 8.2
4/16/2022 3:15:00 AM 12.6 54.68 0.009 7.66 5.57 8.25
4/16/2022 3:30:00 AM 12.55 54.59 0.01 7.66 5.34 8.28
4/16/2022 3:45:00 AM 12.52 54.536 0.009 7.67 5.05 8.27
4/16/2022 4:00:00 AM 12.48 54.464 0.011 7.67 4.98 8.3
4/16/2022 4:15:00 AM 12.44 54.392 0.01 7.67 5.86 8.33
4/16/2022 4:30:00 AM 12.4 54.32 0.01 7.68 6.55 8.35
4/16/2022 4:45:00 AM 12.36 54.248 0.008 7.68 6.35 8.36
4/16/2022 5:00:00 AM 12.32 54.176 0.007 7.68 6.45 8.38
4/16/2022 5:15:00 AM 12.29 54.122 0.008 7.68 6.31 8.39
4/16/2022 5:30:00 AM 12.25 54.05 0.008 7.69 6.02 8.41
4/16/2022 5:45:00 AM 12.22 53.996 0.007 7.69 6.28 8.42
4/16/2022 6:00:00 AM 12.19 53.942 0.008 7.69 6.32 8.44
4/16/2022 6:15:00 AM 12.16 53.888 0.01 7.69 5.71 8.46
4/16/2022 6:30:00 AM 12.14 53.852 0.01 7.7 5.21 8.47
4/16/2022 6:45:00 AM 12.11 53.798 0.01 7.7 4.92 8.5
4/16/2022 7:00:00 AM 12.09 53.762 0.008 7.7 4.91 8.54
4/16/2022 7:15:00 AM 12.07 53.726 0.009 7.71 4.8 8.59
4/16/2022 7:30:00 AM 12.07 53.726 0.008 7.71 4.75 8.63
4/16/2022 7:45:00 AM 12.07 53.726 0.008 7.72 5.13 8.73
4/16/2022 8:00:00 AM 12.09 53.762 0.008 7.73 4.72 8.92
4/16/2022 8:15:00 AM 12.13 53.834 0.009 7.75 4.83 9.16
4/16/2022 8:30:00 AM 12.18 53.924 0.009 7.77 6.95 9.37
4/16/2022 8:45:00 AM 12.23 54.014 0.009 7.79 4.74 9.52
4/16/2022 9:00:00 AM 12.31 54.158 0.008 7.81 4.53 9.76
4/16/2022 9:15:00 AM 12.38 54.284 0.009 7.84 4.52 10
4/16/2022 9:30:00 AM 12.46 54.428 0.01 7.86 4.55 10.19
4/16/2022 9:45:00 AM 12.58 54.644 0.008 7.89 5.81 10.51
4/16/2022 10:00:00 AM 12.68 54.824 0.01 7.92 5.33 10.75
4/16/2022 10:15:00 AM 12.8 55.04 0.009 7.94 4.3 10.93
4/16/2022 10:30:00 AM 12.91 55.238 0.008 7.97 4.43 11.15
4/16/2022 10:45:00 AM 13.04 55.472 0.009 8 4.34 11.41
4/16/2022 11:00:00 AM 13.12 55.616 0.01 8.02 4.38 11.49
4/16/2022 11:15:00 AM 13.22 55.796 0.01 8.04 4.38 11.59
4/16/2022 11:30:00 AM 13.35 56.03 0.01 8.07 4.42 11.87
4/16/2022 11:45:00 AM 13.45 56.21 0.009 8.09 4.07 11.94
4/16/2022 12:00:00 PM 13.55 56.39 0.007 8.1 4.48 11.99
4/16/2022 12:15:00 PM 13.66 56.588 0.009 8.11 4.18 12.04
4/16/2022 12:30:00 PM 13.73 56.714 0.01 8.11 4.28 11.91
4/16/2022 12:45:00 PM 13.8 56.84 0.011 8.11 4.18 11.91
4/16/2022 1:00:00 PM 13.87 56.966 0.009 8.12 4.06 11.89
4/16/2022 1:15:00 PM 13.95 57.11 0.01 8.12 4.29 11.86
4/16/2022 1:30:00 PM 14.07 57.326 0.01 8.13 4.45 12.01
4/16/2022 1:45:00 PM 14.24 57.632 0.007 8.15 4.34 12.22
4/16/2022 2:00:00 PM 14.44 57.992 0.01 8.17 4.07 12.32
4/16/2022 2:15:00 PM 14.62 58.316 0.01 8.18 4.34 12.31
4/16/2022 2:30:00 PM 14.84 58.712 0.012 8.19 4.24 12.34
4/16/2022 2:45:00 PM 15.1 59.18 0.01 8.2 4.34 12.42
4/16/2022 3:00:00 PM 15.31 59.558 0.011 8.21 4.38 12.41
4/16/2022 3:15:00 PM 15.51 59.918 0.009 8.21 4.09 12.38
4/16/2022 3:30:00 PM 15.68 60.224 0.01 8.22 4.14 12.38
4/16/2022 3:45:00 PM 15.68 60.224 0.01 8.21 4.25 12.11
4/16/2022 4:00:00 PM 15.65 60.17 0.011 8.19 4.73 11.8
4/16/2022 4:15:00 PM 15.59 60.062 0.01 8.18 4.12 11.63
4/16/2022 4:30:00 PM 15.54 59.972 0.011 8.18 4.16 11.63
4/16/2022 4:45:00 PM 15.51 59.918 0.011 8.17 4.26 11.64
4/16/2022 5:00:00 PM 15.53 59.954 0.01 8.17 4.24 11.56
4/16/2022 5:15:00 PM 15.58 60.044 0.009 8.16 4.51 11.41
4/16/2022 5:30:00 PM 15.59 60.062 0.009 8.13 4.19 11.05
4/16/2022 5:45:00 PM 15.59 60.062 0.009 8.11 4.4 10.78
4/16/2022 6:00:00 PM 15.58 60.044 0.009 8.09 4.32 10.57
4/16/2022 6:15:00 PM 15.55 59.99 0.008 8.06 4.26 10.36
4/16/2022 6:30:00 PM 15.52 59.936 0.009 8.04 4.19 10.14
4/16/2022 6:45:00 PM 15.49 59.882 0.009 8.01 4.28 9.94
4/16/2022 7:00:00 PM 15.45 59.81 0.009 7.99 4.21 9.78
4/16/2022 7:15:00 PM 15.38 59.684 0.008 7.97 4.09 9.57
4/16/2022 7:30:00 PM 15.28 59.504 0.008 7.94 4.24 9.42
4/16/2022 7:45:00 PM 15.16 59.288 0.01 7.92 4.34 9.22
4/16/2022 8:00:00 PM 15.04 59.072 0.01 7.89 4.47 9.04
4/16/2022 8:15:00 PM 14.93 58.874 0.009 7.87 4.44 8.92
4/16/2022 8:30:00 PM 14.84 58.712 0.008 7.85 4.95 8.78
4/16/2022 8:45:00 PM 14.76 58.568 0.009 7.83 4.89 8.67
4/16/2022 9:00:00 PM 14.67 58.406 0.009 7.82 4.98 8.58
4/16/2022 9:15:00 PM 14.59 58.262 0.009 7.8 4.97 8.48
4/16/2022 9:30:00 PM 14.51 58.118 0.01 7.78 5.05 8.39
4/16/2022 9:45:00 PM 14.43 57.974 0.009 7.77 4.91 8.31
4/16/2022 10:00:00 PM 14.33 57.794 0.01 7.75 4.9 8.23
4/16/2022 10:15:00 PM 14.24 57.632 0.007 7.74 4.7 8.15
4/16/2022 10:30:00 PM 14.15 57.47 0.009 7.72 5.2 8.13
4/16/2022 10:45:00 PM 14.06 57.308 0.01 7.71 5.04 8.09
4/16/2022 11:00:00 PM 13.98 57.164 0.009 7.7 5.13 8.07
4/16/2022 11:15:00 PM 13.88 56.984 0.009 7.69 5.01 8.07
4/16/2022 11:30:00 PM 13.78 56.804 0.009 7.68 5.08 8.03
4/16/2022 11:45:00 PM 13.67 56.606 0.009 7.67 4.94 8.06
4/17/2022 12:00:00 AM 13.57 56.426 0.01 7.67 4.91 8.03
4/17/2022 12:15:00 AM 13.47 56.246 0.009 7.66 4.76 8.04
4/17/2022 12:30:00 AM 13.36 56.048 0.008 7.65 4.99 8.03
4/17/2022 12:45:00 AM 13.26 55.868 0.009 7.65 4.95 8.05
4/17/2022 1:00:00 AM 13.18 55.724 0.009 7.65 5.46 8.06
4/17/2022 1:15:00 AM 13.09 55.562 0.011 7.64 4.94 8.04
4/17/2022 1:30:00 AM 13 55.4 0.009 7.64 5.05 8.07
4/17/2022 1:45:00 AM 12.91 55.238 0.009 7.64 4.71 8.11
4/17/2022 2:00:00 AM 12.83 55.094 0.009 7.64 4.8 8.13
4/17/2022 2:15:00 AM 12.74 54.932 0.008 7.64 4.6 8.15
4/17/2022 2:30:00 AM 12.65 54.77 0.008 7.64 4.83 8.17
4/17/2022 2:45:00 AM 12.56 54.608 0.008 7.64 5.04 8.21
4/17/2022 3:00:00 AM 12.49 54.482 0.009 7.64 4.9 8.21
4/17/2022 3:15:00 AM 12.42 54.356 0.01 7.64 4.75 8.26
4/17/2022 3:30:00 AM 12.34 54.212 0.008 7.65 4.76 8.28
4/17/2022 3:45:00 AM 12.27 54.086 0.007 7.65 4.39 8.29
4/17/2022 4:00:00 AM 12.19 53.942 0.009 7.65 4.68 8.35
4/17/2022 4:15:00 AM 12.11 53.798 0.009 7.65 4.64 8.38
4/17/2022 4:30:00 AM 12.02 53.636 0.008 7.65 4.52 8.41
4/17/2022 4:45:00 AM 11.93 53.474 0.009 7.66 4.86 8.44
4/17/2022 5:00:00 AM 11.84 53.312 0.009 7.66 5.49 8.48
4/17/2022 5:15:00 AM 11.75 53.15 0.008 7.66 5.55 8.52
4/17/2022 5:30:00 AM 11.66 52.988 0.009 7.66 5.23 8.54
4/17/2022 5:45:00 AM 11.58 52.844 0.008 7.67 5.54 8.6
4/17/2022 6:00:00 AM 11.5 52.7 0.009 7.67 5.4 8.6
4/17/2022 6:15:00 AM 11.42 52.556 0.008 7.67 5 8.64
4/17/2022 6:30:00 AM 11.34 52.412 0.008 7.68 4.92 8.71
4/17/2022 6:45:00 AM 11.27 52.286 0.009 7.68 4.83 8.73
4/17/2022 7:00:00 AM 11.2 52.16 0.009 7.69 5.04 8.83
4/17/2022 7:15:00 AM 11.15 52.07 0.01 7.7 4.86 8.95
4/17/2022 7:30:00 AM 11.1 51.98 0.009 7.71 4.82 9.08
4/17/2022 7:45:00 AM 11.06 51.908 0.008 7.72 4.8 9.23
4/17/2022 8:00:00 AM 11.02 51.836 0.009 7.74 4.78 9.37
4/17/2022 8:15:00 AM 11.01 51.818 0.008 7.75 5.04 9.55
4/17/2022 8:30:00 AM 11.01 51.818 0.009 7.78 4.74 9.8
4/17/2022 8:45:00 AM 11.03 51.854 0.009 7.8 4.9 10.02
4/17/2022 9:00:00 AM 11.07 51.926 0.009 7.82 4.86 10.22
4/17/2022 9:15:00 AM 11.12 52.016 0.009 7.85 4.44 10.48
4/17/2022 9:30:00 AM 11.11 51.998 0.01 7.86 4.69 10.52
4/17/2022 9:45:00 AM 11.22 52.196 0.01 7.89 4.54 10.87
4/17/2022 10:00:00 AM 11.28 52.304 0.009 7.92 4.38 11.06
4/17/2022 10:15:00 AM 11.28 52.304 0.009 7.91 4.47 10.85
4/17/2022 10:30:00 AM 11.28 52.304 0.009 7.91 4.64 10.78
4/17/2022 10:45:00 AM 11.3 52.34 0.009 7.94 4.83 11.18
4/17/2022 11:00:00 AM 11.34 52.412 0.009 7.97 4.26 11.46
4/17/2022 11:15:00 AM 11.36 52.448 0.009 7.98 4.25 11.44
4/17/2022 11:30:00 AM 11.49 52.682 0.01 8.01 4.49 11.77
4/17/2022 11:45:00 AM 11.62 52.916 0.007 8.04 4.18 11.91
4/17/2022 12:00:00 PM 11.68 53.024 0.009 8.06 4.52 12
4/17/2022 12:15:00 PM 11.89 53.402 0.01 8.08 4.32 12.24
4/17/2022 12:30:00 PM 12.19 53.942 0.009 8.12 4 12.51
4/17/2022 12:45:00 PM 12.29 54.122 0.009 8.12 4.17 12.32
4/17/2022 1:00:00 PM 12.38 54.284 0.009 8.13 4.24 12.35
4/17/2022 1:15:00 PM 12.56 54.608 0.009 8.16 4.05 12.69
4/17/2022 1:30:00 PM 12.68 54.824 0.009 8.18 4.03 12.77
4/17/2022 1:45:00 PM 12.87 55.166 0.009 8.19 3.84 12.83
4/17/2022 2:00:00 PM 13.12 55.616 0.009 8.21 3.93 12.98
4/17/2022 2:15:00 PM 13.24 55.832 0.01 8.22 4.36 12.94
4/17/2022 2:30:00 PM 13.38 56.084 0.009 8.22 4.18 12.88
4/17/2022 2:45:00 PM 13.48 56.264 0.009 8.23 4.1 12.85
4/17/2022 3:00:00 PM 13.62 56.516 0.009 8.25 4.36 13
4/17/2022 3:15:00 PM 13.68 56.624 0.008 8.25 4.19 12.92
4/17/2022 3:30:00 PM 13.82 56.876 0.009 8.26 4.28 13.01
4/17/2022 3:45:00 PM 13.81 56.858 0.009 8.25 4.11 12.77
4/17/2022 4:00:00 PM 13.91 57.038 0.008 8.26 4.17 12.77
4/17/2022 4:15:00 PM 14 57.2 0.009 8.27 3.99 12.86
4/17/2022 4:30:00 PM 14 57.2 0.009 8.26 4.59 12.71
4/17/2022 4:45:00 PM 14.01 57.218 0.008 8.26 4.28 12.6
4/17/2022 5:00:00 PM 14.02 57.236 0.009 8.25 4.11 12.5
4/17/2022 5:15:00 PM 14 57.2 0.008 8.25 4.21 12.41
4/17/2022 5:30:00 PM 13.96 57.128 0.007 8.23 4.2 12.24
4/17/2022 5:45:00 PM 13.88 56.984 0.009 8.22 4.13 12.05
4/17/2022 6:00:00 PM 13.81 56.858 0.008 8.2 4.13 11.86
4/17/2022 6:15:00 PM 13.73 56.714 0.009 8.18 4.29 11.68
4/17/2022 6:30:00 PM 13.66 56.588 0.009 8.16 4.24 11.45
4/17/2022 6:45:00 PM 13.59 56.462 0.008 8.13 4.34 11.26
4/17/2022 7:00:00 PM 13.52 56.336 0.009 8.11 4.05 11.04
4/17/2022 7:15:00 PM 13.46 56.228 0.008 8.08 4.26 10.83
4/17/2022 7:30:00 PM 13.38 56.084 0.009 8.05 4.04 10.61
4/17/2022 7:45:00 PM 13.31 55.958 0.008 8.03 4.26 10.41
4/17/2022 8:00:00 PM 13.25 55.85 0.008 8 4.13 10.22
4/17/2022 8:15:00 PM 13.19 55.742 0.009 7.98 4.52 10.07
4/17/2022 8:30:00 PM 13.12 55.616 0.01 7.96 4.46 9.94
4/17/2022 8:45:00 PM 13.04 55.472 0.008 7.94 4.69 9.8
4/17/2022 9:00:00 PM 12.94 55.292 0.008 7.92 4.81 9.66
4/17/2022 9:15:00 PM 12.84 55.112 0.008 7.9 4.56 9.58
4/17/2022 9:30:00 PM 12.73 54.914 0.009 7.88 5.52 9.47
4/17/2022 9:45:00 PM 12.62 54.716 0.009 7.85 5.17 9.39
4/17/2022 10:00:00 PM 12.49 54.482 0.009 7.83 5.14 9.29
4/17/2022 10:15:00 PM 12.36 54.248 0.009 7.81 5.63 9.2
4/17/2022 10:30:00 PM 12.23 54.014 0.009 7.8 4.84 9.14
4/17/2022 10:45:00 PM 12.09 53.762 0.008 7.78 4.86 9.09
4/17/2022 11:00:00 PM 11.96 53.528 0.009 7.76 4.9 9.03
4/17/2022 11:15:00 PM 11.84 53.312 0.009 7.75 4.98 9
4/17/2022 11:30:00 PM 11.72 53.096 0.008 7.74 4.47 8.93
4/17/2022 11:45:00 PM 11.6 52.88 0.007 7.73 4.68 8.94
4/18/2022 12:00:00 AM 11.48 52.664 0.009 7.72 4.62 8.91
4/18/2022 12:15:00 AM 11.37 52.466 0.008 7.71 4.75 8.91
4/18/2022 12:30:00 AM 11.26 52.268 0.01 7.71 4.9 8.86
4/18/2022 12:45:00 AM 11.15 52.07 0.009 7.7 4.88 8.89
4/18/2022 1:00:00 AM 11.05 51.89 0.007 7.7 4.69 8.91
4/18/2022 1:15:00 AM 10.95 51.71 0.008 7.7 4.43 8.93
4/18/2022 1:30:00 AM 10.85 51.53 0.01 7.7 4.61 8.94
4/18/2022 1:45:00 AM 10.76 51.368 0.009 7.69 4.99 8.96
4/18/2022 2:00:00 AM 10.67 51.206 0.008 7.69 4.67 8.98
4/18/2022 2:15:00 AM 10.58 51.044 0.009 7.69 5.17 8.96
4/18/2022 2:30:00 AM 10.5 50.9 0.009 7.69 5.21 9.02
4/18/2022 2:45:00 AM 10.42 50.756 0.008 7.69 5.42 9.04
4/18/2022 3:00:00 AM 10.34 50.612 0.007 7.69 5.24 9.05
4/18/2022 3:15:00 AM 10.26 50.468 0.008 7.69 5.12 9.08
4/18/2022 3:30:00 AM 10.18 50.324 0.009 7.69 5.68 9.11
4/18/2022 3:45:00 AM 10.11 50.198 0.008 7.7 5.34 9.13
4/18/2022 4:00:00 AM 10.04 50.072 0.009 7.7 4.69 9.11
4/18/2022 4:15:00 AM 9.96 49.928 0.009 7.7 5.44 9.18
4/18/2022 4:30:00 AM 9.89 49.802 0.009 7.7 5.21 9.21
4/18/2022 4:45:00 AM 9.82 49.676 0.008 7.7 5.83 9.22
4/18/2022 5:00:00 AM 9.75 49.55 0.008 7.7 6.9 9.27
4/18/2022 5:15:00 AM 9.68 49.424 0.008 7.71 4.99 9.29
4/18/2022 5:30:00 AM 9.6 49.28 0.008 7.71 4.94 9.33
4/18/2022 5:45:00 AM 9.54 49.172 0.008 7.71 5.18 9.34
4/18/2022 6:00:00 AM 9.47 49.046 0.009 7.71 5.04 9.37
4/18/2022 6:15:00 AM 9.41 48.938 0.008 7.72 5.02 9.42
4/18/2022 6:30:00 AM 9.35 48.83 0.009 7.72 4.61 9.45
4/18/2022 6:45:00 AM 9.29 48.722 0.009 7.72 4.75 9.54
4/18/2022 7:00:00 AM 9.25 48.65 0.008 7.73 4.85 9.63
4/18/2022 7:15:00 AM 9.23 48.614 0.009 7.74 7.22 9.77
4/18/2022 7:30:00 AM 9.22 48.596 0.01 7.76 4.48 9.92
4/18/2022 7:45:00 AM 9.22 48.596 0.009 7.77 4.41 10.07
4/18/2022 8:00:00 AM 9.24 48.632 0.009 7.79 4.25 10.24
4/18/2022 8:15:00 AM 9.26 48.668 0.009 7.81 4.77 10.44
4/18/2022 8:30:00 AM 9.29 48.722 0.008 7.83 4.24 10.6
4/18/2022 8:45:00 AM 9.33 48.794 0.009 7.85 4.48 10.8
4/18/2022 9:00:00 AM 9.39 48.902 0.008 7.87 4.7 11
4/18/2022 9:15:00 AM 9.46 49.028 0.008 7.89 4.29 11.16
4/18/2022 9:30:00 AM 9.52 49.136 0.009 7.91 4.51 11.3
4/18/2022 9:45:00 AM 9.58 49.244 0.007 7.93 4.68 11.43
4/18/2022 10:00:00 AM 9.64 49.352 0.007 7.94 4.46 11.54
4/18/2022 10:15:00 AM 9.7 49.46 0.008 7.96 4.35 11.7
4/18/2022 10:30:00 AM 9.76 49.568 0.009 7.99 4.38 11.9
4/18/2022 10:45:00 AM 9.84 49.712 0.008 8.01 4.24 12.06
4/18/2022 11:00:00 AM 9.9 49.82 0.008 8.02 4.23 12.13
4/18/2022 11:15:00 AM 9.98 49.964 0.009 8.04 4.2 12.22
4/18/2022 11:30:00 AM 10.05 50.09 0.009 8.05 3.9 12.27
4/18/2022 11:45:00 AM 10.12 50.216 0.008 8.06 3.79 12.33
4/18/2022 12:00:00 PM 10.2 50.36 0.009 8.07 4.21 12.4
4/18/2022 12:15:00 PM 10.27 50.486 0.007 8.08 3.87 12.36
4/18/2022 12:30:00 PM 10.35 50.63 0.008 8.07 4.16 12.26
4/18/2022 12:45:00 PM 10.42 50.756 0.008 8.07 3.97 12.22
4/18/2022 1:00:00 PM 10.48 50.864 0.008 8.06 4.28 12.13
4/18/2022 1:15:00 PM 10.53 50.954 0.009 8.06 3.95 11.98
4/18/2022 1:30:00 PM 10.57 51.026 0.01 8.05 3.86 11.88
4/18/2022 1:45:00 PM 10.61 51.098 0.01 8.05 3.88 11.79
4/18/2022 2:00:00 PM 10.67 51.206 0.009 8.04 3.93 11.72
4/18/2022 2:15:00 PM 10.73 51.314 0.009 8.03 4.26 11.62
4/18/2022 2:30:00 PM 10.79 51.422 0.008 8.03 4.24 11.54
4/18/2022 2:45:00 PM 10.84 51.512 0.008 8.02 3.97 11.44
4/18/2022 3:00:00 PM 10.9 51.62 0.01 8.01 4.03 11.32
4/18/2022 3:15:00 PM 10.94 51.692 0.008 8 4.01 11.2
4/18/2022 3:30:00 PM 10.97 51.746 0.008 7.99 4.18 11.11
4/18/2022 3:45:00 PM 10.98 51.764 0.008 7.98 4 10.94
4/18/2022 4:00:00 PM 10.97 51.746 0.008 7.97 3.87 10.86
4/18/2022 4:15:00 PM 10.96 51.728 0.008 7.96 4.43 10.8
4/18/2022 4:30:00 PM 10.95 51.71 0.008 7.95 4.29 10.68
4/18/2022 4:45:00 PM 10.93 51.674 0.008 7.93 4.58 10.56
4/18/2022 5:00:00 PM 10.91 51.638 0.009 7.93 4.64 10.54
4/18/2022 5:15:00 PM 10.87 51.566 0.009 7.92 4.99 10.47
4/18/2022 5:30:00 PM 10.83 51.494 0.008 7.91 6.05 10.41
4/18/2022 5:45:00 PM 10.78 51.404 0.009 7.9 5.52 10.33
4/18/2022 6:00:00 PM 10.73 51.314 0.009 7.89 5.07 10.28
4/18/2022 6:15:00 PM 10.71 51.278 0.01 7.88 5.43 10.27
4/18/2022 6:30:00 PM 10.68 51.224 0.009 7.87 4.97 10.12
4/18/2022 6:45:00 PM 10.65 51.17 0.01 7.86 4.9 10.11
4/18/2022 7:00:00 PM 10.61 51.098 0.01 7.85 5.21 10.08
4/18/2022 7:15:00 PM 10.58 51.044 0.01 7.84 5.46 9.98
4/18/2022 7:30:00 PM 10.56 51.008 0.009 7.83 5.76 9.92
4/18/2022 7:45:00 PM 10.53 50.954 0.01 7.81 6.14 9.86
4/18/2022 8:00:00 PM 10.52 50.936 0.009 7.8 7.52 9.77
4/18/2022 8:15:00 PM 10.5 50.9 0.008 7.79 7.41 9.71
4/18/2022 8:30:00 PM 10.49 50.882 0.009 7.78 6.91 9.64
4/18/2022 8:45:00 PM 10.46 50.828 0.008 7.77 8.01 9.61
4/18/2022 9:00:00 PM 10.41 50.738 0.008 7.77 7.25 9.61
4/18/2022 9:15:00 PM 10.33 50.594 0.008 7.76 9.21 9.61
4/18/2022 9:30:00 PM 10.21 50.378 0.008 7.75 10.06 9.63
4/18/2022 9:45:00 PM 10.12 50.216 0.009 7.74 10.07 9.62
4/18/2022 10:00:00 PM 10.03 50.054 0.008 7.72 10.99 9.61
4/18/2022 10:15:00 PM 9.91 49.838 0.009 7.71 12.11 9.61
4/18/2022 10:30:00 PM 9.8 49.64 0.009 7.68 13.56 9.6
4/18/2022 10:45:00 PM 9.71 49.478 0.008 7.65 16.05 9.57
4/18/2022 11:00:00 PM 9.64 49.352 0.007 7.62 21.35 9.5
4/18/2022 11:15:00 PM 9.55 49.19 0.008 7.6 29.87 9.49
4/18/2022 11:30:00 PM 9.48 49.064 0.008 7.58 35.56 9.52
4/18/2022 11:45:00 PM 9.46 49.028 0.009 7.57 40.68 9.56
4/19/2022 12:00:00 AM 9.45 49.01 0.009 7.57 42.57 9.64
4/19/2022 12:15:00 AM 9.36 48.848 0.009 7.57 44.61 9.77
4/19/2022 12:30:00 AM 9.22 48.596 0.009 7.56 43.12 9.89
4/19/2022 12:45:00 AM 9.03 48.254 0.008 7.54 45.06 10
4/19/2022 1:00:00 AM 8.81 47.858 0.008 7.5 39.02 10.1
4/19/2022 1:15:00 AM 8.58 47.444 0.008 7.47 37.64 10.2
4/19/2022 1:30:00 AM 8.4 47.12 0.008 7.45 32.99 10.28
4/19/2022 1:45:00 AM 8.28 46.904 0.007 7.43 30.64 10.33
4/19/2022 2:00:00 AM 8.2 46.76 0.007 7.43 26.78 10.35
4/19/2022 2:15:00 AM 8.17 46.706 0.007 7.43 25.48 10.35
4/19/2022 2:30:00 AM 8.17 46.706 0.007 7.44 23.89 10.32
4/19/2022 2:45:00 AM 8.16 46.688 0.008 7.44 22.45 10.3
4/19/2022 3:00:00 AM 8.15 46.67 0.008 7.45 21.7 10.26
4/19/2022 3:15:00 AM 8.16 46.688 0.008 7.46 22.15 10.22
4/19/2022 3:30:00 AM 8.17 46.706 0.007 7.46 24 10.17
4/19/2022 3:45:00 AM 8.19 46.742 0.007 7.47 22.36 10.11
4/19/2022 4:00:00 AM 8.22 46.796 0.006 7.47 23.11 10.06
4/19/2022 4:15:00 AM 8.27 46.886 0.008 7.48 21.46 10.01
4/19/2022 4:30:00 AM 8.32 46.976 0.007 7.49 21.38 9.95
4/19/2022 4:45:00 AM 8.37 47.066 0.008 7.49 19.12 9.9
4/19/2022 5:00:00 AM 8.41 47.138 0.008 7.5 20.14 9.87
4/19/2022 5:15:00 AM 8.46 47.228 0.007 7.5 17.78 9.83
4/19/2022 5:30:00 AM 8.5 47.3 0.008 7.51 16.57 9.79
4/19/2022 5:45:00 AM 8.54 47.372 0.008 7.52 16.21 9.76
4/19/2022 6:00:00 AM 8.57 47.426 0.009 7.52 15.24 9.73
4/19/2022 6:15:00 AM 8.59 47.462 0.008 7.53 14.8 9.71
4/19/2022 6:30:00 AM 8.61 47.498 0.008 7.53 13.42 9.7
4/19/2022 6:45:00 AM 8.63 47.534 0.007 7.54 13.17 9.7
4/19/2022 7:00:00 AM 8.64 47.552 0.007 7.54 12.33 9.7
4/19/2022 7:15:00 AM 8.65 47.57 0.009 7.55 11.69 9.72
4/19/2022 7:30:00 AM 8.66 47.588 0.007 7.56 11.35 9.75
4/19/2022 7:45:00 AM 8.68 47.624 0.008 7.57 11.29 9.79
4/19/2022 8:00:00 AM 8.72 47.696 0.009 7.58 10.68 9.83
4/19/2022 8:15:00 AM 8.78 47.804 0.008 7.59 10.64 9.91
4/19/2022 8:30:00 AM 8.84 47.912 0.007 7.6 10.05 9.99
4/19/2022 8:45:00 AM 8.92 48.056 0.008 7.62 9.99 10.09
4/19/2022 9:00:00 AM 9.01 48.218 0.007 7.63 9.4 10.22
4/19/2022 9:15:00 AM 9.13 48.434 0.007 7.65 8.78 10.35
4/19/2022 9:30:00 AM 9.27 48.686 0.008 7.67 8.57 10.49
4/19/2022 9:45:00 AM 9.38 48.884 0.007 7.69 8.13 10.58
4/19/2022 10:00:00 AM 9.53 49.154 0.008 7.71 8.26 10.72
4/19/2022 10:15:00 AM 9.65 49.37 0.007 7.73 7.73 10.88
4/19/2022 10:30:00 AM 9.82 49.676 0.008 7.75 7.73 11.01
4/19/2022 10:45:00 AM 10.01 50.018 0.008 7.78 8.06 11.18
4/19/2022 11:00:00 AM 10.18 50.324 0.007 7.8 7.24 11.29
4/19/2022 11:15:00 AM 10.36 50.648 0.009 7.82 7.1 11.44
4/19/2022 11:30:00 AM 10.47 50.846 0.008 7.82 6.97 11.38
4/19/2022 11:45:00 AM 10.6 51.08 0.008 7.83 6.95 11.44
4/19/2022 12:00:00 PM 10.75 51.35 0.008 7.86 6.82 11.63
4/19/2022 12:15:00 PM 10.84 51.512 0.007 7.86 6.71 11.5
4/19/2022 12:30:00 PM 10.9 51.62 0.007 7.86 6.66 11.43
4/19/2022 12:45:00 PM 10.97 51.746 0.008 7.87 6.57 11.37
4/19/2022 1:00:00 PM 11.1 51.98 0.007 7.88 6.16 11.51
4/19/2022 1:15:00 PM 11.26 52.268 0.008 7.9 6.16 11.59
4/19/2022 1:30:00 PM 11.34 52.412 0.008 7.89 5.95 11.46
4/19/2022 1:45:00 PM 11.43 52.574 0.007 7.89 5.81 11.42
4/19/2022 2:00:00 PM 11.48 52.664 0.009 7.89 5.79 11.33
4/19/2022 2:15:00 PM 11.72 53.096 0.007 7.92 5.69 11.69
4/19/2022 2:30:00 PM 11.91 53.438 0.008 7.94 8.28 11.76
4/19/2022 2:45:00 PM 11.95 53.51 0.008 7.92 5.5 11.47
4/19/2022 3:00:00 PM 12 53.6 0.007 7.93 5.52 11.55
4/19/2022 3:15:00 PM 12.02 53.636 0.007 7.93 5.46 11.44
4/19/2022 3:30:00 PM 12.12 53.816 0.008 7.94 5.72 11.64
4/19/2022 3:45:00 PM 12.18 53.924 0.008 7.95 5.24 11.65
4/19/2022 4:00:00 PM 12.22 53.996 0.007 7.94 5.26 11.43
4/19/2022 4:15:00 PM 12.31 54.158 0.008 7.95 5.33 11.53
4/19/2022 4:30:00 PM 12.29 54.122 0.008 7.96 5.19 11.49
4/19/2022 4:45:00 PM 12.26 54.068 0.008 7.95 5.22 11.39
4/19/2022 5:00:00 PM 12.28 54.104 0.008 7.95 5.17 11.35
4/19/2022 5:15:00 PM 12.29 54.122 0.008 7.95 5.15 11.35
4/19/2022 5:30:00 PM 12.28 54.104 0.007 7.94 5.28 11.21
4/19/2022 5:45:00 PM 12.26 54.068 0.008 7.92 5.04 11.02
4/19/2022 6:00:00 PM 12.21 53.978 0.007 7.92 4.86 10.99
4/19/2022 6:15:00 PM 12.13 53.834 0.009 7.9 5.05 10.89
4/19/2022 6:30:00 PM 12.07 53.726 0.008 7.89 4.92 10.77
4/19/2022 6:45:00 PM 12.03 53.654 0.008 7.88 4.81 10.66
4/19/2022 7:00:00 PM 11.98 53.564 0.008 7.87 4.71 10.55
4/19/2022 7:15:00 PM 11.93 53.474 0.008 7.85 4.95 10.42
4/19/2022 7:30:00 PM 11.85 53.33 0.01 7.84 4.67 10.27
4/19/2022 7:45:00 PM 11.78 53.204 0.008 7.82 4.77 10.12
4/19/2022 8:00:00 PM 11.72 53.096 0.008 7.81 4.56 10
4/19/2022 8:15:00 PM 11.65 52.97 0.008 7.79 4.93 9.9
4/19/2022 8:30:00 PM 11.58 52.844 0.008 7.78 4.95 9.81
4/19/2022 8:45:00 PM 11.52 52.736 0.008 7.77 5.64 9.73
4/19/2022 9:00:00 PM 11.45 52.61 0.008 7.76 4.94 9.68
4/19/2022 9:15:00 PM 11.37 52.466 0.008 7.75 5.21 9.61
4/19/2022 9:30:00 PM 11.3 52.34 0.008 7.74 5.3 9.56
4/19/2022 9:45:00 PM 11.22 52.196 0.008 7.73 4.95 9.49
4/19/2022 10:00:00 PM 11.15 52.07 0.009 7.72 5.72 9.44
4/19/2022 10:15:00 PM 11.07 51.926 0.007 7.71 5.66 9.38
4/19/2022 10:30:00 PM 10.99 51.782 0.007 7.7 5.34 9.34
4/19/2022 10:45:00 PM 10.91 51.638 0.008 7.69 5.42 9.3
4/19/2022 11:00:00 PM 10.83 51.494 0.008 7.68 5.28 9.28
4/19/2022 11:15:00 PM 10.76 51.368 0.006 7.67 5.44 9.25
4/19/2022 11:30:00 PM 10.69 51.242 0.007 7.66 5.36 9.24
4/19/2022 11:45:00 PM 10.62 51.116 0.008 7.65 5.01 9.22
4/20/2022 12:00:00 AM 10.56 51.008 0.009 7.64 4.75 9.23
4/20/2022 12:15:00 AM 10.49 50.882 0.008 7.64 4.84 9.23
4/20/2022 12:30:00 AM 10.44 50.792 0.007 7.64 4.81 9.22
4/20/2022 12:45:00 AM 10.38 50.684 0.007 7.64 4.85 9.24
4/20/2022 1:00:00 AM 10.32 50.576 0.007 7.63 4.9 9.25
4/20/2022 1:15:00 AM 10.26 50.468 0.007 7.63 4.84 9.26
4/20/2022 1:30:00 AM 10.21 50.378 0.007 7.63 4.98 9.27
4/20/2022 1:45:00 AM 10.15 50.27 0.008 7.64 5.05 9.28
4/20/2022 2:00:00 AM 10.1 50.18 0.008 7.64 4.93 9.29
4/20/2022 2:15:00 AM 10.04 50.072 0.007 7.64 5.21 9.31
4/20/2022 2:30:00 AM 9.99 49.982 0.008 7.64 4.87 9.32
4/20/2022 2:45:00 AM 9.94 49.892 0.008 7.64 4.9 9.34
4/20/2022 3:00:00 AM 9.89 49.802 0.008 7.64 4.94 9.37
4/20/2022 3:15:00 AM 9.84 49.712 0.007 7.64 4.59 9.38
4/20/2022 3:30:00 AM 9.79 49.622 0.008 7.65 5.18 9.39
4/20/2022 3:45:00 AM 9.74 49.532 0.007 7.65 5.09 9.41
4/20/2022 4:00:00 AM 9.69 49.442 0.006 7.65 4.6 9.44
4/20/2022 4:15:00 AM 9.64 49.352 0.007 7.65 4.43 9.46
4/20/2022 4:30:00 AM 9.59 49.262 0.006 7.66 4.89 9.48
4/20/2022 4:45:00 AM 9.54 49.172 0.007 7.66 4.57 9.5
4/20/2022 5:00:00 AM 9.5 49.1 0.008 7.66 4.5 9.52
4/20/2022 5:15:00 AM 9.46 49.028 0.007 7.66 5.14 9.53
4/20/2022 5:30:00 AM 9.43 48.974 0.008 7.66 5.06 9.55
4/20/2022 5:45:00 AM 9.39 48.902 0.008 7.67 4.65 9.58
4/20/2022 6:00:00 AM 9.36 48.848 0.007 7.67 4.62 9.58
4/20/2022 6:15:00 AM 9.33 48.794 0.007 7.67 4.48 9.6
4/20/2022 6:30:00 AM 9.29 48.722 0.007 7.67 4.47 9.63
4/20/2022 6:45:00 AM 9.27 48.686 0.009 7.68 4.4 9.68
4/20/2022 7:00:00 AM 9.26 48.668 0.008 7.68 4.31 9.73
4/20/2022 7:15:00 AM 9.25 48.65 0.008 7.69 4.27 9.81
4/20/2022 7:30:00 AM 9.25 48.65 0.008 7.7 4.28 9.9
4/20/2022 7:45:00 AM 9.26 48.668 0.008 7.71 4.73 9.99
4/20/2022 8:00:00 AM 9.29 48.722 0.008 7.72 4.86 10.09
4/20/2022 8:15:00 AM 9.34 48.812 0.007 7.73 4.33 10.24
4/20/2022 8:30:00 AM 9.41 48.938 0.007 7.75 4.24 10.38
4/20/2022 8:45:00 AM 9.48 49.064 0.008 7.77 4.43 10.53
4/20/2022 9:00:00 AM 9.56 49.208 0.006 7.78 4.32 10.7
4/20/2022 9:15:00 AM 9.66 49.388 0.006 7.8 4.66 10.87
4/20/2022 9:30:00 AM 9.78 49.604 0.008 7.83 4.06 11.04
4/20/2022 9:45:00 AM 9.9 49.82 0.008 7.85 4.19 11.22
4/20/2022 10:00:00 AM 10.05 50.09 0.007 7.87 4.16 11.4
4/20/2022 10:15:00 AM 10.22 50.396 0.007 7.89 10.38 11.57
4/20/2022 10:30:00 AM 10.42 50.756 0.007 7.92 4.91 11.76
4/20/2022 10:45:00 AM 10.62 51.116 0.008 7.94 8.17 11.93
4/20/2022 11:00:00 AM 10.86 51.548 0.007 7.97 4.78 12.1
4/20/2022 11:15:00 AM 11.11 51.998 0.008 7.99 14.87 12.24
4/20/2022 11:30:00 AM 11.37 52.466 0.007 8.01 6.14 12.4
4/20/2022 11:45:00 AM 11.65 52.97 0.007 8.03 4.69 12.52
4/20/2022 12:00:00 PM 11.94 53.492 0.008 8.06 4.9 12.64
4/20/2022 12:15:00 PM 12.22 53.996 0.007 8.08 5.6 12.73
4/20/2022 12:30:00 PM 12.51 54.518 0.009 8.1 8.6 12.8
4/20/2022 12:45:00 PM 12.79 55.022 0.008 8.12 8.96 12.85
4/20/2022 1:00:00 PM 13.09 55.562 0.007 8.13 8.31 12.9
4/20/2022 1:15:00 PM 13.36 56.048 0.008 8.15 4.62 12.92
4/20/2022 1:30:00 PM 13.65 56.57 0.008 8.16 4.73 12.93
4/20/2022 1:45:00 PM 13.91 57.038 0.008 8.17 4.25 12.92
4/20/2022 2:00:00 PM 14.16 57.488 0.007 8.18 4.36 12.9
4/20/2022 2:15:00 PM 14.39 57.902 0.008 8.19 4.05 12.86
4/20/2022 2:30:00 PM 14.58 58.244 0.008 8.19 4.22 12.81
4/20/2022 2:45:00 PM 14.76 58.568 0.008 8.2 3.94 12.76
4/20/2022 3:00:00 PM 14.92 58.856 0.009 8.2 3.76 12.68
4/20/2022 3:15:00 PM 15.05 59.09 0.009 8.2 3.88 12.61
4/20/2022 3:30:00 PM 15.16 59.288 0.008 8.2 4.05 12.52
4/20/2022 3:45:00 PM 15.24 59.432 0.008 8.2 3.83 12.42
4/20/2022 4:00:00 PM 15.32 59.576 0.007 8.2 3.93 12.33
4/20/2022 4:15:00 PM 15.39 59.702 0.008 8.19 4.04 12.21
4/20/2022 4:30:00 PM 15.43 59.774 0.007 8.18 4.03 12.09
4/20/2022 4:45:00 PM 15.46 59.828 0.007 8.17 3.83 11.94
4/20/2022 5:00:00 PM 15.45 59.81 0.009 8.16 3.98 11.8
4/20/2022 5:15:00 PM 15.43 59.774 0.007 8.15 3.95 11.65
4/20/2022 5:30:00 PM 15.39 59.702 0.008 8.13 3.84 11.47
4/20/2022 5:45:00 PM 15.35 59.63 0.007 8.11 3.93 11.3
4/20/2022 6:00:00 PM 15.3 59.54 0.008 8.08 3.95 11.1
4/20/2022 6:15:00 PM 15.24 59.432 0.007 8.06 3.95 10.92
4/20/2022 6:30:00 PM 15.19 59.342 0.009 8.04 4.1 10.7
4/20/2022 6:45:00 PM 15.12 59.216 0.008 8.01 4.48 10.51
4/20/2022 7:00:00 PM 15.05 59.09 0.008 7.98 4.14 10.31
4/20/2022 7:15:00 PM 14.96 58.928 0.009 7.96 4.12 10.11
4/20/2022 7:30:00 PM 14.86 58.748 0.008 7.93 4.39 9.93
4/20/2022 7:45:00 PM 14.75 58.55 0.007 7.91 4.05 9.75
4/20/2022 8:00:00 PM 14.64 58.352 0.007 7.88 4.42 9.6
4/20/2022 8:15:00 PM 14.52 58.136 0.009 7.86 4.64 9.46
4/20/2022 8:30:00 PM 14.39 57.902 0.007 7.84 4.55 9.34
4/20/2022 8:45:00 PM 14.27 57.686 0.007 7.82 4.49 9.23
4/20/2022 9:00:00 PM 14.14 57.452 0.007 7.8 4.89 9.13
4/20/2022 9:15:00 PM 14.01 57.218 0.007 7.79 4.91 9.05
4/20/2022 9:30:00 PM 13.88 56.984 0.008 7.77 4.7 8.97
4/20/2022 9:45:00 PM 13.74 56.732 0.008 7.76 5 8.89
4/20/2022 10:00:00 PM 13.6 56.48 0.007 7.74 4.94 8.83
4/20/2022 10:15:00 PM 13.46 56.228 0.007 7.73 4.92 8.76
4/20/2022 10:30:00 PM 13.31 55.958 0.008 7.71 4.92 8.72
4/20/2022 10:45:00 PM 13.18 55.724 0.008 7.7 4.79 8.68
4/20/2022 11:00:00 PM 13.04 55.472 0.008 7.67 4.55 8.66
4/20/2022 11:15:00 PM 12.92 55.256 0.008 7.66 4.56 8.63
4/20/2022 11:30:00 PM 12.79 55.022 0.007 7.64 4.62 8.62
4/20/2022 11:45:00 PM 12.67 54.806 0.008 7.63 4.44 8.62
4/21/2022 12:00:00 AM 12.54 54.572 0.006 7.63 4.51 8.62
4/21/2022 12:15:00 AM 12.43 54.374 0.008 7.62 4.86 8.61
4/21/2022 12:30:00 AM 12.34 54.212 0.007 7.62 4.57 8.64
4/21/2022 12:45:00 AM 12.24 54.032 0.005 7.61 4.5 8.65
4/21/2022 1:00:00 AM 12.14 53.852 0.007 7.61 4.46 8.67
4/21/2022 1:15:00 AM 12.05 53.69 0.007 7.61 4.53 8.68
4/21/2022 1:30:00 AM 11.97 53.546 0.007 7.61 4.48 8.7
4/21/2022 1:45:00 AM 11.88 53.384 0.008 7.61 4.37 8.73
4/21/2022 2:00:00 AM 11.8 53.24 0.008 7.61 4.47 8.75
4/21/2022 2:15:00 AM 11.72 53.096 0.007 7.61 4.38 8.77
4/21/2022 2:30:00 AM 11.65 52.97 0.006 7.62 4.57 8.8
4/21/2022 2:45:00 AM 11.57 52.826 0.007 7.62 4.93 8.81
4/21/2022 3:00:00 AM 11.5 52.7 0.008 7.62 4.56 8.84
4/21/2022 3:15:00 AM 11.43 52.574 0.007 7.62 4.44 8.86
4/21/2022 3:30:00 AM 11.35 52.43 0.007 7.62 4.31 8.89
4/21/2022 3:45:00 AM 11.28 52.304 0.008 7.63 4.38 8.91
4/21/2022 4:00:00 AM 11.21 52.178 0.009 7.63 4.44 8.94
4/21/2022 4:15:00 AM 11.15 52.07 0.008 7.63 4.37 8.96
4/21/2022 4:30:00 AM 11.09 51.962 0.008 7.63 4.68 8.99
4/21/2022 4:45:00 AM 11.03 51.854 0.007 7.64 4.39 9.02
4/21/2022 5:00:00 AM 10.96 51.728 0.007 7.64 4.31 9.04
4/21/2022 5:15:00 AM 10.9 51.62 0.007 7.64 4.58 9.06
4/21/2022 5:30:00 AM 10.85 51.53 0.008 7.65 4.59 9.1
4/21/2022 5:45:00 AM 10.79 51.422 0.008 7.65 4.76 9.13
4/21/2022 6:00:00 AM 10.73 51.314 0.007 7.65 4.81 9.14
4/21/2022 6:15:00 AM 10.68 51.224 0.008 7.66 4.27 9.18
4/21/2022 6:30:00 AM 10.64 51.152 0.008 7.66 4.42 9.21
4/21/2022 6:45:00 AM 10.6 51.08 0.009 7.66 4.17 9.27
4/21/2022 7:00:00 AM 10.58 51.044 0.008 7.67 4.28 9.36
4/21/2022 7:15:00 AM 10.58 51.044 0.008 7.69 4.4 9.51
4/21/2022 7:30:00 AM 10.58 51.044 0.008 7.7 5.06 9.59
4/21/2022 7:45:00 AM 10.58 51.044 0.008 7.71 4.5 9.72
4/21/2022 8:00:00 AM 10.63 51.134 0.008 7.73 4.45 9.98
4/21/2022 8:15:00 AM 10.69 51.242 0.008 7.76 4.16 10.18
4/21/2022 8:30:00 AM 10.75 51.35 0.008 7.78 4.15 10.31
4/21/2022 8:45:00 AM 10.81 51.458 0.007 7.79 3.88 10.46
4/21/2022 9:00:00 AM 10.88 51.584 0.007 7.82 4.1 10.67
4/21/2022 9:15:00 AM 10.97 51.746 0.007 7.84 3.98 10.88
4/21/2022 9:30:00 AM 11.06 51.908 0.007 7.86 3.83 11.03
4/21/2022 9:45:00 AM 11.15 52.07 0.007 7.88 3.8 11.19
4/21/2022 10:00:00 AM 11.24 52.232 0.008 7.9 3.83 11.35
4/21/2022 10:15:00 AM 11.35 52.43 0.008 7.93 9.47 11.52
4/21/2022 10:30:00 AM 11.45 52.61 0.008 7.95 4.08 11.64
4/21/2022 10:45:00 AM 11.64 52.952 0.007 7.98 4.68 11.89
4/21/2022 11:00:00 AM 11.84 53.312 0.007 8 4.06 12.06
4/21/2022 11:15:00 AM 12.08 53.744 0.007 8.03 3.72 12.23
4/21/2022 11:30:00 AM 12.24 54.032 0.007 8.04 4.52 12.22
4/21/2022 11:45:00 AM 12.36 54.248 0.008 8.05 3.86 12.17
4/21/2022 12:00:00 PM 12.44 54.392 0.008 8.04 3.7 12.05
4/21/2022 12:15:00 PM 12.53 54.554 0.009 8.05 3.84 12.12
4/21/2022 12:30:00 PM 12.65 54.77 0.008 8.07 4.23 12.3
4/21/2022 12:45:00 PM 12.82 55.076 0.009 8.09 4.14 12.44
4/21/2022 1:00:00 PM 13.12 55.616 0.009 8.12 4.09 12.63
4/21/2022 1:15:00 PM 13.3 55.94 0.008 8.13 3.83 12.63
4/21/2022 1:30:00 PM 13.44 56.192 0.009 8.14 3.71 12.54
4/21/2022 1:45:00 PM 13.55 56.39 0.007 8.14 3.76 12.52
4/21/2022 2:00:00 PM 13.61 56.498 0.006 8.14 3.57 12.37
4/21/2022 2:15:00 PM 13.64 56.552 0.008 8.13 3.68 12.23
4/21/2022 2:30:00 PM 13.71 56.678 0.009 8.14 3.66 12.28
4/21/2022 2:45:00 PM 13.82 56.876 0.009 8.15 3.72 12.41
4/21/2022 3:00:00 PM 13.9 57.02 0.008 8.15 3.72 12.31
4/21/2022 3:15:00 PM 13.99 57.182 0.008 8.15 3.99 12.28
4/21/2022 3:30:00 PM 14.01 57.218 0.008 8.14 3.74 12.07
4/21/2022 3:45:00 PM 14 57.2 0.006 8.12 3.79 11.84
4/21/2022 4:00:00 PM 13.98 57.164 0.007 8.1 3.58 11.58
4/21/2022 4:15:00 PM 13.98 57.164 0.006 8.09 3.68 11.44
4/21/2022 4:30:00 PM 13.99 57.182 0.007 8.08 3.61 11.41
4/21/2022 4:45:00 PM 14 57.2 0.008 8.06 3.77 11.2
4/21/2022 5:00:00 PM 14.01 57.218 0.007 8.04 3.74 11.02
4/21/2022 5:15:00 PM 14.01 57.218 0.007 8.03 3.81 10.91
4/21/2022 5:30:00 PM 14 57.2 0.008 8.01 4 10.76
4/21/2022 5:45:00 PM 13.98 57.164 0.007 7.99 3.72 10.62
4/21/2022 6:00:00 PM 13.97 57.146 0.007 7.97 3.96 10.55
4/21/2022 6:15:00 PM 13.95 57.11 0.008 7.96 3.85 10.45
4/21/2022 6:30:00 PM 13.93 57.074 0.008 7.94 3.78 10.26
4/21/2022 6:45:00 PM 13.91 57.038 0.008 7.92 3.81 10.11
4/21/2022 7:00:00 PM 13.87 56.966 0.008 7.9 3.91 9.95
4/21/2022 7:15:00 PM 13.82 56.876 0.008 7.88 3.72 9.78
4/21/2022 7:30:00 PM 13.77 56.786 0.008 7.86 3.93 9.63
4/21/2022 7:45:00 PM 13.72 56.696 0.009 7.84 4.45 9.49
4/21/2022 8:00:00 PM 13.68 56.624 0.008 7.83 4.12 9.37
4/21/2022 8:15:00 PM 13.63 56.534 0.008 7.81 4.6 9.24
4/21/2022 8:30:00 PM 13.58 56.444 0.008 7.79 4.27 9.15
4/21/2022 8:45:00 PM 13.54 56.372 0.008 7.78 4.45 9.07
4/21/2022 9:00:00 PM 13.5 56.3 0.008 7.77 4.48 8.99
4/21/2022 9:15:00 PM 13.45 56.21 0.008 7.76 4.53 8.92
4/21/2022 9:30:00 PM 13.4 56.12 0.007 7.75 4.31 8.87
4/21/2022 9:45:00 PM 13.35 56.03 0.007 7.74 4.45 8.82
4/21/2022 10:00:00 PM 13.29 55.922 0.006 7.73 4.37 8.77
4/21/2022 10:15:00 PM 13.22 55.796 0.008 7.72 4.4 8.72
4/21/2022 10:30:00 PM 13.16 55.688 0.009 7.71 4.37 8.69
4/21/2022 10:45:00 PM 13.09 55.562 0.009 7.7 4.47 8.66
4/21/2022 11:00:00 PM 13.04 55.472 0.008 7.69 4.23 8.63
4/21/2022 11:15:00 PM 12.98 55.364 0.007 7.69 4.21 8.61
4/21/2022 11:30:00 PM 12.92 55.256 0.008 7.68 4.21 8.6
4/21/2022 11:45:00 PM 12.86 55.148 0.006 7.67 4.46 8.59
4/22/2022 12:00:00 AM 12.81 55.058 0.008 7.67 4.61 8.59
4/22/2022 12:15:00 AM 12.75 54.95 0.009 7.66 4.23 8.59
4/22/2022 12:30:00 AM 12.69 54.842 0.007 7.66 4.64 8.59
4/22/2022 12:45:00 AM 12.64 54.752 0.008 7.65 4.25 8.6
4/22/2022 1:00:00 AM 12.57 54.626 0.008 7.65 4.11 8.6
4/22/2022 1:15:00 AM 12.51 54.518 0.008 7.65 4.35 8.62
4/22/2022 1:30:00 AM 12.44 54.392 0.008 7.65 4.34 8.62
4/22/2022 1:45:00 AM 12.37 54.266 0.007 7.65 4.24 8.64
4/22/2022 2:00:00 AM 12.3 54.14 0.006 7.65 4.49 8.66
4/22/2022 2:15:00 AM 12.23 54.014 0.007 7.65 4.36 8.68
4/22/2022 2:30:00 AM 12.16 53.888 0.008 7.65 4.41 8.69
4/22/2022 2:45:00 AM 12.09 53.762 0.008 7.65 4.85 8.71
4/22/2022 3:00:00 AM 12.03 53.654 0.008 7.65 4.99 8.73
4/22/2022 3:15:00 AM 11.96 53.528 0.008 7.65 4.67 8.74
4/22/2022 3:30:00 AM 11.89 53.402 0.009 7.65 4.6 8.76
4/22/2022 3:45:00 AM 11.82 53.276 0.009 7.65 4.63 8.79
4/22/2022 4:00:00 AM 11.76 53.168 0.007 7.65 4.53 8.81
4/22/2022 4:15:00 AM 11.69 53.042 0.008 7.65 4.66 8.82
4/22/2022 4:30:00 AM 11.62 52.916 0.007 7.65 4.84 8.85
4/22/2022 4:45:00 AM 11.57 52.826 0.006 7.65 4.88 8.87
4/22/2022 5:00:00 AM 11.51 52.718 0.008 7.66 4.39 8.9
4/22/2022 5:15:00 AM 11.46 52.628 0.007 7.66 4.09 8.93
4/22/2022 5:30:00 AM 11.39 52.502 0.008 7.66 4.58 8.95
4/22/2022 5:45:00 AM 11.33 52.394 0.007 7.66 4.61 8.96
4/22/2022 6:00:00 AM 11.26 52.268 0.009 7.66 5.58 9
4/22/2022 6:15:00 AM 11.2 52.16 0.007 7.67 5.07 9.03
4/22/2022 6:30:00 AM 11.14 52.052 0.009 7.67 4.6 9.08
4/22/2022 6:45:00 AM 11.09 51.962 0.007 7.67 4.18 9.13
4/22/2022 7:00:00 AM 11.05 51.89 0.008 7.68 5.92 9.22
4/22/2022 7:15:00 AM 11.01 51.818 0.007 7.69 4.41 9.32
4/22/2022 7:30:00 AM 10.99 51.782 0.008 7.7 4.46 9.43
4/22/2022 7:45:00 AM 10.97 51.746 0.008 7.71 4.63 9.55
4/22/2022 8:00:00 AM 10.98 51.764 0.006 7.72 4.4 9.68
4/22/2022 8:15:00 AM 11.01 51.818 0.007 7.74 4.63 9.86
4/22/2022 8:30:00 AM 11.07 51.926 0.007 7.76 4.47 10.04
4/22/2022 8:45:00 AM 11.14 52.052 0.007 7.78 4.68 10.23
4/22/2022 9:00:00 AM 11.24 52.232 0.008 7.8 4.49 10.42
4/22/2022 9:15:00 AM 11.35 52.43 0.007 7.83 4.4 10.62
4/22/2022 9:30:00 AM 11.47 52.646 0.007 7.86 4.27 10.84
4/22/2022 9:45:00 AM 11.61 52.898 0.007 7.88 3.96 11.03
4/22/2022 10:00:00 AM 11.76 53.168 0.007 7.91 4.1 11.24
4/22/2022 10:15:00 AM 11.93 53.474 0.008 7.94 4.01 11.46
4/22/2022 10:30:00 AM 12.1 53.78 0.007 7.96 4.08 11.63
4/22/2022 10:45:00 AM 12.32 54.176 0.008 7.99 3.8 11.86
4/22/2022 11:00:00 AM 12.5 54.5 0.008 8.01 3.93 11.96
4/22/2022 11:15:00 AM 12.73 54.914 0.007 8.04 3.65 12.14
4/22/2022 11:30:00 AM 13 55.4 0.007 8.06 3.78 12.34
4/22/2022 11:45:00 AM 13.28 55.904 0.007 8.09 3.54 12.46
4/22/2022 12:00:00 PM 13.57 56.426 0.008 8.11 3.48 12.59
4/22/2022 12:15:00 PM 13.87 56.966 0.008 8.13 3.74 12.7
4/22/2022 12:30:00 PM 14.17 57.506 0.009 8.15 3.54 12.78
4/22/2022 12:45:00 PM 14.47 58.046 0.008 8.17 3.49 12.86
4/22/2022 1:00:00 PM 14.78 58.604 0.008 8.19 4.05 12.92
4/22/2022 1:15:00 PM 15.06 59.108 0.01 8.21 4.42 12.97
4/22/2022 1:30:00 PM 15.32 59.576 0.007 8.23 3.61 12.99
4/22/2022 1:45:00 PM 15.55 59.99 0.009 8.24 3.83 13
4/22/2022 2:00:00 PM 15.79 60.422 0.009 8.26 3.67 13.01
4/22/2022 2:15:00 PM 15.98 60.764 0.008 8.27 3.71 12.96
4/22/2022 2:30:00 PM 16.13 61.034 0.008 8.27 3.5 12.92
4/22/2022 2:45:00 PM 16.25 61.25 0.009 8.28 3.59 12.84
4/22/2022 3:00:00 PM 16.31 61.358 0.009 8.28 3.55 12.67
4/22/2022 3:15:00 PM 16.38 61.484 0.009 8.28 3.7 12.61
4/22/2022 3:30:00 PM 16.41 61.538 0.008 8.27 3.61 12.45
4/22/2022 3:45:00 PM 16.42 61.556 0.008 8.26 3.67 12.24
4/22/2022 4:00:00 PM 16.45 61.61 0.008 8.25 4.39 12.14
4/22/2022 4:15:00 PM 16.51 61.718 0.009 8.25 3.84 12.11
4/22/2022 4:30:00 PM 16.56 61.808 0.007 8.23 4.24 11.95
4/22/2022 4:45:00 PM 16.62 61.916 0.007 8.22 4.3 11.85
4/22/2022 5:00:00 PM 16.66 61.988 0.007 8.21 3.85 11.74
4/22/2022 5:15:00 PM 16.66 61.988 0.007 8.2 3.66 11.57
4/22/2022 5:30:00 PM 16.62 61.916 0.007 8.18 3.55 11.37
4/22/2022 5:45:00 PM 16.54 61.772 0.009 8.16 3.9 11.16
4/22/2022 6:00:00 PM 16.42 61.556 0.009 8.12 3.91 10.87
4/22/2022 6:15:00 PM 16.3 61.34 0.009 8.09 3.77 10.63
4/22/2022 6:30:00 PM 16.21 61.178 0.008 8.07 3.8 10.47
4/22/2022 6:45:00 PM 16.13 61.034 0.008 8.04 3.95 10.32
4/22/2022 7:00:00 PM 16.07 60.926 0.006 8.02 4.69 10.2
4/22/2022 7:15:00 PM 15.99 60.782 0.008 8 4.01 10.05
4/22/2022 7:30:00 PM 15.9 60.62 0.007 7.97 3.76 9.85
4/22/2022 7:45:00 PM 15.81 60.458 0.007 7.95 4.05 9.64
4/22/2022 8:00:00 PM 15.72 60.296 0.007 7.92 4.05 9.45
4/22/2022 8:15:00 PM 15.62 60.116 0.008 7.9 4.4 9.29
4/22/2022 8:30:00 PM 15.51 59.918 0.008 7.87 4.67 9.15
4/22/2022 8:45:00 PM 15.39 59.702 0.007 7.85 4.55 9.02
4/22/2022 9:00:00 PM 15.27 59.486 0.008 7.83 4.87 8.92
4/22/2022 9:15:00 PM 15.13 59.234 0.007 7.81 4.84 8.81
4/22/2022 9:30:00 PM 14.99 58.982 0.009 7.79 4.84 8.72
4/22/2022 9:45:00 PM 14.85 58.73 0.008 7.78 4.73 8.64
4/22/2022 10:00:00 PM 14.7 58.46 0.007 7.76 4.4 8.56
4/22/2022 10:15:00 PM 14.57 58.226 0.008 7.74 4.62 8.5
4/22/2022 10:30:00 PM 14.44 57.992 0.008 7.72 4.33 8.45
4/22/2022 10:45:00 PM 14.31 57.758 0.008 7.69 4.35 8.4
4/22/2022 11:00:00 PM 14.19 57.542 0.007 7.68 4.39 8.37
4/22/2022 11:15:00 PM 14.08 57.344 0.008 7.67 4.33 8.33
4/22/2022 11:30:00 PM 13.97 57.146 0.008 7.66 4.18 8.3
4/22/2022 11:45:00 PM 13.86 56.948 0.008 7.65 4.31 8.28
4/23/2022 12:00:00 AM 13.76 56.768 0.008 7.64 4.65 8.27
4/23/2022 12:15:00 AM 13.66 56.588 0.008 7.64 4.34 8.27
4/23/2022 12:30:00 AM 13.57 56.426 0.007 7.63 4.56 8.28
4/23/2022 12:45:00 AM 13.49 56.282 0.007 7.63 4.37 8.27
4/23/2022 1:00:00 AM 13.41 56.138 0.008 7.63 4.09 8.29
4/23/2022 1:15:00 AM 13.33 55.994 0.006 7.63 4.28 8.3
4/23/2022 1:30:00 AM 13.26 55.868 0.008 7.63 4.21 8.32
4/23/2022 1:45:00 AM 13.19 55.742 0.008 7.63 4.17 8.33
4/23/2022 2:00:00 AM 13.12 55.616 0.009 7.63 4.5 8.35
4/23/2022 2:15:00 AM 13.06 55.508 0.009 7.63 4.21 8.36
4/23/2022 2:30:00 AM 13 55.4 0.007 7.63 4.34 8.37
4/23/2022 2:45:00 AM 12.94 55.292 0.006 7.63 4.62 8.4
4/23/2022 3:00:00 AM 12.89 55.202 0.007 7.63 5.15 8.41
4/23/2022 3:15:00 AM 12.83 55.094 0.007 7.63 4.49 8.43
4/23/2022 3:30:00 AM 12.78 55.004 0.008 7.63 4.14 8.44
4/23/2022 3:45:00 AM 12.73 54.914 0.007 7.64 4.26 8.47
4/23/2022 4:00:00 AM 12.69 54.842 0.007 7.64 4.06 8.48
4/23/2022 4:15:00 AM 12.63 54.734 0.008 7.64 4.52 8.5
4/23/2022 4:30:00 AM 12.59 54.662 0.007 7.64 4.19 8.51
4/23/2022 4:45:00 AM 12.54 54.572 0.008 7.65 4.25 8.54
4/23/2022 5:00:00 AM 12.5 54.5 0.008 7.65 4.41 8.55
4/23/2022 5:15:00 AM 12.46 54.428 0.009 7.65 3.99 8.56
4/23/2022 5:30:00 AM 12.42 54.356 0.007 7.65 4.31 8.59
4/23/2022 5:45:00 AM 12.38 54.284 0.007 7.66 4.23 8.6
4/23/2022 6:00:00 AM 12.34 54.212 0.008 7.66 4.15 8.62
4/23/2022 6:15:00 AM 12.3 54.14 0.007 7.66 4.2 8.64
4/23/2022 6:30:00 AM 12.27 54.086 0.007 7.67 3.99 8.67
4/23/2022 6:45:00 AM 12.24 54.032 0.008 7.67 3.97 8.7
4/23/2022 7:00:00 AM 12.21 53.978 0.007 7.67 4.22 8.75
4/23/2022 7:15:00 AM 12.19 53.942 0.007 7.68 3.9 8.79
4/23/2022 7:30:00 AM 12.17 53.906 0.008 7.68 3.89 8.85
4/23/2022 7:45:00 AM 12.15 53.87 0.008 7.69 3.67 8.89
4/23/2022 8:00:00 AM 12.14 53.852 0.009 7.7 3.78 8.99
4/23/2022 8:15:00 AM 12.13 53.834 0.007 7.71 3.75 9.07
4/23/2022 8:30:00 AM 12.15 53.87 0.008 7.72 3.72 9.28
4/23/2022 8:45:00 AM 12.17 53.906 0.007 7.74 3.76 9.52
4/23/2022 9:00:00 AM 12.19 53.942 0.007 7.75 3.52 9.61
4/23/2022 9:15:00 AM 12.21 53.978 0.007 7.77 3.68 9.74
4/23/2022 9:30:00 AM 12.24 54.032 0.007 7.79 3.66 9.9
4/23/2022 9:45:00 AM 12.27 54.086 0.006 7.81 3.65 10.14
4/23/2022 10:00:00 AM 12.32 54.176 0.006 7.83 3.76 10.39
4/23/2022 10:15:00 AM 12.38 54.284 0.007 7.86 3.97 10.67
4/23/2022 10:30:00 AM 12.44 54.392 0.009 7.88 3.53 10.84
4/23/2022 10:45:00 AM 12.48 54.464 0.009 7.9 3.74 10.88
4/23/2022 11:00:00 AM 12.51 54.518 0.009 7.91 3.92 10.95
4/23/2022 11:15:00 AM 12.58 54.644 0.007 7.94 3.62 11.24
4/23/2022 11:30:00 AM 12.65 54.77 0.008 7.96 3.54 11.43
4/23/2022 11:45:00 AM 12.7 54.86 0.007 7.97 3.42 11.4
4/23/2022 12:00:00 PM 12.79 55.022 0.008 7.99 3.43 11.57
4/23/2022 12:15:00 PM 12.9 55.22 0.007 8.01 3.56 11.78
4/23/2022 12:30:00 PM 12.99 55.382 0.006 8.03 3.85 11.87
4/23/2022 12:45:00 PM 13.07 55.526 0.009 8.04 3.71 11.86
4/23/2022 1:00:00 PM 13.16 55.688 0.009 8.05 3.61 11.99
4/23/2022 1:15:00 PM 13.24 55.832 0.008 8.06 3.87 12.01
4/23/2022 1:30:00 PM 13.29 55.922 0.008 8.06 3.6 11.89
4/23/2022 1:45:00 PM 13.36 56.048 0.007 8.07 3.77 11.92
4/23/2022 2:00:00 PM 13.42 56.156 0.008 8.08 3.55 11.96
4/23/2022 2:15:00 PM 13.47 56.246 0.008 8.08 3.47 11.89
4/23/2022 2:30:00 PM 13.5 56.3 0.008 8.07 3.98 11.71
4/23/2022 2:45:00 PM 13.56 56.408 0.007 8.08 3.91 11.81
4/23/2022 3:00:00 PM 13.65 56.57 0.006 8.09 3.64 11.95
4/23/2022 3:15:00 PM 13.77 56.786 0.008 8.11 3.79 12.12
4/23/2022 3:30:00 PM 13.85 56.93 0.008 8.12 3.61 12.08
4/23/2022 3:45:00 PM 13.98 57.164 0.008 8.13 3.75 12.19
4/23/2022 4:00:00 PM 14.12 57.416 0.008 8.14 4.17 12.27
4/23/2022 4:15:00 PM 14.23 57.614 0.006 8.15 3.79 12.29
4/23/2022 4:30:00 PM 14.32 57.776 0.009 8.16 3.74 12.26
4/23/2022 4:45:00 PM 14.41 57.938 0.008 8.17 3.6 12.28
4/23/2022 5:00:00 PM 14.43 57.974 0.008 8.16 3.85 12.16
4/23/2022 5:15:00 PM 14.44 57.992 0.008 8.16 3.82 12.05
4/23/2022 5:30:00 PM 14.47 58.046 0.008 8.15 3.64 12
4/23/2022 5:45:00 PM 14.46 58.028 0.008 8.14 3.87 11.83
4/23/2022 6:00:00 PM 14.44 57.992 0.009 8.13 3.77 11.66
4/23/2022 6:15:00 PM 14.43 57.974 0.009 8.12 3.75 11.51
4/23/2022 6:30:00 PM 14.41 57.938 0.008 8.1 4.02 11.33
4/23/2022 6:45:00 PM 14.39 57.902 0.009 8.08 3.58 11.15
4/23/2022 7:00:00 PM 14.37 57.866 0.009 8.06 3.82 10.95
4/23/2022 7:15:00 PM 14.35 57.83 0.008 8.04 3.69 10.76
4/23/2022 7:30:00 PM 14.34 57.812 0.008 8.01 3.61 10.54
4/23/2022 7:45:00 PM 14.32 57.776 0.009 7.99 3.69 10.33
4/23/2022 8:00:00 PM 14.3 57.74 0.008 7.96 3.73 10.12
4/23/2022 8:15:00 PM 14.27 57.686 0.007 7.94 3.94 9.94
4/23/2022 8:30:00 PM 14.24 57.632 0.008 7.92 4.09 9.78
4/23/2022 8:45:00 PM 14.19 57.542 0.007 7.9 4.2 9.64
4/23/2022 9:00:00 PM 14.14 57.452 0.008 7.88 4.33 9.5
4/23/2022 9:15:00 PM 14.1 57.38 0.007 7.86 4.27 9.37
4/23/2022 9:30:00 PM 14.04 57.272 0.008 7.85 4.07 9.25
4/23/2022 9:45:00 PM 13.98 57.164 0.007 7.83 4.05 9.14
4/23/2022 10:00:00 PM 13.91 57.038 0.008 7.81 4.41 9.04
4/23/2022 10:15:00 PM 13.84 56.912 0.008 7.8 3.92 8.93
4/23/2022 10:30:00 PM 13.77 56.786 0.008 7.78 3.97 8.84
4/23/2022 10:45:00 PM 13.69 56.642 0.008 7.77 4.15 8.75
4/23/2022 11:00:00 PM 13.62 56.516 0.008 7.75 3.95 8.67
4/23/2022 11:15:00 PM 13.55 56.39 0.007 7.74 4.15 8.6
4/23/2022 11:30:00 PM 13.48 56.264 0.007 7.73 3.94 8.55
4/23/2022 11:45:00 PM 13.4 56.12 0.007 7.71 3.89 8.51
4/24/2022 12:00:00 AM 13.33 55.994 0.006 7.7 3.8 8.48
4/24/2022 12:15:00 AM 13.25 55.85 0.007 7.69 3.86 8.45
4/24/2022 12:30:00 AM 13.18 55.724 0.008 7.68 4.09 8.43
4/24/2022 12:45:00 AM 13.11 55.598 0.009 7.68 4.07 8.42
4/24/2022 1:00:00 AM 13.04 55.472 0.007 7.67 4.08 8.42
4/24/2022 1:15:00 AM 12.97 55.346 0.008 7.67 4.87 8.42
4/24/2022 1:30:00 AM 12.9 55.22 0.007 7.67 4.33 8.42
4/24/2022 1:45:00 AM 12.83 55.094 0.007 7.66 4.43 8.42
4/24/2022 2:00:00 AM 12.77 54.986 0.007 7.66 4.55 8.43
4/24/2022 2:15:00 AM 12.7 54.86 0.007 7.66 4.32 8.44
4/24/2022 2:30:00 AM 12.64 54.752 0.007 7.66 4.35 8.45
4/24/2022 2:45:00 AM 12.59 54.662 0.007 7.66 4.18 8.46
4/24/2022 3:00:00 AM 12.53 54.554 0.008 7.66 4.3 8.47
4/24/2022 3:15:00 AM 12.48 54.464 0.009 7.66 4.35 8.48
4/24/2022 3:30:00 AM 12.43 54.374 0.007 7.66 4.29 8.5
4/24/2022 3:45:00 AM 12.37 54.266 0.007 7.66 4.82 8.51
4/24/2022 4:00:00 AM 12.32 54.176 0.008 7.66 4.82 8.54
4/24/2022 4:15:00 AM 12.27 54.086 0.007 7.67 4.54 8.55
4/24/2022 4:30:00 AM 12.22 53.996 0.007 7.67 4.35 8.57
4/24/2022 4:45:00 AM 12.17 53.906 0.008 7.67 4.52 8.58
4/24/2022 5:00:00 AM 12.12 53.816 0.008 7.67 4.3 8.6
4/24/2022 5:15:00 AM 12.07 53.726 0.007 7.67 4.48 8.62
4/24/2022 5:30:00 AM 12.03 53.654 0.008 7.67 4.36 8.64
4/24/2022 5:45:00 AM 12 53.6 0.008 7.68 4.42 8.67
4/24/2022 6:00:00 AM 11.96 53.528 0.007 7.68 4.76 8.68
4/24/2022 6:15:00 AM 11.92 53.456 0.008 7.68 4.76 8.71
4/24/2022 6:30:00 AM 11.88 53.384 0.008 7.69 4.29 8.74
4/24/2022 6:45:00 AM 11.86 53.348 0.008 7.69 4.54 8.85
4/24/2022 7:00:00 AM 11.84 53.312 0.007 7.7 4.34 8.96
4/24/2022 7:15:00 AM 11.83 53.294 0.008 7.71 4.21 9.08
4/24/2022 7:30:00 AM 11.83 53.294 0.007 7.72 4.1 9.18
4/24/2022 7:45:00 AM 11.84 53.312 0.008 7.74 3.88 9.36
4/24/2022 8:00:00 AM 11.84 53.312 0.008 7.75 4.17 9.5
4/24/2022 8:15:00 AM 11.86 53.348 0.008 7.77 3.78 9.68
4/24/2022 8:30:00 AM 11.9 53.42 0.008 7.79 3.75 9.88
4/24/2022 8:45:00 AM 11.95 53.51 0.008 7.81 3.93 10.09
4/24/2022 9:00:00 AM 12.03 53.654 0.008 7.84 3.74 10.34
4/24/2022 9:15:00 AM 12.12 53.816 0.007 7.87 3.79 10.59
4/24/2022 9:30:00 AM 12.23 54.014 0.007 7.89 3.75 10.78
4/24/2022 9:45:00 AM 12.36 54.248 0.006 7.92 3.7 11.01
4/24/2022 10:00:00 AM 12.51 54.518 0.008 7.95 3.84 11.22
4/24/2022 10:15:00 AM 12.67 54.806 0.008 7.98 3.76 11.44
4/24/2022 10:30:00 AM 12.84 55.112 0.007 8.01 3.64 11.67
4/24/2022 10:45:00 AM 13.02 55.436 0.007 8.03 3.72 11.85
4/24/2022 11:00:00 AM 13.21 55.778 0.008 8.06 3.77 12.05
4/24/2022 11:15:00 AM 13.42 56.156 0.007 8.09 3.56 12.22
4/24/2022 11:30:00 AM 13.65 56.57 0.008 8.12 3.77 12.38
4/24/2022 11:45:00 AM 13.9 57.02 0.008 8.14 3.56 12.55
4/24/2022 12:00:00 PM 14.15 57.47 0.006 8.17 3.65 12.67
4/24/2022 12:15:00 PM 14.44 57.992 0.008 8.2 3.51 12.77
4/24/2022 12:30:00 PM 14.72 58.496 0.007 8.22 3.57 12.86
4/24/2022 12:45:00 PM 15.02 59.036 0.009 8.24 3.63 12.94
4/24/2022 1:00:00 PM 15.31 59.558 0.006 8.26 3.52 12.98
4/24/2022 1:15:00 PM 15.6 60.08 0.008 8.27 3.71 13.04
4/24/2022 1:30:00 PM 15.89 60.602 0.008 8.29 3.45 13.07
4/24/2022 1:45:00 PM 16.17 61.106 0.007 8.3 3.44 13.07
4/24/2022 2:00:00 PM 16.43 61.574 0.008 8.31 3.52 13.05
4/24/2022 2:15:00 PM 16.67 62.006 0.006 8.32 3.96 13.02
4/24/2022 2:30:00 PM 16.89 62.402 0.008 8.33 3.51 12.96
4/24/2022 2:45:00 PM 17.11 62.798 0.007 8.33 3.74 12.88
4/24/2022 3:00:00 PM 17.3 63.14 0.006 8.33 4.02 12.81
4/24/2022 3:15:00 PM 17.47 63.446 0.007 8.33 3.78 12.72
4/24/2022 3:30:00 PM 17.62 63.716 0.008 8.32 4 12.59
4/24/2022 3:45:00 PM 17.74 63.932 0.008 8.32 3.6 12.46
4/24/2022 4:00:00 PM 17.85 64.13 0.008 8.31 4.05 12.34
4/24/2022 4:15:00 PM 17.93 64.274 0.008 8.3 3.84 12.18
4/24/2022 4:30:00 PM 18 64.4 0.006 8.29 3.56 12.03
4/24/2022 4:45:00 PM 18.05 64.49 0.008 8.28 3.79 11.88
4/24/2022 5:00:00 PM 18.07 64.526 0.009 8.27 4.03 11.7
4/24/2022 5:15:00 PM 18.07 64.526 0.008 8.25 3.78 11.5
4/24/2022 5:30:00 PM 18.06 64.508 0.007 8.23 3.62 11.28
4/24/2022 5:45:00 PM 18.03 64.454 0.006 8.21 3.57 11.07
4/24/2022 6:00:00 PM 17.98 64.364 0.007 8.18 3.43 10.85
4/24/2022 6:15:00 PM 17.93 64.274 0.006 8.16 3.52 10.62
4/24/2022 6:30:00 PM 17.87 64.166 0.008 8.13 3.64 10.39
4/24/2022 6:45:00 PM 17.8 64.04 0.008 8.1 3.42 10.16
4/24/2022 7:00:00 PM 17.73 63.914 0.009 8.07 3.49 9.93
4/24/2022 7:15:00 PM 17.65 63.77 0.007 8.04 3.46 9.72
4/24/2022 7:30:00 PM 17.55 63.59 0.007 8.01 3.85 9.5
4/24/2022 7:45:00 PM 17.46 63.428 0.009 7.98 3.42 9.26
4/24/2022 8:00:00 PM 17.35 63.23 0.006 7.95 3.96 9.06
4/24/2022 8:15:00 PM 17.25 63.05 0.007 7.92 3.77 8.88
4/24/2022 8:30:00 PM 17.14 62.852 0.008 7.9 4.11 8.71
4/24/2022 8:45:00 PM 17.02 62.636 0.007 7.88 4.36 8.57
4/24/2022 9:00:00 PM 16.9 62.42 0.008 7.86 4.96 8.46
4/24/2022 9:15:00 PM 16.77 62.186 0.008 7.84 4.55 8.34
4/24/2022 9:30:00 PM 16.64 61.952 0.006 7.82 4.56 8.24
4/24/2022 9:45:00 PM 16.5 61.7 0.007 7.8 4.59 8.16
4/24/2022 10:00:00 PM 16.36 61.448 0.008 7.78 4.67 8.07
4/24/2022 10:15:00 PM 16.22 61.196 0.008 7.77 4.46 7.99
4/24/2022 10:30:00 PM 16.08 60.944 0.007 7.75 4.81 7.92
4/24/2022 10:45:00 PM 15.92 60.656 0.006 7.74 4.27 7.87
4/24/2022 11:00:00 PM 15.78 60.404 0.007 7.71 4.13 7.82
4/24/2022 11:15:00 PM 15.63 60.134 0.007 7.69 4.5 7.79
4/24/2022 11:30:00 PM 15.48 59.864 0.007 7.67 4.31 7.76
4/24/2022 11:45:00 PM 15.35 59.63 0.006 7.66 4.2 7.73
4/25/2022 12:00:00 AM 15.21 59.378 0.007 7.65 4.25 7.72
4/25/2022 12:15:00 AM 15.08 59.144 0.009 7.64 4.02 7.71
4/25/2022 12:30:00 AM 14.96 58.928 0.007 7.64 4 7.72
4/25/2022 12:45:00 AM 14.84 58.712 0.007 7.63 3.93 7.73
4/25/2022 1:00:00 AM 14.72 58.496 0.007 7.63 4.07 7.74
4/25/2022 1:15:00 AM 14.6 58.28 0.006 7.62 4.04 7.76
4/25/2022 1:30:00 AM 14.49 58.082 0.008 7.62 4 7.77
4/25/2022 1:45:00 AM 14.38 57.884 0.008 7.62 4.01 7.79
4/25/2022 2:00:00 AM 14.27 57.686 0.007 7.62 3.85 7.81
4/25/2022 2:15:00 AM 14.17 57.506 0.007 7.62 4.05 7.83
4/25/2022 2:30:00 AM 14.07 57.326 0.007 7.62 3.91 7.85
4/25/2022 2:45:00 AM 13.97 57.146 0.006 7.62 3.99 7.88
4/25/2022 3:00:00 AM 13.87 56.966 0.008 7.62 3.92 7.91
4/25/2022 3:15:00 AM 13.78 56.804 0.007 7.62 3.95 7.94
4/25/2022 3:30:00 AM 13.69 56.642 0.007 7.63 3.82 7.97
4/25/2022 3:45:00 AM 13.61 56.498 0.008 7.63 4.24 7.99
4/25/2022 4:00:00 AM 13.52 56.336 0.006 7.63 4.02 8.02
4/25/2022 4:15:00 AM 13.44 56.192 0.007 7.63 4.01 8.05
4/25/2022 4:30:00 AM 13.36 56.048 0.006 7.64 4.1 8.09
4/25/2022 4:45:00 AM 13.29 55.922 0.006 7.64 4.46 8.12
4/25/2022 5:00:00 AM 13.21 55.778 0.007 7.64 4.52 8.14
4/25/2022 5:15:00 AM 13.13 55.634 0.008 7.65 4.59 8.18
4/25/2022 5:30:00 AM 13.05 55.49 0.008 7.65 4.49 8.21
4/25/2022 5:45:00 AM 12.98 55.364 0.007 7.65 4.55 8.25
4/25/2022 6:00:00 AM 12.9 55.22 0.007 7.66 4.59 8.27
4/25/2022 6:15:00 AM 12.83 55.094 0.007 7.66 4.62 8.31
4/25/2022 6:30:00 AM 12.77 54.986 0.007 7.66 4.17 8.37
4/25/2022 6:45:00 AM 12.71 54.878 0.007 7.67 4.04 8.46
4/25/2022 7:00:00 AM 12.66 54.788 0.006 7.68 3.98 8.55
4/25/2022 7:15:00 AM 12.63 54.734 0.008 7.69 4.28 8.63
4/25/2022 7:30:00 AM 12.6 54.68 0.007 7.7 3.76 8.73
4/25/2022 7:45:00 AM 12.58 54.644 0.007 7.71 3.71 8.83
4/25/2022 8:00:00 AM 12.55 54.59 0.007 7.72 3.66 8.92
4/25/2022 8:15:00 AM 12.52 54.536 0.007 7.73 3.54 9.01
4/25/2022 8:30:00 AM 12.5 54.5 0.007 7.74 3.53 9.14
4/25/2022 8:45:00 AM 12.5 54.5 0.007 7.75 3.47 9.29
4/25/2022 9:00:00 AM 12.49 54.482 0.008 7.77 3.75 9.44
4/25/2022 9:15:00 AM 12.49 54.482 0.007 7.78 3.79 9.61
4/25/2022 9:30:00 AM 12.5 54.5 0.007 7.8 3.39 9.78
4/25/2022 9:45:00 AM 12.52 54.536 0.008 7.82 3.55 9.97
4/25/2022 10:00:00 AM 12.53 54.554 0.008 7.84 3.68 10.1
4/25/2022 10:15:00 AM 12.55 54.59 0.006 7.86 3.5 10.26
4/25/2022 10:30:00 AM 12.58 54.644 0.008 7.88 3.67 10.46
4/25/2022 10:45:00 AM 12.62 54.716 0.007 7.89 3.6 10.6
4/25/2022 11:00:00 AM 12.66 54.788 0.007 7.91 4.05 10.76
4/25/2022 11:15:00 AM 12.72 54.896 0.007 7.94 3.38 10.96
4/25/2022 11:30:00 AM 12.79 55.022 0.007 7.96 4.29 11.13
4/25/2022 11:45:00 AM 12.88 55.184 0.006 7.98 3.48 11.31
4/25/2022 12:00:00 PM 12.98 55.364 0.006 8 3.25 11.51
4/25/2022 12:15:00 PM 13.09 55.562 0.006 8.02 3.44 11.62
4/25/2022 12:30:00 PM 13.2 55.76 0.007 8.04 3.28 11.74
4/25/2022 12:45:00 PM 13.31 55.958 0.007 8.06 3.22 11.85
4/25/2022 1:00:00 PM 13.41 56.138 0.008 8.07 3.2 11.95
4/25/2022 1:15:00 PM 13.52 56.336 0.007 8.09 3.34 12.05
4/25/2022 1:30:00 PM 13.62 56.516 0.007 8.11 3.35 12.15
4/25/2022 1:45:00 PM 13.71 56.678 0.008 8.12 3.29 12.17
4/25/2022 2:00:00 PM 13.8 56.84 0.008 8.13 3.23 12.23
4/25/2022 2:15:00 PM 13.9 57.02 0.007 8.14 3.56 12.33
4/25/2022 2:30:00 PM 14.01 57.218 0.006 8.16 3.48 12.4
4/25/2022 2:45:00 PM 14.12 57.416 0.007 8.17 3.41 12.46
4/25/2022 3:00:00 PM 14.23 57.614 0.008 8.18 3.4 12.53
4/25/2022 3:15:00 PM 14.37 57.866 0.008 8.19 3.3 12.62
4/25/2022 3:30:00 PM 14.52 58.136 0.008 8.21 3.4 12.67
4/25/2022 3:45:00 PM 14.65 58.37 0.007 8.21 3.62 12.68
4/25/2022 4:00:00 PM 14.77 58.586 0.008 8.22 3.68 12.65
4/25/2022 4:15:00 PM 14.87 58.766 0.007 8.23 3.48 12.57
4/25/2022 4:30:00 PM 14.95 58.91 0.008 8.23 3.34 12.52
4/25/2022 4:45:00 PM 15 59 0.008 8.23 3.49 12.41
4/25/2022 5:00:00 PM 15.04 59.072 0.008 8.22 3.37 12.32
4/25/2022 5:15:00 PM 15.05 59.09 0.008 8.21 3.54 12.15
4/25/2022 5:30:00 PM 15.04 59.072 0.008 8.2 3.45 11.89
4/25/2022 5:45:00 PM 15.03 59.054 0.008 8.18 3.39 11.68
4/25/2022 6:00:00 PM 15.02 59.036 0.008 8.16 3.39 11.46
4/25/2022 6:15:00 PM 15 59 0.007 8.14 3.43 11.29
4/25/2022 6:30:00 PM 14.99 58.982 0.008 8.13 3.6 11.16
4/25/2022 6:45:00 PM 14.98 58.964 0.009 8.11 3.82 10.95
4/25/2022 7:00:00 PM 14.97 58.946 0.008 8.08 3.72 10.67
4/25/2022 7:15:00 PM 14.96 58.928 0.007 8.06 3.55 10.45
4/25/2022 7:30:00 PM 14.93 58.874 0.007 8.03 4.04 10.23
4/25/2022 7:45:00 PM 14.91 58.838 0.007 8 3.74 10.01
4/25/2022 8:00:00 PM 14.87 58.766 0.007 7.98 3.91 9.82
4/25/2022 8:15:00 PM 14.83 58.694 0.007 7.95 4.07 9.63
4/25/2022 8:30:00 PM 14.79 58.622 0.006 7.93 4.32 9.46
4/25/2022 8:45:00 PM 14.75 58.55 0.007 7.91 4.56 9.29
4/25/2022 9:00:00 PM 14.69 58.442 0.006 7.89 4.29 9.14
4/25/2022 9:15:00 PM 14.64 58.352 0.007 7.87 4.21 9.01
4/25/2022 9:30:00 PM 14.58 58.244 0.007 7.85 4.04 8.87
4/25/2022 9:45:00 PM 14.52 58.136 0.007 7.83 4.52 8.76
4/25/2022 10:00:00 PM 14.46 58.028 0.008 7.81 4.16 8.67
4/25/2022 10:15:00 PM 14.4 57.92 0.007 7.8 4.15 8.57
4/25/2022 10:30:00 PM 14.34 57.812 0.008 7.78 4.09 8.48
4/25/2022 10:45:00 PM 14.28 57.704 0.008 7.77 4.14 8.41
4/25/2022 11:00:00 PM 14.23 57.614 0.007 7.75 4.15 8.33
4/25/2022 11:15:00 PM 14.17 57.506 0.006 7.74 4.09 8.28
4/25/2022 11:30:00 PM 14.12 57.416 0.006 7.72 5.38 8.23
4/25/2022 11:45:00 PM 14.07 57.326 0.006 7.71 4 8.19
4/26/2022 12:00:00 AM 14.02 57.236 0.006 7.7 3.98 8.16
4/26/2022 12:15:00 AM 13.97 57.146 0.007 7.69 4 8.13
4/26/2022 12:30:00 AM 13.92 57.056 0.007 7.68 4.16 8.11
4/26/2022 12:45:00 AM 13.87 56.966 0.008 7.68 4.11 8.09
4/26/2022 1:00:00 AM 13.82 56.876 0.008 7.68 4.5 8.09
4/26/2022 1:15:00 AM 13.77 56.786 0.007 7.67 3.97 8.09
4/26/2022 1:30:00 AM 13.73 56.714 0.008 7.67 4.15 8.08
4/26/2022 1:45:00 AM 13.69 56.642 0.007 7.67 4.09 8.09
4/26/2022 2:00:00 AM 13.65 56.57 0.006 7.67 4.01 8.09
4/26/2022 2:15:00 AM 13.61 56.498 0.006 7.67 4.16 8.09
4/26/2022 2:30:00 AM 13.57 56.426 0.007 7.67 3.91 8.09
4/26/2022 2:45:00 AM 13.54 56.372 0.006 7.67 3.97 8.11
4/26/2022 3:00:00 AM 13.5 56.3 0.007 7.67 4.26 8.12
4/26/2022 3:15:00 AM 13.46 56.228 0.007 7.68 4.72 8.13
4/26/2022 3:30:00 AM 13.43 56.174 0.009 7.68 5.28 8.15
4/26/2022 3:45:00 AM 13.39 56.102 0.007 7.68 5.68 8.16
4/26/2022 4:00:00 AM 13.36 56.048 0.006 7.68 5.27 8.17
4/26/2022 4:15:00 AM 13.33 55.994 0.006 7.68 5.12 8.18
4/26/2022 4:30:00 AM 13.29 55.922 0.007 7.68 4.72 8.19
4/26/2022 4:45:00 AM 13.26 55.868 0.007 7.69 5.15 8.2
4/26/2022 5:00:00 AM 13.23 55.814 0.007 7.69 5.41 8.22
4/26/2022 5:15:00 AM 13.2 55.76 0.006 7.69 5.05 8.23
4/26/2022 5:30:00 AM 13.16 55.688 0.008 7.69 4.92 8.24
4/26/2022 5:45:00 AM 13.13 55.634 0.007 7.69 4.54 8.26
4/26/2022 6:00:00 AM 13.09 55.562 0.008 7.7 4.5 8.27
4/26/2022 6:15:00 AM 13.06 55.508 0.007 7.7 4.37 8.3
4/26/2022 6:30:00 AM 13.03 55.454 0.006 7.7 4.11 8.32
4/26/2022 6:45:00 AM 13 55.4 0.006 7.7 4.07 8.36
4/26/2022 7:00:00 AM 12.98 55.364 0.005 7.71 4.07 8.45
4/26/2022 7:15:00 AM 12.96 55.328 0.006 7.72 3.88 8.53
4/26/2022 7:30:00 AM 12.95 55.31 0.006 7.73 4.02 8.64
4/26/2022 7:45:00 AM 12.94 55.292 0.006 7.74 3.86 8.77
4/26/2022 8:00:00 AM 12.94 55.292 0.007 7.75 3.9 8.93
4/26/2022 8:15:00 AM 12.95 55.31 0.006 7.76 3.85 9.07
4/26/2022 8:30:00 AM 12.96 55.328 0.006 7.78 3.81 9.27
4/26/2022 8:45:00 AM 12.99 55.382 0.007 7.8 3.58 9.51
4/26/2022 9:00:00 AM 13.03 55.454 0.008 7.82 3.79 9.75
4/26/2022 9:15:00 AM 13.09 55.562 0.007 7.85 3.82 10.01
4/26/2022 9:30:00 AM 13.15 55.67 0.007 7.87 3.81 10.25
4/26/2022 9:45:00 AM 13.21 55.778 0.007 7.9 3.93 10.47
4/26/2022 10:00:00 AM 13.29 55.922 0.007 7.92 3.66 10.62
4/26/2022 10:15:00 AM 13.36 56.048 0.006 7.95 3.96 10.89
4/26/2022 10:30:00 AM 13.43 56.174 0.008 7.97 3.62 11.03
4/26/2022 10:45:00 AM 13.52 56.336 0.006 7.99 3.66 11.24
4/26/2022 11:00:00 AM 13.61 56.498 0.006 8.02 3.78 11.47
4/26/2022 11:15:00 AM 13.69 56.642 0.007 8.03 3.65 11.55
4/26/2022 11:30:00 AM 13.76 56.768 0.007 8.05 3.81 11.58
4/26/2022 11:45:00 AM 13.87 56.966 0.008 8.07 3.57 11.78
4/26/2022 12:00:00 PM 13.96 57.128 0.006 8.08 3.75 11.88
4/26/2022 12:15:00 PM 14.04 57.272 0.007 8.09 3.58 11.84
4/26/2022 12:30:00 PM 14.13 57.434 0.007 8.1 3.36 11.83
4/26/2022 12:45:00 PM 14.19 57.542 0.006 8.09 3.58 11.73
4/26/2022 1:00:00 PM 14.25 57.65 0.007 8.09 3.39 11.61
4/26/2022 1:15:00 PM 14.34 57.812 0.007 8.1 3.42 11.75
4/26/2022 1:30:00 PM 14.37 57.866 0.007 8.09 3.33 11.53
4/26/2022 1:45:00 PM 14.43 57.974 0.007 8.09 3.22 11.43
4/26/2022 2:00:00 PM 14.49 58.082 0.007 8.09 3.6 11.4
4/26/2022 2:15:00 PM 14.53 58.154 0.008 8.08 3.62 11.27
4/26/2022 2:30:00 PM 14.58 58.244 0.006 8.08 3.32 11.19
4/26/2022 2:45:00 PM 14.61 58.298 0.007 8.07 3.34 11.09
4/26/2022 3:00:00 PM 14.64 58.352 0.006 8.05 3.3 10.86
4/26/2022 3:15:00 PM 14.67 58.406 0.006 8.04 3.46 10.74
4/26/2022 3:30:00 PM 14.72 58.496 0.007 8.04 3.56 10.84
4/26/2022 3:45:00 PM 14.73 58.514 0.007 8.02 3.35 10.58
4/26/2022 4:00:00 PM 14.77 58.586 0.007 8.02 3.35 10.57
4/26/2022 4:15:00 PM 14.79 58.622 0.007 8.02 3.67 10.62
4/26/2022 4:30:00 PM 14.8 58.64 0.007 8 3.44 10.44
4/26/2022 4:45:00 PM 14.79 58.622 0.007 7.99 3.35 10.29
4/26/2022 5:00:00 PM 14.78 58.604 0.006 7.98 3.27 10.19
4/26/2022 5:15:00 PM 14.77 58.586 0.006 7.97 3.32 10.11
4/26/2022 5:30:00 PM 14.75 58.55 0.008 7.96 3.43 10.02
4/26/2022 5:45:00 PM 14.72 58.496 0.007 7.94 3.49 9.86
4/26/2022 6:00:00 PM 14.7 58.46 0.008 7.93 4.6 9.8
4/26/2022 6:15:00 PM 14.67 58.406 0.007 7.92 3.35 9.74
4/26/2022 6:30:00 PM 14.64 58.352 0.006 7.91 3.5 9.61
4/26/2022 6:45:00 PM 14.6 58.28 0.006 7.9 3.65 9.49
4/26/2022 7:00:00 PM 14.57 58.226 0.007 7.89 3.5 9.43
4/26/2022 7:15:00 PM 14.54 58.172 0.008 7.87 3.61 9.31
4/26/2022 7:30:00 PM 14.5 58.1 0.007 7.86 3.38 9.19
4/26/2022 7:45:00 PM 14.46 58.028 0.007 7.85 3.52 9.09
4/26/2022 8:00:00 PM 14.42 57.956 0.008 7.83 3.57 8.98
4/26/2022 8:15:00 PM 14.38 57.884 0.008 7.82 4.44 8.88
4/26/2022 8:30:00 PM 14.34 57.812 0.007 7.81 4.18 8.79
4/26/2022 8:45:00 PM 14.3 57.74 0.007 7.8 4.05 8.71
4/26/2022 9:00:00 PM 14.26 57.668 0.006 7.79 4.23 8.64
4/26/2022 9:15:00 PM 14.22 57.596 0.006 7.78 4.41 8.58
4/26/2022 9:30:00 PM 14.18 57.524 0.006 7.77 3.86 8.52
4/26/2022 9:45:00 PM 14.14 57.452 0.006 7.76 3.83 8.47
4/26/2022 10:00:00 PM 14.09 57.362 0.007 7.75 4.01 8.41
4/26/2022 10:15:00 PM 14.04 57.272 0.007 7.74 3.83 8.37
4/26/2022 10:30:00 PM 13.98 57.164 0.007 7.73 3.93 8.33
4/26/2022 10:45:00 PM 13.92 57.056 0.006 7.72 4.22 8.28
4/26/2022 11:00:00 PM 13.86 56.948 0.008 7.71 4.36 8.25
4/26/2022 11:15:00 PM 13.8 56.84 0.008 7.7 4.22 8.2
4/26/2022 11:30:00 PM 13.73 56.714 0.007 7.68 3.76 8.15
4/26/2022 11:45:00 PM 13.67 56.606 0.006 7.66 3.8 8.11
4/27/2022 12:00:00 AM 13.61 56.498 0.005 7.65 4.18 8.06
4/27/2022 12:15:00 AM 13.55 56.39 0.006 7.64 3.88 8.03
4/27/2022 12:30:00 AM 13.49 56.282 0.006 7.63 4.05 7.99
4/27/2022 12:45:00 AM 13.42 56.156 0.008 7.62 4.11 7.98
4/27/2022 1:00:00 AM 13.36 56.048 0.007 7.62 4.11 7.98
4/27/2022 1:15:00 AM 13.3 55.94 0.007 7.61 3.99 7.98
4/27/2022 1:30:00 AM 13.23 55.814 0.007 7.61 3.97 7.99
4/27/2022 1:45:00 AM 13.16 55.688 0.007 7.61 4 8.01
4/27/2022 2:00:00 AM 13.09 55.562 0.007 7.61 4.08 8.02
4/27/2022 2:15:00 AM 13.02 55.436 0.008 7.61 4.28 8.04
4/27/2022 2:30:00 AM 12.96 55.328 0.007 7.62 4.09 8.07
4/27/2022 2:45:00 AM 12.91 55.238 0.007 7.62 4.4 8.1
4/27/2022 3:00:00 AM 12.85 55.13 0.007 7.62 4.06 8.13
4/27/2022 3:15:00 AM 12.79 55.022 0.007 7.63 3.89 8.14
4/27/2022 3:30:00 AM 12.73 54.914 0.006 7.63 4.21 8.17
4/27/2022 3:45:00 AM 12.66 54.788 0.006 7.63 4.38 8.19
4/27/2022 4:00:00 AM 12.58 54.644 0.007 7.63 4.28 8.22
4/27/2022 4:15:00 AM 12.51 54.518 0.007 7.64 4.46 8.26
4/27/2022 4:30:00 AM 12.45 54.41 0.008 7.64 4.55 8.29
4/27/2022 4:45:00 AM 12.38 54.284 0.007 7.64 4.93 8.32
4/27/2022 5:00:00 AM 12.33 54.194 0.007 7.65 4.56 8.35
4/27/2022 5:15:00 AM 12.28 54.104 0.006 7.65 3.99 8.38
4/27/2022 5:30:00 AM 12.23 54.014 0.006 7.65 3.89 8.41
4/27/2022 5:45:00 AM 12.16 53.888 0.008 7.66 4.37 8.44
4/27/2022 6:00:00 AM 12.07 53.726 0.007 7.66 3.98 8.47
4/27/2022 6:15:00 AM 11.99 53.582 0.007 7.66 3.91 8.5
4/27/2022 6:30:00 AM 11.92 53.456 0.007 7.66 3.89 8.55
4/27/2022 6:45:00 AM 11.85 53.33 0.006 7.67 3.85 8.65
4/27/2022 7:00:00 AM 8.81 47.858 0 6.26 6.66 11.52
4/27/2022 7:15:00 AM 11.67 53.006 0.849 7.87 3.04 8.84
4/27/2022 7:30:00 AM 11.63 52.934 0.846 7.86 3.18 8.98
4/27/2022 7:45:00 AM 11.6 52.88 0.844 7.86 3.02 9.16
4/27/2022 8:00:00 AM 11.57 52.826 0.844 7.87 2.95 9.37
4/27/2022 8:15:00 AM 11.54 52.772 0.844 7.9 3.05 9.58
4/27/2022 8:30:00 AM 11.53 52.754 0.843 7.91 2.97 9.77
4/27/2022 8:45:00 AM 11.53 52.754 0.843 7.92 2.91 10
4/27/2022 9:00:00 AM 11.56 52.808 0.844 7.95 2.96 10.27
4/27/2022 9:15:00 AM 11.63 52.934 0.845 7.97 2.86 10.52
4/27/2022 9:30:00 AM 11.71 53.078 0.847 8 2.87 10.77
4/27/2022 9:45:00 AM 11.8 53.24 0.848 8.02 2.92 11.02
4/27/2022 10:00:00 AM 11.81 53.258 0.85 8.03 7.76 11.05
4/27/2022 10:15:00 AM 11.84 53.312 0.851 8.05 4.23 11.19
4/27/2022 10:30:00 AM 11.88 53.384 0.853 8.07 11.98 11.44
4/27/2022 10:45:00 AM 11.94 53.492 0.856 8.09 11.55 11.69
4/27/2022 11:00:00 AM 12.04 53.672 0.86 8.12 3.1 11.9
4/27/2022 11:15:00 AM 12.25 54.05 0.866 8.15 4.73 12.19
4/27/2022 11:30:00 AM 12.39 54.302 0.875 8.17 3.91 12.31
4/27/2022 11:45:00 AM 12.61 54.698 0.885 8.2 2.98 12.51
4/27/2022 12:00:00 PM 12.84 55.112 0.898 8.23 2.72 12.68
4/27/2022 12:15:00 PM 12.98 55.364 0.911 8.24 2.8 12.65
4/27/2022 12:30:00 PM 13.11 55.598 0.925 8.26 7.6 12.68
4/27/2022 12:45:00 PM 13.26 55.868 0.938 8.28 3.15 12.9
4/27/2022 1:00:00 PM 13.49 56.282 0.949 8.31 10.73 13.05
4/27/2022 1:15:00 PM 13.71 56.678 0.957 8.33 5.13 13.12
4/27/2022 1:30:00 PM 13.82 56.876 0.962 8.35 2.86 13.07
4/27/2022 1:45:00 PM 13.95 57.11 0.964 8.37 3.04 13.09
4/27/2022 2:00:00 PM 14.05 57.29 0.964 8.38 2.83 13.13
4/27/2022 2:15:00 PM 14.15 57.47 0.964 8.38 2.81 13.08
4/27/2022 2:30:00 PM 14.43 57.974 0.963 8.42 2.82 13.26
4/27/2022 2:45:00 PM 14.53 58.154 0.964 8.42 2.71 13.17
4/27/2022 3:00:00 PM 14.59 58.262 0.967 8.42 2.96 13.02
4/27/2022 3:15:00 PM 14.7 58.46 0.97 8.43 2.62 12.99
4/27/2022 3:30:00 PM 14.8 58.64 0.974 8.44 2.66 12.97
4/27/2022 3:45:00 PM 14.83 58.694 0.976 8.43 2.71 12.81
4/27/2022 4:00:00 PM 14.85 58.73 0.977 8.43 2.63 12.73
4/27/2022 4:15:00 PM 14.81 58.658 0.977 8.42 2.63 12.56
4/27/2022 4:30:00 PM 14.74 58.532 0.976 8.41 2.76 12.27
4/27/2022 4:45:00 PM 14.66 58.388 0.974 8.39 2.66 12.06
4/27/2022 5:00:00 PM 14.55 58.19 0.972 8.37 2.9 11.85
4/27/2022 5:15:00 PM 14.43 57.974 0.969 8.35 2.9 11.69
4/27/2022 5:30:00 PM 14.32 57.776 0.963 8.33 2.83 11.47
4/27/2022 5:45:00 PM 14.22 57.596 0.957 8.3 2.92 11.23
4/27/2022 6:00:00 PM 14.11 57.398 0.95 8.29 2.82 11.04
4/27/2022 6:15:00 PM 14.02 57.236 0.945 8.27 2.76 10.88
4/27/2022 6:30:00 PM 13.95 57.11 0.941 8.24 2.89 10.67
4/27/2022 6:45:00 PM 13.85 56.93 0.938 8.21 2.71 10.49
4/27/2022 7:00:00 PM 13.76 56.768 0.936 8.19 2.79 10.35
4/27/2022 7:15:00 PM 13.67 56.606 0.936 8.17 2.76 10.16
4/27/2022 7:30:00 PM 13.58 56.444 0.935 8.15 2.81 9.98
4/27/2022 7:45:00 PM 13.47 56.246 0.934 8.12 2.88 9.82
4/27/2022 8:00:00 PM 13.33 55.994 0.934 8.1 2.92 9.65
4/27/2022 8:15:00 PM 13.18 55.724 0.934 8.07 3 9.51
4/27/2022 8:30:00 PM 13.04 55.472 0.935 8.05 3.35 9.38
4/27/2022 8:45:00 PM 12.9 55.22 0.936 8.03 3.38 9.27
4/27/2022 9:00:00 PM 12.77 54.986 0.937 8.02 3.42 9.18
4/27/2022 9:15:00 PM 12.66 54.788 0.938 8.01 3.54 9.09
4/27/2022 9:30:00 PM 12.55 54.59 0.938 7.99 3.58 9.01
4/27/2022 9:45:00 PM 12.45 54.41 0.938 7.97 3.25 8.94
4/27/2022 10:00:00 PM 12.35 54.23 0.938 7.96 3.16 8.87
4/27/2022 10:15:00 PM 12.26 54.068 0.939 7.95 3.01 8.82
4/27/2022 10:30:00 PM 12.16 53.888 0.94 7.94 3.31 8.77
4/27/2022 10:45:00 PM 12.06 53.708 0.941 7.93 3.12 8.73
4/27/2022 11:00:00 PM 11.97 53.546 0.942 7.92 3.07 8.7
4/27/2022 11:15:00 PM 11.87 53.366 0.943 7.91 2.96 8.67
4/27/2022 11:30:00 PM 11.78 53.204 0.945 7.9 2.97 8.66
4/27/2022 11:45:00 PM 11.7 53.06 0.948 7.89 2.85 8.65
4/28/2022 12:00:00 AM 11.61 52.898 0.95 7.89 2.91 8.64
4/28/2022 12:15:00 AM 11.52 52.736 0.952 7.88 3 8.64
4/28/2022 12:30:00 AM 11.43 52.574 0.954 7.88 3.2 8.64
4/28/2022 12:45:00 AM 11.34 52.412 0.954 7.87 3.19 8.65
4/28/2022 1:00:00 AM 11.25 52.25 0.954 7.87 3.44 8.66
4/28/2022 1:15:00 AM 11.15 52.07 0.955 7.87 3.67 8.67
4/28/2022 1:30:00 AM 11.07 51.926 0.955 7.87 3.48 8.69
4/28/2022 1:45:00 AM 10.99 51.782 0.955 7.86 3.42 8.7
4/28/2022 2:00:00 AM 10.92 51.656 0.955 7.86 3.18 8.71
4/28/2022 2:15:00 AM 10.87 51.566 0.953 7.86 3.23 8.72
4/28/2022 2:30:00 AM 10.8 51.44 0.951 7.86 3.32 8.74
4/28/2022 2:45:00 AM 10.72 51.296 0.948 7.86 3.39 8.76
4/28/2022 3:00:00 AM 10.65 51.17 0.944 7.86 3.52 8.78
4/28/2022 3:15:00 AM 10.59 51.062 0.94 7.86 3.47 8.8
4/28/2022 3:30:00 AM 10.52 50.936 0.936 7.86 3.7 8.82
4/28/2022 3:45:00 AM 10.47 50.846 0.931 7.86 3.97 8.85
4/28/2022 4:00:00 AM 10.41 50.738 0.925 7.86 3.44 8.87
4/28/2022 4:15:00 AM 10.36 50.648 0.92 7.86 3.64 8.89
4/28/2022 4:30:00 AM 10.31 50.558 0.915 7.86 3.22 8.92
4/28/2022 4:45:00 AM 10.25 50.45 0.909 7.87 3.34 8.95
4/28/2022 5:00:00 AM 10.2 50.36 0.903 7.87 3.74 8.97
4/28/2022 5:15:00 AM 10.15 50.27 0.896 7.87 3.85 9
4/28/2022 5:30:00 AM 10.09 50.162 0.888 7.87 3.81 9.03
4/28/2022 5:45:00 AM 10.04 50.072 0.881 7.87 3.65 9.06
4/28/2022 6:00:00 AM 9.98 49.964 0.874 7.87 3.75 9.09
4/28/2022 6:15:00 AM 9.93 49.874 0.867 7.88 3.46 9.12
4/28/2022 6:30:00 AM 9.88 49.784 0.861 7.88 3.15 9.17
4/28/2022 6:45:00 AM 9.83 49.694 0.856 7.88 3.15 9.25
4/28/2022 7:00:00 AM 9.79 49.622 0.85 7.89 3.1 9.34
4/28/2022 7:15:00 AM 9.76 49.568 0.846 7.9 3.2 9.47
4/28/2022 7:30:00 AM 9.75 49.55 0.842 7.91 3.24 9.67
4/28/2022 7:45:00 AM 9.74 49.532 0.839 7.93 3.15 9.93
4/28/2022 8:00:00 AM 9.76 49.568 0.836 7.95 3.06 10.21
4/28/2022 8:15:00 AM 9.77 49.586 0.835 7.97 2.92 10.45
4/28/2022 8:30:00 AM 9.81 49.658 0.835 7.99 3.05 10.63
4/28/2022 8:45:00 AM 9.89 49.802 0.835 8.02 3.04 10.92
4/28/2022 9:00:00 AM 9.94 49.892 0.836 8.03 3 11.13
4/28/2022 9:15:00 AM 10.01 50.018 0.838 8.06 2.99 11.28
4/28/2022 9:30:00 AM 10.13 50.234 0.84 8.08 2.82 11.49
4/28/2022 9:45:00 AM 10.26 50.468 0.841 8.1 3 11.72
4/28/2022 10:00:00 AM 10.4 50.72 0.842 8.12 4.58 11.91
4/28/2022 10:15:00 AM 10.54 50.972 0.842 8.14 3.03 12.07
4/28/2022 10:30:00 AM 10.68 51.224 0.84 8.15 2.91 12.23
4/28/2022 10:45:00 AM 10.82 51.476 0.838 8.18 2.63 12.41
4/28/2022 11:00:00 AM 11.01 51.818 0.838 8.21 2.69 12.59
4/28/2022 11:15:00 AM 11.22 52.196 0.84 8.23 4.2 12.76
4/28/2022 11:30:00 AM 11.45 52.61 0.844 8.26 2.71 12.92
4/28/2022 11:45:00 AM 11.7 53.06 0.849 8.29 2.54 13.06
4/28/2022 12:00:00 PM 11.97 53.546 0.857 8.31 2.49 13.18
4/28/2022 12:15:00 PM 12.26 54.068 0.865 8.34 2.64 13.28
4/28/2022 12:30:00 PM 12.54 54.572 0.875 8.36 2.82 13.38
4/28/2022 12:45:00 PM 12.83 55.094 0.885 8.38 2.59 13.45
4/28/2022 1:00:00 PM 13.12 55.616 0.894 8.4 2.95 13.52
4/28/2022 1:15:00 PM 13.4 56.12 0.901 8.42 2.47 13.58
4/28/2022 1:30:00 PM 13.66 56.588 0.905 8.44 2.5 13.61
4/28/2022 1:45:00 PM 13.91 57.038 0.907 8.46 2.47 13.63
4/28/2022 2:00:00 PM 14.15 57.47 0.908 8.47 2.43 13.62
4/28/2022 2:15:00 PM 14.34 57.812 0.906 8.49 2.49 13.6
4/28/2022 2:30:00 PM 14.51 58.118 0.904 8.5 2.38 13.55
4/28/2022 2:45:00 PM 14.68 58.424 0.901 8.51 2.36 13.5
4/28/2022 3:00:00 PM 14.81 58.658 0.898 8.51 2.49 13.43
4/28/2022 3:15:00 PM 14.93 58.874 0.896 8.52 2.58 13.34
4/28/2022 3:30:00 PM 15.04 59.072 0.893 8.52 2.76 13.23
4/28/2022 3:45:00 PM 15.13 59.234 0.892 8.53 2.46 13.12
4/28/2022 4:00:00 PM 15.22 59.396 0.892 8.52 2.57 13
4/28/2022 4:15:00 PM 15.26 59.468 0.892 8.52 2.56 12.87
4/28/2022 4:30:00 PM 15.3 59.54 0.89 8.51 2.5 12.73
4/28/2022 4:45:00 PM 15.32 59.576 0.888 8.5 2.47 12.57
4/28/2022 5:00:00 PM 15.31 59.558 0.886 8.49 2.5 12.4
4/28/2022 5:15:00 PM 15.27 59.486 0.885 8.48 2.85 12.22
4/28/2022 5:30:00 PM 15.23 59.414 0.883 8.46 2.61 12.02
4/28/2022 5:45:00 PM 15.16 59.288 0.883 8.45 2.59 11.82
4/28/2022 6:00:00 PM 15.09 59.162 0.884 8.42 2.91 11.61
4/28/2022 6:15:00 PM 15.01 59.018 0.884 8.4 2.86 11.4
4/28/2022 6:30:00 PM 14.93 58.874 0.885 8.37 2.64 11.17
4/28/2022 6:45:00 PM 14.84 58.712 0.886 8.35 2.53 10.94
4/28/2022 7:00:00 PM 14.76 58.568 0.887 8.32 2.53 10.73
4/28/2022 7:15:00 PM 14.68 58.424 0.889 8.29 2.51 10.52
4/28/2022 7:30:00 PM 14.6 58.28 0.891 8.26 2.5 10.31
4/28/2022 7:45:00 PM 14.51 58.118 0.894 8.24 2.67 10.09
4/28/2022 8:00:00 PM 14.41 57.938 0.896 8.21 2.62 9.88
4/28/2022 8:15:00 PM 14.31 57.758 0.897 8.18 2.67 9.69
4/28/2022 8:30:00 PM 14.22 57.596 0.898 8.15 2.84 9.53
4/28/2022 8:45:00 PM 14.12 57.416 0.899 8.13 2.97 9.38
4/28/2022 9:00:00 PM 14.01 57.218 0.901 8.11 3.4 9.25
4/28/2022 9:15:00 PM 13.88 56.984 0.902 8.09 3.19 9.14
4/28/2022 9:30:00 PM 13.75 56.75 0.903 8.07 3.44 9.04
4/28/2022 9:45:00 PM 13.63 56.534 0.907 8.05 3.19 8.95
4/28/2022 10:00:00 PM 13.5 56.3 0.912 8.04 3.22 8.87
4/28/2022 10:15:00 PM 13.36 56.048 0.917 8.02 3.78 8.79
4/28/2022 10:30:00 PM 13.23 55.814 0.922 8 3.38 8.72
4/28/2022 10:45:00 PM 13.08 55.544 0.925 7.99 3.22 8.65
4/28/2022 11:00:00 PM 12.94 55.292 0.929 7.98 3.36 8.59
4/28/2022 11:15:00 PM 12.8 55.04 0.932 7.96 3.35 8.55
4/28/2022 11:30:00 PM 12.67 54.806 0.935 7.95 3.52 8.51
4/28/2022 11:45:00 PM 12.54 54.572 0.938 7.94 3.48 8.48
4/29/2022 12:00:00 AM 12.41 54.338 0.94 7.93 3.45 8.47
4/29/2022 12:15:00 AM 12.28 54.104 0.942 7.93 3.48 8.46
4/29/2022 12:30:00 AM 12.16 53.888 0.944 7.92 3.64 8.45
4/29/2022 12:45:00 AM 12.04 53.672 0.946 7.91 3.82 8.45
4/29/2022 1:00:00 AM 11.92 53.456 0.949 7.9 3.65 8.45
4/29/2022 1:15:00 AM 11.81 53.258 0.951 7.9 3.36 8.46
4/29/2022 1:30:00 AM 11.7 53.06 0.952 7.9 3.38 8.48
4/29/2022 1:45:00 AM 11.59 52.862 0.953 7.89 3.54 8.49
4/29/2022 2:00:00 AM 11.49 52.682 0.953 7.89 3.82 8.51
4/29/2022 2:15:00 AM 11.38 52.484 0.952 7.88 3.9 8.54
4/29/2022 2:30:00 AM 11.28 52.304 0.951 7.88 3.63 8.56
4/29/2022 2:45:00 AM 11.18 52.124 0.949 7.88 3.28 8.59
4/29/2022 3:00:00 AM 11.09 51.962 0.947 7.87 3.26 8.62
4/29/2022 3:15:00 AM 11 51.8 0.944 7.88 3.14 8.64
4/29/2022 3:30:00 AM 10.91 51.638 0.94 7.88 3.07 8.67
4/29/2022 3:45:00 AM 10.82 51.476 0.935 7.88 3.22 8.7
4/29/2022 4:00:00 AM 10.74 51.332 0.93 7.88 3.65 8.73
4/29/2022 4:15:00 AM 10.65 51.17 0.925 7.88 3.27 8.76
4/29/2022 4:30:00 AM 10.57 51.026 0.92 7.88 3.28 8.79
4/29/2022 4:45:00 AM 10.48 50.864 0.914 7.88 3.39 8.82
4/29/2022 5:00:00 AM 10.4 50.72 0.908 7.88 3.31 8.86
4/29/2022 5:15:00 AM 10.32 50.576 0.901 7.88 3.48 8.9
4/29/2022 5:30:00 AM 10.23 50.414 0.894 7.88 4.09 8.94
4/29/2022 5:45:00 AM 10.15 50.27 0.887 7.88 3.97 8.97
4/29/2022 6:00:00 AM 10.07 50.126 0.88 7.88 3.87 9.01
4/29/2022 6:15:00 AM 9.99 49.982 0.873 7.88 3.33 9.06
4/29/2022 6:30:00 AM 9.92 49.856 0.867 7.88 3.21 9.14
4/29/2022 6:45:00 AM 9.85 49.73 0.862 7.89 3.12 9.24
4/29/2022 7:00:00 AM 9.79 49.622 0.857 7.9 3.05 9.36
4/29/2022 7:15:00 AM 9.74 49.532 0.853 7.91 3.09 9.49
4/29/2022 7:30:00 AM 9.71 49.478 0.85 7.91 3.06 9.64
4/29/2022 7:45:00 AM 9.68 49.424 0.846 7.93 3.55 9.79
4/29/2022 8:00:00 AM 9.67 49.406 0.843 7.94 3.27 9.97
4/29/2022 8:15:00 AM 9.7 49.46 0.841 7.96 3.16 10.19
4/29/2022 8:30:00 AM 9.75 49.55 0.84 7.98 3.07 10.41
4/29/2022 8:45:00 AM 9.81 49.658 0.84 8 3.12 10.64
4/29/2022 9:00:00 AM 9.88 49.784 0.841 8.02 3.04 10.86
4/29/2022 9:15:00 AM 9.99 49.982 0.843 8.04 2.94 11.09
4/29/2022 9:30:00 AM 10.11 50.198 0.846 8.06 2.9 11.31
4/29/2022 9:45:00 AM 10.25 50.45 0.849 8.09 2.8 11.56
4/29/2022 10:00:00 AM 10.39 50.702 0.851 8.11 2.94 11.76
4/29/2022 10:15:00 AM 10.55 50.99 0.852 8.14 2.92 11.95
4/29/2022 10:30:00 AM 10.71 51.278 0.851 8.16 2.86 12.16
4/29/2022 10:45:00 AM 10.89 51.602 0.85 8.19 2.78 12.35
4/29/2022 11:00:00 AM 11.09 51.962 0.851 8.21 2.77 12.55
4/29/2022 11:15:00 AM 11.3 52.34 0.853 8.24 2.51 12.72
4/29/2022 11:30:00 AM 11.56 52.808 0.857 8.27 2.92 12.9
4/29/2022 11:45:00 AM 11.84 53.312 0.863 8.3 2.41 13.05
4/29/2022 12:00:00 PM 12.13 53.834 0.871 8.33 2.5 13.19
4/29/2022 12:15:00 PM 12.44 54.392 0.881 8.35 2.5 13.31
4/29/2022 12:30:00 PM 12.76 54.968 0.892 8.38 2.35 13.41
4/29/2022 12:45:00 PM 13.07 55.526 0.904 8.4 2.34 13.49
4/29/2022 1:00:00 PM 13.38 56.084 0.914 8.42 2.39 13.57
4/29/2022 1:15:00 PM 13.69 56.642 0.921 8.44 2.49 13.61
4/29/2022 1:30:00 PM 13.99 57.182 0.925 8.47 2.5 13.63
4/29/2022 1:45:00 PM 14.26 57.668 0.926 8.48 2.46 13.64
4/29/2022 2:00:00 PM 14.52 58.136 0.926 8.5 2.47 13.64
4/29/2022 2:15:00 PM 14.76 58.568 0.925 8.52 2.49 13.62
4/29/2022 2:30:00 PM 14.96 58.928 0.924 8.53 2.36 13.57
4/29/2022 2:45:00 PM 15.16 59.288 0.923 8.54 2.49 13.5
4/29/2022 3:00:00 PM 15.32 59.576 0.922 8.54 2.41 13.41
4/29/2022 3:15:00 PM 15.46 59.828 0.919 8.55 2.42 13.32
4/29/2022 3:30:00 PM 15.57 60.026 0.916 8.55 2.53 13.21
4/29/2022 3:45:00 PM 15.67 60.206 0.913 8.55 2.49 13.09
4/29/2022 4:00:00 PM 15.74 60.332 0.911 8.55 2.47 12.96
4/29/2022 4:15:00 PM 15.81 60.458 0.911 8.54 2.46 12.82
4/29/2022 4:30:00 PM 15.86 60.548 0.912 8.54 2.53 12.67
4/29/2022 4:45:00 PM 15.89 60.602 0.913 8.53 2.7 12.51
4/29/2022 5:00:00 PM 15.89 60.602 0.914 8.52 2.82 12.33
4/29/2022 5:15:00 PM 15.88 60.584 0.914 8.5 3.22 12.13
4/29/2022 5:30:00 PM 15.85 60.53 0.913 8.49 3.49 11.92
4/29/2022 5:45:00 PM 15.81 60.458 0.912 8.47 2.65 11.71
4/29/2022 6:00:00 PM 15.75 60.35 0.91 8.45 2.79 11.49
4/29/2022 6:15:00 PM 15.67 60.206 0.908 8.43 2.83 11.28
4/29/2022 6:30:00 PM 15.59 60.062 0.906 8.4 2.95 11.04
4/29/2022 6:45:00 PM 15.51 59.918 0.905 8.37 3.05 10.81
4/29/2022 7:00:00 PM 15.43 59.774 0.905 8.35 2.83 10.59
4/29/2022 7:15:00 PM 15.35 59.63 0.905 8.32 2.78 10.37
4/29/2022 7:30:00 PM 15.26 59.468 0.907 8.29 2.92 10.15
4/29/2022 7:45:00 PM 15.17 59.306 0.908 8.26 2.66 9.92
4/29/2022 8:00:00 PM 15.07 59.126 0.907 8.23 2.76 9.7
4/29/2022 8:15:00 PM 14.97 58.946 0.906 8.2 2.92 9.5
4/29/2022 8:30:00 PM 14.87 58.766 0.905 8.17 3.14 9.33
4/29/2022 8:45:00 PM 14.75 58.55 0.903 8.15 3.15 9.19
4/29/2022 9:00:00 PM 14.62 58.316 0.902 8.12 3.5 9.06
4/29/2022 9:15:00 PM 14.49 58.082 0.901 8.11 3.43 8.95
4/29/2022 9:30:00 PM 14.36 57.848 0.902 8.09 3.76 8.86
4/29/2022 9:45:00 PM 14.23 57.614 0.903 8.07 3.39 8.76
4/29/2022 10:00:00 PM 14.09 57.362 0.906 8.05 3.48 8.69
4/29/2022 10:15:00 PM 13.95 57.11 0.909 8.04 3.67 8.61
4/29/2022 10:30:00 PM 13.8 56.84 0.912 8.02 3.46 8.54
4/29/2022 10:45:00 PM 13.66 56.588 0.915 8 3.41 8.48
4/29/2022 11:00:00 PM 13.51 56.318 0.919 7.99 3.82 8.42
4/29/2022 11:15:00 PM 13.36 56.048 0.922 7.98 3.78 8.38
4/29/2022 11:30:00 PM 13.22 55.796 0.925 7.96 3.53 8.34
4/29/2022 11:45:00 PM 13.08 55.544 0.929 7.95 3.4 8.31
4/30/2022 12:00:00 AM 12.95 55.31 0.932 7.94 3.64 8.29
4/30/2022 12:15:00 AM 12.82 55.076 0.935 7.93 3.45 8.27
4/30/2022 12:30:00 AM 12.7 54.86 0.936 7.92 3.56 8.27
4/30/2022 12:45:00 AM 12.57 54.626 0.938 7.92 3.57 8.27
4/30/2022 1:00:00 AM 12.45 54.41 0.939 7.91 3.37 8.27
4/30/2022 1:15:00 AM 12.33 54.194 0.941 7.9 3.46 8.29
4/30/2022 1:30:00 AM 12.22 53.996 0.943 7.9 3.49 8.3
4/30/2022 1:45:00 AM 12.1 53.78 0.945 7.89 3.28 8.32
4/30/2022 2:00:00 AM 11.98 53.564 0.946 7.89 3.66 8.35
4/30/2022 2:15:00 AM 11.87 53.366 0.947 7.88 3.95 8.37
4/30/2022 2:30:00 AM 11.76 53.168 0.947 7.88 4.11 8.4
4/30/2022 2:45:00 AM 11.65 52.97 0.948 7.88 3.87 8.43
4/30/2022 3:00:00 AM 11.54 52.772 0.948 7.88 3.69 8.46
4/30/2022 3:15:00 AM 11.45 52.61 0.947 7.87 3.59 8.48
4/30/2022 3:30:00 AM 11.35 52.43 0.947 7.88 3.51 8.51
4/30/2022 3:45:00 AM 11.26 52.268 0.946 7.88 3.48 8.54
4/30/2022 4:00:00 AM 11.17 52.106 0.945 7.87 3.6 8.57
4/30/2022 4:15:00 AM 11.08 51.944 0.943 7.87 3.9 8.6
4/30/2022 4:30:00 AM 10.99 51.782 0.941 7.88 4.18 8.63
4/30/2022 4:45:00 AM 10.9 51.62 0.939 7.87 3.69 8.66
4/30/2022 5:00:00 AM 10.82 51.476 0.935 7.87 3.79 8.69
4/30/2022 5:15:00 AM 10.74 51.332 0.931 7.87 3.73 8.72
4/30/2022 5:30:00 AM 10.66 51.188 0.927 7.87 3.85 8.76
4/30/2022 5:45:00 AM 10.58 51.044 0.922 7.88 3.95 8.79
4/30/2022 6:00:00 AM 10.5 50.9 0.918 7.88 3.72 8.83
4/30/2022 6:15:00 AM 10.42 50.756 0.913 7.88 3.85 8.88
4/30/2022 6:30:00 AM 10.35 50.63 0.907 7.88 3.51 8.95
4/30/2022 6:45:00 AM 10.28 50.504 0.902 7.88 3.38 9.04
4/30/2022 7:00:00 AM 10.21 50.378 0.898 7.89 3.22 9.16
4/30/2022 7:15:00 AM 10.16 50.288 0.893 7.9 3.35 9.3
4/30/2022 7:30:00 AM 10.12 50.216 0.888 7.91 3.09 9.45
4/30/2022 7:45:00 AM 10.09 50.162 0.882 7.92 3.06 9.62
4/30/2022 8:00:00 AM 10.07 50.126 0.875 7.94 3.02 9.81
4/30/2022 8:15:00 AM 10.09 50.162 0.869 7.96 3.03 10.04
4/30/2022 8:30:00 AM 10.14 50.252 0.864 7.98 2.91 10.29
4/30/2022 8:45:00 AM 10.2 50.36 0.861 8 3.02 10.54
4/30/2022 9:00:00 AM 10.29 50.522 0.86 8.02 2.91 10.78
4/30/2022 9:15:00 AM 10.4 50.72 0.86 8.05 2.75 11.02
4/30/2022 9:30:00 AM 10.52 50.936 0.861 8.08 2.94 11.27
4/30/2022 9:45:00 AM 10.65 51.17 0.863 8.1 2.77 11.5
4/30/2022 10:00:00 AM 10.81 51.458 0.864 8.12 2.77 11.72
4/30/2022 10:15:00 AM 10.98 51.764 0.866 8.15 2.84 11.93
4/30/2022 10:30:00 AM 11.17 52.106 0.866 8.17 2.72 12.14
4/30/2022 10:45:00 AM 11.35 52.43 0.866 8.2 2.65 12.34
4/30/2022 11:00:00 AM 11.56 52.808 0.864 8.23 2.8 12.52
4/30/2022 11:15:00 AM 11.78 53.204 0.863 8.25 3.48 12.69
4/30/2022 11:30:00 AM 12.02 53.636 0.861 8.28 2.88 12.86
4/30/2022 11:45:00 AM 12.28 54.104 0.861 8.31 2.74 13.02
4/30/2022 12:00:00 PM 12.56 54.608 0.863 8.34 2.64 13.16
4/30/2022 12:15:00 PM 12.86 55.148 0.868 8.37 2.58 13.28
4/30/2022 12:30:00 PM 13.17 55.706 0.875 8.39 2.48 13.4
4/30/2022 12:45:00 PM 13.48 56.264 0.885 8.42 2.89 13.48
4/30/2022 1:00:00 PM 13.81 56.858 0.897 8.44 2.81 13.54
4/30/2022 1:15:00 PM 14.13 57.434 0.908 8.46 2.65 13.6
4/30/2022 1:30:00 PM 14.43 57.974 0.919 8.48 2.53 13.64
4/30/2022 1:45:00 PM 14.74 58.532 0.931 8.49 2.59 13.66
4/30/2022 2:00:00 PM 15.02 59.036 0.94 8.51 2.84 13.64
4/30/2022 2:15:00 PM 15.26 59.468 0.95 8.52 2.56 13.6
4/30/2022 2:30:00 PM 15.5 59.9 0.96 8.53 2.41 13.57
4/30/2022 2:45:00 PM 15.71 60.278 0.969 8.53 2.48 13.52
4/30/2022 3:00:00 PM 15.92 60.656 0.976 8.54 2.46 13.44
4/30/2022 3:15:00 PM 16.08 60.944 0.982 8.54 2.41 13.35
4/30/2022 3:30:00 PM 16.23 61.214 0.986 8.55 2.44 13.24
4/30/2022 3:45:00 PM 16.34 61.412 0.989 8.55 2.65 13.1
4/30/2022 4:00:00 PM 16.43 61.574 0.991 8.54 2.57 12.94
4/30/2022 4:15:00 PM 16.5 61.7 0.992 8.54 2.51 12.79
4/30/2022 4:30:00 PM 16.53 61.754 0.994 8.53 2.64 12.59
4/30/2022 4:45:00 PM 16.59 61.862 0.995 8.52 2.6 12.45
4/30/2022 5:00:00 PM 16.61 61.898 0.996 8.51 2.63 12.31
4/30/2022 5:15:00 PM 16.61 61.898 0.997 8.5 2.6 12.12
4/30/2022 5:30:00 PM 16.6 61.88 0.997 8.49 2.63 11.92
4/30/2022 5:45:00 PM 16.58 61.844 0.998 8.47 2.7 11.66
4/30/2022 6:00:00 PM 16.54 61.772 0.998 8.44 2.76 11.34
4/30/2022 6:15:00 PM 16.49 61.682 0.997 8.42 2.67 11.21
4/30/2022 6:30:00 PM 16.41 61.538 0.996 8.4 2.5 10.99
4/30/2022 6:45:00 PM 16.33 61.394 0.996 8.37 2.57 10.71
4/30/2022 7:00:00 PM 16.28 61.304 0.996 8.34 2.54 10.47
4/30/2022 7:15:00 PM 16.2 61.16 0.997 8.31 2.43 10.25
4/30/2022 7:30:00 PM 16.12 61.016 0.997 8.29 2.57 10.02
4/30/2022 7:45:00 PM 16.02 60.836 0.996 8.25 2.44 9.77
4/30/2022 8:00:00 PM 15.9 60.62 0.994 8.23 2.55 9.54
4/30/2022 8:15:00 PM 15.78 60.404 0.993 8.2 2.74 9.34
4/30/2022 8:30:00 PM 15.65 60.17 0.991 8.17 2.94 9.16
4/30/2022 8:45:00 PM 15.51 59.918 0.99 8.14 3.15 9.01
4/30/2022 9:00:00 PM 15.38 59.684 0.988 8.12 3.24 8.87
4/30/2022 9:15:00 PM 15.25 59.45 0.986 8.09 3.37 8.75
4/30/2022 9:30:00 PM 15.12 59.216 0.985 8.08 3.24 8.64
4/30/2022 9:45:00 PM 14.99 58.982 0.984 8.06 3.27 8.54
4/30/2022 10:00:00 PM 14.85 58.73 0.983 8.04 3.24 8.45
4/30/2022 10:15:00 PM 14.71 58.478 0.984 8.03 3.21 8.37
4/30/2022 10:30:00 PM 14.57 58.226 0.984 8.01 3.13 8.3
4/30/2022 10:45:00 PM 14.43 57.974 0.983 8 3.41 8.23
4/30/2022 11:00:00 PM 14.28 57.704 0.982 7.98 3.22 8.17
4/30/2022 11:15:00 PM 14.14 57.452 0.981 7.97 2.99 8.12
4/30/2022 11:30:00 PM 13.99 57.182 0.98 7.96 3.07 8.07
4/30/2022 11:45:00 PM 13.86 56.948 0.978 7.94 3.08 8.04
5/1/2022 12:00:00 AM 13.72 56.696 0.978 7.93 3.15 8.01
5/1/2022 12:15:00 AM 13.58 56.444 0.977 7.93 3.21 8
5/1/2022 12:30:00 AM 13.44 56.192 0.977 7.92 3.43 7.99
5/1/2022 12:45:00 AM 13.3 55.94 0.976 7.91 3.26 7.99
5/1/2022 1:00:00 AM 13.17 55.706 0.975 7.9 3.18 7.99
5/1/2022 1:15:00 AM 13.04 55.472 0.973 7.89 3.44 8.01
5/1/2022 1:30:00 AM 12.91 55.238 0.971 7.89 3.44 8.02
5/1/2022 1:45:00 AM 12.78 55.004 0.969 7.88 3.42 8.04
5/1/2022 2:00:00 AM 12.66 54.788 0.966 7.88 3.31 8.06
5/1/2022 2:15:00 AM 12.54 54.572 0.964 7.88 3.31 8.09
5/1/2022 2:30:00 AM 12.42 54.356 0.962 7.87 3.43 8.11
5/1/2022 2:45:00 AM 12.32 54.176 0.96 7.87 3.25 8.14
5/1/2022 3:00:00 AM 12.21 53.978 0.958 7.87 3.07 8.17
5/1/2022 3:15:00 AM 12.11 53.798 0.954 7.86 3.22 8.2
5/1/2022 3:30:00 AM 12.01 53.618 0.95 7.86 3.15 8.23
5/1/2022 3:45:00 AM 11.91 53.438 0.946 7.86 3.05 8.26
5/1/2022 4:00:00 AM 11.82 53.276 0.942 7.86 2.97 8.29
5/1/2022 4:15:00 AM 11.72 53.096 0.938 7.86 2.96 8.32
5/1/2022 4:30:00 AM 11.63 52.934 0.933 7.86 3.1 8.35
5/1/2022 4:45:00 AM 11.55 52.79 0.929 7.86 3.02 8.38
5/1/2022 5:00:00 AM 11.46 52.628 0.924 7.86 2.95 8.41
5/1/2022 5:15:00 AM 11.37 52.466 0.918 7.86 3.02 8.45
5/1/2022 5:30:00 AM 11.29 52.322 0.913 7.86 3.2 8.48
5/1/2022 5:45:00 AM 11.21 52.178 0.907 7.86 3.47 8.51
5/1/2022 6:00:00 AM 11.13 52.034 0.902 7.86 3.51 8.56
5/1/2022 6:15:00 AM 11.05 51.89 0.896 7.87 3.23 8.61
5/1/2022 6:30:00 AM 10.98 51.764 0.89 7.87 3.01 8.69
5/1/2022 6:45:00 AM 10.92 51.656 0.884 7.88 2.98 8.81
5/1/2022 7:00:00 AM 10.87 51.566 0.877 7.88 3.6 8.96
5/1/2022 7:15:00 AM 10.83 51.494 0.871 7.89 2.96 9.09
5/1/2022 7:30:00 AM 10.79 51.422 0.864 7.9 3.18 9.25
5/1/2022 7:45:00 AM 10.77 51.386 0.859 7.9 3.04 9.42
5/1/2022 8:00:00 AM 10.76 51.368 0.855 7.92 2.86 9.6
5/1/2022 8:15:00 AM 10.8 51.44 0.853 7.94 2.92 9.89
5/1/2022 8:30:00 AM 10.85 51.53 0.852 7.96 2.8 10.14
5/1/2022 8:45:00 AM 10.93 51.674 0.851 7.99 2.8 10.43
5/1/2022 9:00:00 AM 11.04 51.872 0.851 8.02 2.69 10.77
5/1/2022 9:15:00 AM 11.15 52.07 0.851 8.05 2.66 11.06
5/1/2022 9:30:00 AM 11.28 52.304 0.851 8.08 2.56 11.34
5/1/2022 9:45:00 AM 11.42 52.556 0.851 8.12 2.63 11.64
5/1/2022 10:00:00 AM 11.5 52.7 0.852 8.14 2.9 11.76
5/1/2022 10:15:00 AM 11.62 52.916 0.852 8.16 2.61 11.94
5/1/2022 10:30:00 AM 11.73 53.114 0.852 8.18 2.7 12.15
5/1/2022 10:45:00 AM 11.83 53.294 0.851 8.21 2.63 12.35
5/1/2022 11:00:00 AM 11.96 53.528 0.85 8.24 2.55 12.53
5/1/2022 11:15:00 AM 12.16 53.888 0.848 8.27 2.51 12.74
5/1/2022 11:30:00 AM 12.36 54.248 0.846 8.3 2.6 12.96
5/1/2022 11:45:00 AM 12.58 54.644 0.843 8.33 2.38 13.1
5/1/2022 12:00:00 PM 12.71 54.878 0.84 8.34 2.37 13.01
5/1/2022 12:15:00 PM 12.88 55.184 0.84 8.36 2.38 13.04
5/1/2022 12:30:00 PM 13.01 55.418 0.843 8.38 2.35 13.07
5/1/2022 12:45:00 PM 13.11 55.598 0.849 8.38 2.46 12.97
5/1/2022 1:00:00 PM 13.22 55.796 0.858 8.39 2.79 12.86
5/1/2022 1:15:00 PM 13.38 56.084 0.868 8.41 2.5 13
5/1/2022 1:30:00 PM 13.49 56.282 0.88 8.41 2.8 12.92
5/1/2022 1:45:00 PM 13.6 56.48 0.892 8.41 2.68 12.71
5/1/2022 2:00:00 PM 13.7 56.66 0.904 8.4 2.7 12.51
5/1/2022 2:15:00 PM 13.77 56.786 0.916 8.37 2.68 12.14
5/1/2022 2:30:00 PM 13.82 56.876 0.926 8.35 2.87 11.91
5/1/2022 2:45:00 PM 13.86 56.948 0.933 8.34 2.88 11.7
5/1/2022 3:00:00 PM 13.93 57.074 0.938 8.34 2.66 11.65
5/1/2022 3:15:00 PM 13.99 57.182 0.94 8.32 2.52 11.49
5/1/2022 3:30:00 PM 14.06 57.308 0.942 8.31 2.53 11.28
5/1/2022 3:45:00 PM 14.13 57.434 0.942 8.29 2.48 11.16
5/1/2022 4:00:00 PM 14.17 57.506 0.943 8.28 2.58 10.93
5/1/2022 4:15:00 PM 14.2 57.56 0.943 8.25 2.38 10.76
5/1/2022 4:30:00 PM 14.22 57.596 0.943 8.24 2.46 10.58
5/1/2022 4:45:00 PM 14.21 57.578 0.941 8.22 2.42 10.36
5/1/2022 5:00:00 PM 14.21 57.578 0.939 8.2 3.12 10.26
5/1/2022 5:15:00 PM 14.21 57.578 0.938 8.19 2.59 10.21
5/1/2022 5:30:00 PM 14.24 57.632 0.937 8.19 2.82 10.33
5/1/2022 5:45:00 PM 14.24 57.632 0.936 8.19 2.89 10.34
5/1/2022 6:00:00 PM 14.24 57.632 0.936 8.17 2.84 10.15
5/1/2022 6:15:00 PM 14.24 57.632 0.935 8.16 2.89 10.06
5/1/2022 6:30:00 PM 14.24 57.632 0.934 8.15 2.8 10.07
5/1/2022 6:45:00 PM 14.22 57.596 0.932 8.14 2.65 9.96
5/1/2022 7:00:00 PM 14.18 57.524 0.932 8.12 2.72 9.73
5/1/2022 7:15:00 PM 14.15 57.47 0.933 8.09 2.82 9.57
5/1/2022 7:30:00 PM 14.11 57.398 0.934 8.08 2.95 9.43
5/1/2022 7:45:00 PM 14.07 57.326 0.935 8.06 2.89 9.28
5/1/2022 8:00:00 PM 14.03 57.254 0.936 8.04 2.97 9.14
5/1/2022 8:15:00 PM 13.99 57.182 0.937 8.02 3.07 9.02
5/1/2022 8:30:00 PM 13.95 57.11 0.938 8 3.49 8.92
5/1/2022 8:45:00 PM 13.9 57.02 0.939 7.99 3.32 8.83
5/1/2022 9:00:00 PM 13.86 56.948 0.939 7.98 3.6 8.76
5/1/2022 9:15:00 PM 13.8 56.84 0.94 7.97 3.43 8.69
5/1/2022 9:30:00 PM 13.75 56.75 0.94 7.96 3.5 8.64
5/1/2022 9:45:00 PM 13.69 56.642 0.94 7.95 3.36 8.59
5/1/2022 10:00:00 PM 13.63 56.534 0.939 7.94 3.24 8.53
5/1/2022 10:15:00 PM 13.58 56.444 0.937 7.93 3.07 8.47
5/1/2022 10:30:00 PM 13.52 56.336 0.934 7.92 3.07 8.42
5/1/2022 10:45:00 PM 13.47 56.246 0.931 7.91 3.24 8.36
5/1/2022 11:00:00 PM 13.42 56.156 0.927 7.89 3.14 8.29
5/1/2022 11:15:00 PM 13.37 56.066 0.923 7.88 3.08 8.22
5/1/2022 11:30:00 PM 13.33 55.994 0.92 7.86 3.09 8.14
5/1/2022 11:45:00 PM 13.3 55.94 0.918 7.85 3.11 8.06
5/2/2022 12:00:00 AM 13.26 55.868 0.917 7.83 3.09 7.97
5/2/2022 12:15:00 AM 13.22 55.796 0.917 7.81 3.17 7.88
5/2/2022 12:30:00 AM 13.19 55.742 0.916 7.8 3.34 7.79
5/2/2022 12:45:00 AM 13.15 55.67 0.914 7.79 3.36 7.7
5/2/2022 1:00:00 AM 13.12 55.616 0.913 7.77 3.38 7.64
5/2/2022 1:15:00 AM 13.1 55.58 0.914 7.76 3.48 7.6
5/2/2022 1:30:00 AM 13.08 55.544 0.916 7.75 3.63 7.57
5/2/2022 1:45:00 AM 13.06 55.508 0.918 7.75 3.5 7.57
5/2/2022 2:00:00 AM 13.01 55.418 0.915 7.76 3.56 7.67
5/2/2022 2:15:00 AM 12.97 55.346 0.911 7.76 5.14 7.73
5/2/2022 2:30:00 AM 12.93 55.274 0.906 7.75 6.36 7.74
5/2/2022 2:45:00 AM 12.87 55.166 0.903 7.77 5.56 7.84
5/2/2022 3:00:00 AM 12.82 55.076 0.9 7.77 5.71 7.9
5/2/2022 3:15:00 AM 12.77 54.986 0.891 7.77 6.3 7.92
5/2/2022 3:30:00 AM 12.74 54.932 0.89 7.77 6.02 7.94
5/2/2022 3:45:00 AM 12.7 54.86 0.887 7.77 6.2 7.96
5/2/2022 4:00:00 AM 12.66 54.788 0.883 7.77 5.86 8
5/2/2022 4:15:00 AM 12.61 54.698 0.877 7.78 6.38 8.03
5/2/2022 4:30:00 AM 12.55 54.59 0.869 7.78 8.24 8.1
5/2/2022 4:45:00 AM 12.49 54.482 0.857 7.78 10.88 8.18
5/2/2022 5:00:00 AM 12.43 54.374 0.838 7.78 12.31 8.25
5/2/2022 5:15:00 AM 12.39 54.302 0.822 7.78 12.32 8.29
5/2/2022 5:30:00 AM 12.35 54.23 0.813 7.78 11.55 8.33
5/2/2022 5:45:00 AM 12.33 54.194 0.805 7.78 10.53 8.36
5/2/2022 6:00:00 AM 12.32 54.176 0.791 7.79 9.67 8.39
5/2/2022 6:15:00 AM 12.3 54.14 0.77 7.79 8.35 8.41
5/2/2022 6:30:00 AM 12.29 54.122 0.746 7.78 7.84 8.43
5/2/2022 6:45:00 AM 12.27 54.086 0.721 7.78 6.92 8.44
5/2/2022 7:00:00 AM 12.25 54.05 0.695 7.77 6.57 8.48
5/2/2022 7:15:00 AM 12.24 54.032 0.669 7.77 6.39 8.51
5/2/2022 7:30:00 AM 12.23 54.014 0.645 7.77 6.33 8.57
5/2/2022 7:45:00 AM 12.24 54.032 0.622 7.76 6.16 8.64
5/2/2022 8:00:00 AM 12.26 54.068 0.604 7.75 6.36 8.73
5/2/2022 8:15:00 AM 12.3 54.14 0.591 7.75 6.31 8.84
5/2/2022 8:30:00 AM 12.35 54.23 0.583 7.76 6.26 8.99
5/2/2022 8:45:00 AM 12.42 54.356 0.579 7.76 6.37 9.12
5/2/2022 9:00:00 AM 12.48 54.464 0.577 7.77 6.26 9.23
5/2/2022 9:15:00 AM 12.57 54.626 0.579 7.78 6.1 9.4
5/2/2022 9:30:00 AM 12.67 54.806 0.584 7.8 6.15 9.61
5/2/2022 9:45:00 AM 12.76 54.968 0.591 7.81 5.98 9.84
5/2/2022 10:00:00 AM 12.86 55.148 0.6 7.83 5.69 10.05
5/2/2022 10:15:00 AM 12.95 55.31 0.61 7.85 5.46 10.18
5/2/2022 10:30:00 AM 13.04 55.472 0.622 7.87 5.41 10.35
5/2/2022 10:45:00 AM 13.18 55.724 0.635 7.9 5.16 10.72
5/2/2022 11:00:00 AM 13.35 56.03 0.651 7.93 4.95 11.08
5/2/2022 11:15:00 AM 13.47 56.246 0.669 7.96 4.6 11.22
5/2/2022 11:30:00 AM 13.73 56.714 0.691 8 4.2 11.6
5/2/2022 11:45:00 AM 13.9 57.02 0.717 8.03 3.95 11.77
5/2/2022 12:00:00 PM 14.09 57.362 0.745 8.06 3.85 11.93
5/2/2022 12:15:00 PM 14.31 57.758 0.774 8.09 3.81 12.21
5/2/2022 12:30:00 PM 14.56 58.208 0.8 8.14 3.82 12.47
5/2/2022 12:45:00 PM 14.76 58.568 0.823 8.17 3.87 12.59
5/2/2022 1:00:00 PM 15 59 0.842 8.2 3.32 12.69
5/2/2022 1:15:00 PM 15.33 59.594 0.857 8.24 3.32 12.87
5/2/2022 1:30:00 PM 15.64 60.152 0.867 8.27 3.31 12.98
5/2/2022 1:45:00 PM 15.89 60.602 0.874 8.3 3.31 13.05
5/2/2022 2:00:00 PM 15.96 60.728 0.876 8.31 3.3 12.9
5/2/2022 2:15:00 PM 15.95 60.71 0.878 8.32 3.35 12.7
5/2/2022 2:30:00 PM 15.99 60.782 0.88 8.33 3.51 12.67
5/2/2022 2:45:00 PM 16.06 60.908 0.882 8.35 3.2 12.69
5/2/2022 3:00:00 PM 16.12 61.016 0.883 8.35 3.24 12.55
5/2/2022 3:15:00 PM 16.21 61.178 0.884 8.36 3.1 12.45
5/2/2022 3:30:00 PM 16.4 61.52 0.885 8.37 3.22 12.58
5/2/2022 3:45:00 PM 16.55 61.79 0.888 8.38 3.22 12.55
5/2/2022 4:00:00 PM 16.64 61.952 0.891 8.38 3.04 12.3
5/2/2022 4:15:00 PM 16.76 62.168 0.895 8.37 3.1 12.22
5/2/2022 4:30:00 PM 16.86 62.348 0.899 8.38 2.95 12.21
5/2/2022 4:45:00 PM 16.9 62.42 0.904 8.38 3.19 12.01
5/2/2022 5:00:00 PM 16.98 62.564 0.908 8.37 3.21 11.85
5/2/2022 5:15:00 PM 17.02 62.636 0.912 8.36 3.14 11.66
5/2/2022 5:30:00 PM 17.04 62.672 0.914 8.34 3.23 11.46
5/2/2022 5:45:00 PM 17.05 62.69 0.915 8.33 2.97 11.26
5/2/2022 6:00:00 PM 17.03 62.654 0.915 8.32 3 11.05
5/2/2022 6:15:00 PM 17.01 62.618 0.914 8.29 3.21 10.84
5/2/2022 6:30:00 PM 16.96 62.528 0.913 8.28 3.2 10.59
5/2/2022 6:45:00 PM 16.91 62.438 0.911 8.25 3.03 10.35
5/2/2022 7:00:00 PM 16.86 62.348 0.908 8.23 3.02 10.13
5/2/2022 7:15:00 PM 16.81 62.258 0.905 8.2 3.2 9.88
5/2/2022 7:30:00 PM 16.77 62.186 0.9 8.17 2.97 9.65
5/2/2022 7:45:00 PM 16.72 62.096 0.895 8.15 3.04 9.41
5/2/2022 8:00:00 PM 16.67 62.006 0.891 8.12 2.95 9.18
5/2/2022 8:15:00 PM 16.61 61.898 0.887 8.1 3.21 8.98
5/2/2022 8:30:00 PM 16.54 61.772 0.884 8.07 3.26 8.8
5/2/2022 8:45:00 PM 16.46 61.628 0.882 8.05 3.62 8.64
5/2/2022 9:00:00 PM 16.38 61.484 0.882 8.03 3.9 8.5
5/2/2022 9:15:00 PM 16.28 61.304 0.883 8.01 4.21 8.38
5/2/2022 9:30:00 PM 16.18 61.124 0.884 8 3.81 8.26
5/2/2022 9:45:00 PM 16.06 60.908 0.885 7.98 3.98 8.17
5/2/2022 10:00:00 PM 15.94 60.692 0.886 7.97 4.11 8.07
5/2/2022 10:15:00 PM 15.82 60.476 0.887 7.95 3.92 7.99
5/2/2022 10:30:00 PM 15.69 60.242 0.889 7.94 3.79 7.91
5/2/2022 10:45:00 PM 15.56 60.008 0.891 7.92 3.78 7.85
5/2/2022 11:00:00 PM 15.43 59.774 0.895 7.91 3.89 7.77
5/2/2022 11:15:00 PM 15.3 59.54 0.899 7.89 3.89 7.71
5/2/2022 11:30:00 PM 15.17 59.306 0.904 7.88 3.96 7.66
5/2/2022 11:45:00 PM 15.05 59.09 0.908 7.87 3.99 7.63
5/3/2022 12:00:00 AM 14.93 58.874 0.912 7.87 3.98 7.59
5/3/2022 12:15:00 AM 14.81 58.658 0.915 7.85 4.02 7.57
5/3/2022 12:30:00 AM 14.7 58.46 0.919 7.85 4 7.55
5/3/2022 12:45:00 AM 14.59 58.262 0.922 7.84 4.27 7.55
5/3/2022 1:00:00 AM 14.48 58.064 0.926 7.84 4.18 7.55
5/3/2022 1:15:00 AM 14.37 57.866 0.931 7.83 4.32 7.54
5/3/2022 1:30:00 AM 14.27 57.686 0.934 7.83 3.89 7.55
5/3/2022 1:45:00 AM 14.16 57.488 0.937 7.82 4.16 7.56
5/3/2022 2:00:00 AM 14.06 57.308 0.94 7.82 4.28 7.57
5/3/2022 2:15:00 AM 13.97 57.146 0.944 7.81 4.37 7.58
5/3/2022 2:30:00 AM 13.88 56.984 0.947 7.81 4.33 7.6
5/3/2022 2:45:00 AM 13.79 56.822 0.949 7.81 4.77 7.61
5/3/2022 3:00:00 AM 13.72 56.696 0.951 7.8 4.59 7.63
5/3/2022 3:15:00 AM 13.66 56.588 0.952 7.8 4.44 7.65
5/3/2022 3:30:00 AM 13.61 56.498 0.951 7.79 4.57 7.66
5/3/2022 3:45:00 AM 13.57 56.426 0.948 7.8 4.2 7.68
5/3/2022 4:00:00 AM 13.54 56.372 0.945 7.8 4.28 7.7
5/3/2022 4:15:00 AM 13.5 56.3 0.941 7.8 4.28 7.71
5/3/2022 4:30:00 AM 13.47 56.246 0.936 7.8 4.55 7.73
5/3/2022 4:45:00 AM 13.42 56.156 0.931 7.8 4.67 7.75
5/3/2022 5:00:00 AM 13.38 56.084 0.924 7.8 4.49 7.77
5/3/2022 5:15:00 AM 13.33 55.994 0.916 7.8 4.68 7.8
5/3/2022 5:30:00 AM 13.29 55.922 0.907 7.8 4.88 7.83
5/3/2022 5:45:00 AM 13.24 55.832 0.9 7.81 4.29 7.85
5/3/2022 6:00:00 AM 13.2 55.76 0.892 7.81 4.34 7.89
5/3/2022 6:15:00 AM 13.16 55.688 0.885 7.81 4.16 7.92
5/3/2022 6:30:00 AM 13.12 55.616 0.878 7.81 3.93 7.96
5/3/2022 6:45:00 AM 13.09 55.562 0.872 7.82 3.86 8.03
5/3/2022 7:00:00 AM 13.06 55.508 0.866 7.83 3.87 8.12
5/3/2022 7:15:00 AM 13.04 55.472 0.86 7.83 3.45 8.24
5/3/2022 7:30:00 AM 13.02 55.436 0.855 7.84 3.56 8.35
5/3/2022 7:45:00 AM 13.01 55.418 0.851 7.85 3.35 8.44
5/3/2022 8:00:00 AM 13.01 55.418 0.848 7.86 3.33 8.58
5/3/2022 8:15:00 AM 13 55.4 0.845 7.87 3.26 8.67
5/3/2022 8:30:00 AM 13 55.4 0.844 7.88 3.35 8.77
5/3/2022 8:45:00 AM 13 55.4 0.842 7.88 3.2 8.9
5/3/2022 9:00:00 AM 13.01 55.418 0.842 7.9 3.2 9.04
5/3/2022 9:15:00 AM 13.03 55.454 0.842 7.91 3.22 9.17
5/3/2022 9:30:00 AM 13.06 55.508 0.843 7.92 3.22 9.4
5/3/2022 9:45:00 AM 13.1 55.58 0.845 7.95 3.23 9.65
5/3/2022 10:00:00 AM 13.16 55.688 0.848 7.97 3.26 9.92
5/3/2022 10:15:00 AM 13.24 55.832 0.85 7.99 3.33 10.3
5/3/2022 10:30:00 AM 13.3 55.94 0.851 8.02 3.26 10.51
5/3/2022 10:45:00 AM 13.4 56.12 0.852 8.05 3.34 10.81
5/3/2022 11:00:00 AM 13.5 56.3 0.853 8.08 3.1 11.04
5/3/2022 11:15:00 AM 13.69 56.642 0.854 8.12 3.54 11.47
5/3/2022 11:30:00 AM 13.78 56.804 0.857 8.14 3.39 11.63
5/3/2022 11:45:00 AM 13.92 57.056 0.863 8.17 3.29 11.78
5/3/2022 12:00:00 PM 14.13 57.434 0.871 8.2 3.1 12.09
5/3/2022 12:15:00 PM 14.32 57.776 0.883 8.23 3.22 12.31
5/3/2022 12:30:00 PM 14.54 58.172 0.897 8.26 3.04 12.5
5/3/2022 12:45:00 PM 14.82 58.676 0.912 8.29 3.67 12.71
5/3/2022 1:00:00 PM 15.08 59.144 0.926 8.31 3.49 12.87
5/3/2022 1:15:00 PM 15.37 59.666 0.938 8.34 4.58 12.98
5/3/2022 1:30:00 PM 15.63 60.134 0.947 8.37 4.8 13.1
5/3/2022 1:45:00 PM 15.84 60.512 0.954 8.39 3.3 13.16
5/3/2022 2:00:00 PM 15.98 60.764 0.956 8.41 3.05 13.14
5/3/2022 2:15:00 PM 16.12 61.016 0.957 8.42 3.42 13.14
5/3/2022 2:30:00 PM 16.27 61.286 0.957 8.44 4.35 13.2
5/3/2022 2:45:00 PM 16.43 61.574 0.957 8.46 5.55 13.22
5/3/2022 3:00:00 PM 16.58 61.844 0.957 8.47 3.75 13.22
5/3/2022 3:15:00 PM 16.67 62.006 0.957 8.48 4.07 13.06
5/3/2022 3:30:00 PM 16.77 62.186 0.959 8.48 3.42 12.97
5/3/2022 3:45:00 PM 16.86 62.348 0.962 8.49 3.3 12.87
5/3/2022 4:00:00 PM 16.91 62.438 0.967 8.48 3.95 12.68
5/3/2022 4:15:00 PM 16.96 62.528 0.974 8.48 3.16 12.53
5/3/2022 4:30:00 PM 17.02 62.636 0.98 8.47 3.33 12.46
5/3/2022 4:45:00 PM 17.08 62.744 0.986 8.47 3.54 12.33
5/3/2022 5:00:00 PM 17.15 62.87 0.99 8.46 3.09 12.12
5/3/2022 5:15:00 PM 17.19 62.942 0.993 8.45 3.21 11.88
5/3/2022 5:30:00 PM 17.27 63.086 0.994 8.44 3.12 11.73
5/3/2022 5:45:00 PM 17.3 63.14 0.993 8.42 3.27 11.5
5/3/2022 6:00:00 PM 17.3 63.14 0.989 8.4 3.33 11.23
5/3/2022 6:15:00 PM 17.29 63.122 0.983 8.39 3.21 11.06
5/3/2022 6:30:00 PM 17.23 63.014 0.976 8.37 3.09 10.81
5/3/2022 6:45:00 PM 17.16 62.888 0.97 8.33 3.1 10.52
5/3/2022 7:00:00 PM 17.09 62.762 0.965 8.31 3.14 10.24
5/3/2022 7:15:00 PM 17.03 62.654 0.961 8.28 3.16 10.01
5/3/2022 7:30:00 PM 16.95 62.51 0.958 8.25 3.38 9.78
5/3/2022 7:45:00 PM 16.87 62.366 0.955 8.21 3.28 9.52
5/3/2022 8:00:00 PM 16.8 62.24 0.953 8.19 3.21 9.28
5/3/2022 8:15:00 PM 16.73 62.114 0.952 8.16 3.31 9.06
5/3/2022 8:30:00 PM 16.66 61.988 0.951 8.13 3.52 8.87
5/3/2022 8:45:00 PM 16.58 61.844 0.951 8.11 3.75 8.69
5/3/2022 9:00:00 PM 16.52 61.736 0.951 8.09 3.95 8.54
5/3/2022 9:15:00 PM 16.44 61.592 0.951 8.07 3.89 8.4
5/3/2022 9:30:00 PM 16.36 61.448 0.953 8.05 4.24 8.28
5/3/2022 9:45:00 PM 16.27 61.286 0.955 8.04 4.04 8.17
5/3/2022 10:00:00 PM 16.18 61.124 0.957 8.02 4.81 8.06
5/3/2022 10:15:00 PM 16.08 60.944 0.959 8 3.8 7.97
5/3/2022 10:30:00 PM 15.97 60.746 0.96 7.99 4.06 7.89
5/3/2022 10:45:00 PM 15.87 60.566 0.962 7.97 4.1 7.81
5/3/2022 11:00:00 PM 15.76 60.368 0.964 7.96 4.08 7.73
5/3/2022 11:15:00 PM 15.66 60.188 0.966 7.95 4.13 7.67
5/3/2022 11:30:00 PM 15.56 60.008 0.97 7.93 4.61 7.6
5/3/2022 11:45:00 PM 15.47 59.846 0.974 7.92 4.5 7.55
5/4/2022 12:00:00 AM 15.37 59.666 0.979 7.91 4.15 7.5
5/4/2022 12:15:00 AM 15.27 59.486 0.983 7.9 4.08 7.47
5/4/2022 12:30:00 AM 15.17 59.306 0.988 7.89 4.04 7.44
5/4/2022 12:45:00 AM 15.07 59.126 0.991 7.89 4.13 7.42
5/4/2022 1:00:00 AM 14.98 58.964 0.995 7.88 4.07 7.41
5/4/2022 1:15:00 AM 14.9 58.82 0.998 7.87 4.29 7.4
5/4/2022 1:30:00 AM 14.81 58.658 1 7.87 4.55 7.4
5/4/2022 1:45:00 AM 14.72 58.496 1.001 7.86 4.38 7.41
5/4/2022 2:00:00 AM 14.64 58.352 1.001 7.85 4.35 7.41
5/4/2022 2:15:00 AM 14.56 58.208 1.002 7.86 4.02 7.43
5/4/2022 2:30:00 AM 14.48 58.064 1.002 7.85 4.19 7.44
5/4/2022 2:45:00 AM 14.41 57.938 1.003 7.85 4 7.44
5/4/2022 3:00:00 AM 14.33 57.794 1.003 7.85 4.01 7.46
5/4/2022 3:15:00 AM 14.26 57.668 1.003 7.85 4.18 7.47
5/4/2022 3:30:00 AM 14.2 57.56 1.004 7.84 4.48 7.48
5/4/2022 3:45:00 AM 14.14 57.452 1.002 7.84 4.75 7.49
5/4/2022 4:00:00 AM 14.08 57.344 0.998 7.84 4.48 7.5
5/4/2022 4:15:00 AM 14.02 57.236 0.992 7.83 4.54 7.52
5/4/2022 4:30:00 AM 13.96 57.128 0.985 7.84 4.59 7.54
5/4/2022 4:45:00 AM 13.9 57.02 0.975 7.83 6.55 7.56
5/4/2022 5:00:00 AM 13.83 56.894 0.965 7.84 4.3 7.59
5/4/2022 5:15:00 AM 13.76 56.768 0.954 7.84 4.57 7.62
5/4/2022 5:30:00 AM 13.69 56.642 0.943 7.84 4.42 7.64
5/4/2022 5:45:00 AM 13.63 56.534 0.933 7.83 4.45 7.67
5/4/2022 6:00:00 AM 13.57 56.426 0.923 7.84 4.45 7.7
5/4/2022 6:15:00 AM 13.51 56.318 0.914 7.83 4.31 7.73
5/4/2022 6:30:00 AM 13.45 56.21 0.906 7.84 4.08 7.78
5/4/2022 6:45:00 AM 13.41 56.138 0.898 7.84 4.24 7.82
5/4/2022 7:00:00 AM 13.36 56.048 0.89 7.84 3.97 7.88
5/4/2022 7:15:00 AM 13.32 55.976 0.882 7.84 3.9 7.96
5/4/2022 7:30:00 AM 13.28 55.904 0.875 7.85 3.93 8.03
5/4/2022 7:45:00 AM 13.24 55.832 0.869 7.86 3.89 8.18
5/4/2022 8:00:00 AM 13.21 55.778 0.864 7.86 3.63 8.34
5/4/2022 8:15:00 AM 13.2 55.76 0.862 7.87 3.67 8.49
5/4/2022 8:30:00 AM 13.19 55.742 0.862 7.88 3.68 8.58
5/4/2022 8:45:00 AM 13.17 55.706 0.862 7.88 3.33 8.62
5/4/2022 9:00:00 AM 13.17 55.706 0.863 7.88 3.75 8.69
5/4/2022 9:15:00 AM 13.16 55.688 0.863 7.89 3.55 8.77
5/4/2022 9:30:00 AM 13.17 55.706 0.863 7.89 3.55 8.89
5/4/2022 9:45:00 AM 13.18 55.724 0.863 7.89 3.63 9.03
5/4/2022 10:00:00 AM 13.2 55.76 0.863 7.9 3.61 9.18
5/4/2022 10:15:00 AM 13.24 55.832 0.863 7.9 3.48 9.41
5/4/2022 10:30:00 AM 13.28 55.904 0.863 7.91 3.64 9.59
5/4/2022 10:45:00 AM 13.33 55.994 0.863 7.92 3.8 9.7
5/4/2022 11:00:00 AM 13.37 56.066 0.861 7.92 3.72 9.8
5/4/2022 11:15:00 AM 13.4 56.12 0.862 7.93 3.75 9.84
5/4/2022 11:30:00 AM 13.43 56.174 0.865 7.93 3.8 9.85
5/4/2022 11:45:00 AM 13.46 56.228 0.872 7.93 3.41 9.9
5/4/2022 12:00:00 PM 13.51 56.318 0.879 7.95 3.43 10.08
5/4/2022 12:15:00 PM 13.55 56.39 0.887 7.95 3.69 10.19
5/4/2022 12:30:00 PM 13.62 56.516 0.892 7.98 3.47 10.4
5/4/2022 12:45:00 PM 13.7 56.66 0.894 8 3.48 10.66
5/4/2022 1:00:00 PM 13.78 56.804 0.893 8.03 3.56 10.88
5/4/2022 1:15:00 PM 13.86 56.948 0.891 8.05 3.28 11.03
5/4/2022 1:30:00 PM 13.95 57.11 0.891 8.07 3.45 11.2
5/4/2022 1:45:00 PM 14.04 57.272 0.895 8.09 3.56 11.35
5/4/2022 2:00:00 PM 14.14 57.452 0.901 8.11 3.36 11.46
5/4/2022 2:15:00 PM 14.23 57.614 0.907 8.12 3.51 11.52
5/4/2022 2:30:00 PM 14.27 57.686 0.912 8.12 3.45 11.32
5/4/2022 2:45:00 PM 14.29 57.722 0.914 8.11 3.42 10.99
5/4/2022 3:00:00 PM 14.35 57.83 0.915 8.12 3.33 11.11
5/4/2022 3:15:00 PM 14.42 57.956 0.914 8.13 3.47 11.35
5/4/2022 3:30:00 PM 14.49 58.082 0.915 8.15 3.5 11.44
5/4/2022 3:45:00 PM 14.65 58.37 0.917 8.17 3.49 11.71
5/4/2022 4:00:00 PM 14.73 58.514 0.922 8.19 3.41 11.72
5/4/2022 4:15:00 PM 14.82 58.676 0.93 8.19 3.4 11.68
5/4/2022 4:30:00 PM 14.95 58.91 0.939 8.21 3.42 11.77
5/4/2022 4:45:00 PM 15.07 59.126 0.947 8.23 3.52 11.81
5/4/2022 5:00:00 PM 15.14 59.252 0.955 8.22 3.53 11.69
5/4/2022 5:15:00 PM 15.21 59.378 0.962 8.23 3.46 11.59
5/4/2022 5:30:00 PM 15.28 59.504 0.967 8.23 3.54 11.51
5/4/2022 5:45:00 PM 15.33 59.594 0.971 8.23 3.37 11.4
5/4/2022 6:00:00 PM 15.35 59.63 0.974 8.22 3.5 11.28
5/4/2022 6:15:00 PM 15.34 59.612 0.978 8.22 3.49 11.1
5/4/2022 6:30:00 PM 15.33 59.594 0.981 8.21 3.31 10.93
5/4/2022 6:45:00 PM 15.31 59.558 0.984 8.19 3.44 10.77
5/4/2022 7:00:00 PM 15.27 59.486 0.986 8.18 3.29 10.53
5/4/2022 7:15:00 PM 15.25 59.45 0.988 8.16 3.38 10.31
5/4/2022 7:30:00 PM 15.24 59.432 0.988 8.14 3.46 10.11
5/4/2022 7:45:00 PM 15.23 59.414 0.986 8.12 3.35 9.9
5/4/2022 8:00:00 PM 15.21 59.378 0.983 8.11 3.36 9.68
5/4/2022 8:15:00 PM 15.2 59.36 0.979 8.09 3.42 9.49
5/4/2022 8:30:00 PM 15.19 59.342 0.975 8.07 3.82 9.33
5/4/2022 8:45:00 PM 15.19 59.342 0.972 8.06 4.01 9.17
5/4/2022 9:00:00 PM 15.2 59.36 0.971 8.05 4.21 9.03
5/4/2022 9:15:00 PM 15.2 59.36 0.971 8.03 3.98 8.9
5/4/2022 9:30:00 PM 15.19 59.342 0.972 8.02 4.09 8.78
5/4/2022 9:45:00 PM 15.16 59.288 0.974 8.01 4.04 8.67
5/4/2022 10:00:00 PM 15.12 59.216 0.976 8 4.02 8.56
5/4/2022 10:15:00 PM 15.07 59.126 0.978 7.99 4.03 8.46
5/4/2022 10:30:00 PM 15.01 59.018 0.981 7.96 4.16 8.35
5/4/2022 10:45:00 PM 14.95 58.91 0.983 7.96 4.19 8.26
5/4/2022 11:00:00 PM 14.89 58.802 0.985 7.95 4.42 8.17
5/4/2022 11:15:00 PM 14.83 58.694 0.989 7.94 4.44 8.08
5/4/2022 11:30:00 PM 14.77 58.586 0.992 7.92 4.91 8
5/4/2022 11:45:00 PM 14.72 58.496 0.996 7.91 4.48 7.94
5/5/2022 12:00:00 AM 14.67 58.406 1 7.9 4.42 7.88
5/5/2022 12:15:00 AM 14.63 58.334 1.004 7.89 4.16 7.83
5/5/2022 12:30:00 AM 14.57 58.226 1.007 7.89 4.27 7.78
5/5/2022 12:45:00 AM 14.52 58.136 1.01 7.88 4.27 7.74
5/5/2022 1:00:00 AM 14.46 58.028 1.012 7.87 4.19 7.71
5/5/2022 1:15:00 AM 14.4 57.92 1.014 7.87 4.37 7.7
5/5/2022 1:30:00 AM 14.34 57.812 1.015 7.86 4.15 7.68
5/5/2022 1:45:00 AM 14.3 57.74 1.016 7.86 4.11 7.67
5/5/2022 2:00:00 AM 14.25 57.65 1.017 7.85 4.06 7.66
5/5/2022 2:15:00 AM 14.21 57.578 1.018 7.85 4.15 7.66
5/5/2022 2:30:00 AM 14.17 57.506 1.018 7.85 3.87 7.67
5/5/2022 2:45:00 AM 14.14 57.452 1.018 7.84 3.86 7.66
5/5/2022 3:00:00 AM 14.1 57.38 1.018 7.84 4 7.67
5/5/2022 3:15:00 AM 14.05 57.29 1.017 7.84 4.16 7.67
5/5/2022 3:30:00 AM 14.01 57.218 1.015 7.84 4.28 7.68
5/5/2022 3:45:00 AM 13.97 57.146 1.011 7.84 4.55 7.69
5/5/2022 4:00:00 AM 13.93 57.074 1.007 7.84 4.37 7.7
5/5/2022 4:15:00 AM 13.89 57.002 1.001 7.84 4.55 7.71
5/5/2022 4:30:00 AM 13.85 56.93 0.995 7.84 4.85 7.73
5/5/2022 4:45:00 AM 13.81 56.858 0.988 7.84 4.96 7.75
5/5/2022 5:00:00 AM 13.76 56.768 0.981 7.84 4.75 7.76
5/5/2022 5:15:00 AM 13.71 56.678 0.973 7.84 5.01 7.78
5/5/2022 5:30:00 AM 13.65 56.57 0.964 7.84 5.06 7.81
5/5/2022 5:45:00 AM 13.58 56.444 0.956 7.84 4.71 7.83
5/5/2022 6:00:00 AM 13.51 56.318 0.948 7.84 4.66 7.87
5/5/2022 6:15:00 AM 13.45 56.21 0.94 7.84 4.2 7.91
5/5/2022 6:30:00 AM 13.39 56.102 0.931 7.85 4.14 7.98
5/5/2022 6:45:00 AM 13.34 56.012 0.922 7.85 4.13 8.09
5/5/2022 7:00:00 AM 13.31 55.958 0.913 7.86 4.03 8.24
5/5/2022 7:15:00 AM 13.3 55.94 0.904 7.87 3.89 8.43
5/5/2022 7:30:00 AM 13.29 55.922 0.897 7.89 3.86 8.62
5/5/2022 7:45:00 AM 13.29 55.922 0.89 7.9 3.72 8.81
5/5/2022 8:00:00 AM 13.29 55.922 0.885 7.92 3.81 9
5/5/2022 8:15:00 AM 13.32 55.976 0.881 7.94 3.72 9.32
5/5/2022 8:30:00 AM 13.34 56.012 0.879 7.96 3.73 9.58
5/5/2022 8:45:00 AM 13.4 56.12 0.879 7.98 3.67 9.85
5/5/2022 9:00:00 AM 13.48 56.264 0.881 8.02 3.63 10.24
5/5/2022 9:15:00 AM 13.57 56.426 0.883 8.03 3.63 10.53
5/5/2022 9:30:00 AM 13.68 56.624 0.885 8.07 3.64 10.74
5/5/2022 9:45:00 AM 13.78 56.804 0.887 8.09 3.61 10.89
5/5/2022 10:00:00 AM 13.9 57.02 0.89 8.1 3.75 11.09
5/5/2022 10:15:00 AM 14.04 57.272 0.893 8.13 3.83 11.33
5/5/2022 10:30:00 AM 14.17 57.506 0.896 8.16 3.8 11.56
5/5/2022 10:45:00 AM 14.31 57.758 0.899 8.19 3.7 11.77
5/5/2022 11:00:00 AM 14.47 58.046 0.9 8.21 3.56 11.95
5/5/2022 11:15:00 AM 14.64 58.352 0.902 8.24 3.69 12.15
5/5/2022 11:30:00 AM 14.84 58.712 0.903 8.27 3.33 12.35
5/5/2022 11:45:00 AM 15.06 59.108 0.908 8.29 3.37 12.53
5/5/2022 12:00:00 PM 15.31 59.558 0.915 8.33 3.32 12.68
5/5/2022 12:15:00 PM 15.57 60.026 0.925 8.35 3.23 12.81
5/5/2022 12:30:00 PM 15.82 60.476 0.937 8.38 3.31 12.93
5/5/2022 12:45:00 PM 16.1 60.98 0.951 8.4 3.23 13.07
5/5/2022 1:00:00 PM 16.35 61.43 0.963 8.43 3.27 13.15
5/5/2022 1:15:00 PM 16.43 61.574 0.974 8.44 3.26 13.01
5/5/2022 1:30:00 PM 16.59 61.862 0.982 8.46 3.26 13.09
5/5/2022 1:45:00 PM 16.84 62.312 0.988 8.49 3.5 13.23
5/5/2022 2:00:00 PM 17.08 62.744 0.991 8.51 3.36 13.29
5/5/2022 2:15:00 PM 17.31 63.158 0.992 8.53 3.37 13.31
5/5/2022 2:30:00 PM 17.51 63.518 0.991 8.53 3.34 13.28
5/5/2022 2:45:00 PM 17.69 63.842 0.989 8.55 3.74 13.23
5/5/2022 3:00:00 PM 17.84 64.112 0.985 8.56 3.81 13.1
5/5/2022 3:15:00 PM 17.95 64.31 0.98 8.56 3.5 12.97
5/5/2022 3:30:00 PM 18.05 64.49 0.975 8.56 3.69 12.84
5/5/2022 3:45:00 PM 18.15 64.67 0.97 8.55 3.61 12.69
5/5/2022 4:00:00 PM 18.23 64.814 0.967 8.55 3.69 12.51
5/5/2022 4:15:00 PM 18.3 64.94 0.964 8.55 3.63 12.35
5/5/2022 4:30:00 PM 18.36 65.048 0.962 8.54 3.48 12.19
5/5/2022 4:45:00 PM 18.4 65.12 0.96 8.53 3.64 12
5/5/2022 5:00:00 PM 18.42 65.156 0.959 8.52 3.79 11.79
5/5/2022 5:15:00 PM 18.41 65.138 0.958 8.5 3.76 11.54
5/5/2022 5:30:00 PM 18.36 65.048 0.958 8.48 3.66 11.26
5/5/2022 5:45:00 PM 18.34 65.012 0.959 8.46 3.46 11.15
5/5/2022 6:00:00 PM 18.28 64.904 0.962 8.45 3.51 10.98
5/5/2022 6:15:00 PM 18.21 64.778 0.964 8.41 3.56 10.7
5/5/2022 6:30:00 PM 18.14 64.652 0.966 8.39 3.54 10.41
5/5/2022 6:45:00 PM 18.09 64.562 0.967 8.36 3.53 10.12
5/5/2022 7:00:00 PM 18.04 64.472 0.966 8.33 3.47 9.93
5/5/2022 7:15:00 PM 17.99 64.382 0.964 8.31 3.26 9.72
5/5/2022 7:30:00 PM 17.94 64.292 0.961 8.28 3.39 9.5
5/5/2022 7:45:00 PM 17.87 64.166 0.959 8.25 3.88 9.27
5/5/2022 8:00:00 PM 17.79 64.022 0.958 8.22 3.69 9.04
5/5/2022 8:15:00 PM 17.7 63.86 0.958 8.18 3.71 8.81
5/5/2022 8:30:00 PM 17.61 63.698 0.96 8.16 3.95 8.61
5/5/2022 8:45:00 PM 17.51 63.518 0.962 8.13 4.41 8.43
5/5/2022 9:00:00 PM 17.4 63.32 0.964 8.1 4.55 8.27
5/5/2022 9:15:00 PM 17.28 63.104 0.966 8.08 4.45 8.15
5/5/2022 9:30:00 PM 17.17 62.906 0.969 8.06 4.8 8.03
5/5/2022 9:45:00 PM 17.06 62.708 0.973 8.04 4.45 7.92
5/5/2022 10:00:00 PM 16.95 62.51 0.977 8.02 4.54 7.83
5/5/2022 10:15:00 PM 16.83 62.294 0.981 8 4.43 7.74
5/5/2022 10:30:00 PM 16.72 62.096 0.985 7.99 4.38 7.66
5/5/2022 10:45:00 PM 16.61 61.898 0.988 7.97 4.19 7.58
5/5/2022 11:00:00 PM 16.5 61.7 0.991 7.95 4.73 7.51
5/5/2022 11:15:00 PM 16.39 61.502 0.995 7.95 4.43 7.44
5/5/2022 11:30:00 PM 16.28 61.304 0.999 7.93 4.35 7.39
5/5/2022 11:45:00 PM 16.18 61.124 1.002 7.91 4.09 7.34
5/6/2022 12:00:00 AM 16.07 60.926 1.005 7.91 4.3 7.29
5/6/2022 12:15:00 AM 15.97 60.746 1.008 7.9 4.29 7.26
5/6/2022 12:30:00 AM 15.87 60.566 1.011 7.89 4.26 7.24
5/6/2022 12:45:00 AM 15.77 60.386 1.015 7.87 4.17 7.22
5/6/2022 1:00:00 AM 15.67 60.206 1.018 7.87 4.27 7.21
5/6/2022 1:15:00 AM 15.58 60.044 1.021 7.86 4.23 7.2
5/6/2022 1:30:00 AM 15.49 59.882 1.023 7.85 4.13 7.2
5/6/2022 1:45:00 AM 15.4 59.72 1.024 7.85 4.21 7.2
5/6/2022 2:00:00 AM 15.32 59.576 1.024 7.85 4.26 7.2
5/6/2022 2:15:00 AM 15.24 59.432 1.025 7.84 4.52 7.21
5/6/2022 2:30:00 AM 15.17 59.306 1.025 7.84 4.52 7.22
5/6/2022 2:45:00 AM 15.1 59.18 1.026 7.84 4.5 7.23
5/6/2022 3:00:00 AM 15.03 59.054 1.027 7.83 4.51 7.23
5/6/2022 3:15:00 AM 14.97 58.946 1.028 7.83 4.53 7.24
5/6/2022 3:30:00 AM 14.91 58.838 1.029 7.82 4.63 7.26
5/6/2022 3:45:00 AM 14.86 58.748 1.029 7.83 4.4 7.27
5/6/2022 4:00:00 AM 14.81 58.658 1.027 7.83 4.8 7.27
5/6/2022 4:15:00 AM 14.76 58.568 1.024 7.83 5.29 7.29
5/6/2022 4:30:00 AM 14.7 58.46 1.019 7.82 4.8 7.3
5/6/2022 4:45:00 AM 14.65 58.37 1.012 7.82 4.52 7.32
5/6/2022 5:00:00 AM 14.6 58.28 1.005 7.82 4.46 7.34
5/6/2022 5:15:00 AM 14.55 58.19 0.998 7.82 4.65 7.36
5/6/2022 5:30:00 AM 14.5 58.1 0.991 7.82 6.29 7.38
5/6/2022 5:45:00 AM 14.45 58.01 0.982 7.82 5.55 7.4
5/6/2022 6:00:00 AM 14.4 57.92 0.973 7.83 4.87 7.43
5/6/2022 6:15:00 AM 14.35 57.83 0.962 7.82 4.52 7.46
5/6/2022 6:30:00 AM 14.3 57.74 0.95 7.83 4.52 7.5
5/6/2022 6:45:00 AM 14.26 57.668 0.939 7.83 4.31 7.54
5/6/2022 7:00:00 AM 14.22 57.596 0.93 7.83 4.23 7.59
5/6/2022 7:15:00 AM 14.18 57.524 0.922 7.84 4.21 7.65
5/6/2022 7:30:00 AM 14.14 57.452 0.914 7.83 4.06 7.69
5/6/2022 7:45:00 AM 14.11 57.398 0.905 7.84 4.22 7.78
5/6/2022 8:00:00 AM 14.07 57.326 0.896 7.85 4.24 7.85
5/6/2022 8:15:00 AM 14.04 57.272 0.886 7.84 5.19 7.89
5/6/2022 8:30:00 AM 14.05 57.29 0.873 7.86 6.73 8
5/6/2022 8:45:00 AM 14.06 57.308 0.862 7.87 5.81 8.06
5/6/2022 9:00:00 AM 14.06 57.308 0.853 7.86 5.97 8.12
5/6/2022 9:15:00 AM 14.05 57.29 0.847 7.88 5.77 8.19
5/6/2022 9:30:00 AM 14.03 57.254 0.842 7.87 5.95 8.26
5/6/2022 9:45:00 AM 14.01 57.218 0.839 7.89 6.12 8.37
5/6/2022 10:00:00 AM 13.98 57.164 0.84 7.88 6.69 8.41
5/6/2022 10:15:00 AM 13.95 57.11 0.842 7.88 7.32 8.43
5/6/2022 10:30:00 AM 13.92 57.056 0.841 7.88 8.16 8.53
5/6/2022 10:45:00 AM 13.88 56.984 0.838 7.88 8.7 8.56
5/6/2022 11:00:00 AM 13.85 56.93 0.839 7.87 9.52 8.64
5/6/2022 11:15:00 AM 13.85 56.93 0.853 7.88 9.8 8.7
5/6/2022 11:30:00 AM 13.89 57.002 0.854 7.87 9.34 8.79
5/6/2022 11:45:00 AM 13.94 57.092 0.878 7.87 9.5 8.84
5/6/2022 12:00:00 PM 13.98 57.164 0.883 7.88 9.09 8.9
5/6/2022 12:15:00 PM 14 57.2 0.859 7.87 9.21 8.94
5/6/2022 12:30:00 PM 14.02 57.236 0.825 7.87 8.99 9.01
5/6/2022 12:45:00 PM 14.02 57.236 0.791 7.85 9.36 8.93
5/6/2022 1:00:00 PM 14.05 57.29 0.754 7.83 10.46 8.81
5/6/2022 1:15:00 PM 14.1 57.38 0.717 7.8 13.18 8.69
5/6/2022 1:30:00 PM 14.17 57.506 0.687 7.78 11.35 8.62
5/6/2022 1:45:00 PM 14.24 57.632 0.665 7.77 11.83 8.58
5/6/2022 2:00:00 PM 14.31 57.758 0.653 7.76 12.31 8.57
5/6/2022 2:15:00 PM 14.36 57.848 0.638 7.75 12.34 8.57
5/6/2022 2:30:00 PM 14.39 57.902 0.628 7.75 12.31 8.61
5/6/2022 2:45:00 PM 14.38 57.884 0.623 7.73 12.31 8.64
5/6/2022 3:00:00 PM 14.36 57.848 0.614 7.73 12.82 8.61
5/6/2022 3:15:00 PM 14.33 57.794 0.606 7.73 14.75 8.57
5/6/2022 3:30:00 PM 14.32 57.776 0.596 7.72 14.04 8.62
5/6/2022 3:45:00 PM 14.3 57.74 0.583 7.72 14.39 8.58
5/6/2022 4:00:00 PM 14.27 57.686 0.58 7.71 14.83 8.55
5/6/2022 4:15:00 PM 14.23 57.614 0.571 7.7 14.49 8.56
5/6/2022 4:30:00 PM 14.21 57.578 0.558 7.7 15.98 8.56
5/6/2022 4:45:00 PM 14.18 57.524 0.541 7.69 16.78 8.58
5/6/2022 5:00:00 PM 14.14 57.452 0.53 7.68 17.31 8.59
5/6/2022 5:15:00 PM 14.11 57.398 0.521 7.66 18.27 8.58
5/6/2022 5:30:00 PM 14.09 57.362 0.52 7.66 20.6 8.57
5/6/2022 5:45:00 PM 14.06 57.308 0.517 7.66 20.61 8.55
5/6/2022 6:00:00 PM 14.02 57.236 0.514 7.63 25 8.53
5/6/2022 6:15:00 PM 13.97 57.146 0.506 7.64 28.75 8.53
5/6/2022 6:30:00 PM 13.92 57.056 0.505 7.61 32.32 8.52
5/6/2022 6:45:00 PM 13.89 57.002 0.505 7.61 35.63 8.52
5/6/2022 7:00:00 PM 13.84 56.912 0.489 7.6 36.7 8.53
5/6/2022 7:15:00 PM 13.79 56.822 0.466 7.6 37.52 8.53
5/6/2022 7:30:00 PM 13.73 56.714 0.448 7.59 31.86 8.52
5/6/2022 7:45:00 PM 13.68 56.624 0.437 7.58 29.11 8.51
5/6/2022 8:00:00 PM 13.63 56.534 0.434 7.58 26.7 8.5
5/6/2022 8:15:00 PM 13.59 56.462 0.437 7.58 23.39 8.49
5/6/2022 8:30:00 PM 13.54 56.372 0.441 7.57 21.78 8.47
5/6/2022 8:45:00 PM 13.5 56.3 0.447 7.57 20.34 8.44
5/6/2022 9:00:00 PM 13.45 56.21 0.455 7.57 19.68 8.41
5/6/2022 9:15:00 PM 13.41 56.138 0.464 7.57 18.93 8.38
5/6/2022 9:30:00 PM 13.37 56.066 0.475 7.56 18.34 8.35
5/6/2022 9:45:00 PM 13.32 55.976 0.484 7.57 17.73 8.33
5/6/2022 10:00:00 PM 13.28 55.904 0.491 7.56 17.27 8.32
5/6/2022 10:15:00 PM 13.24 55.832 0.499 7.56 16.16 8.31
5/6/2022 10:30:00 PM 13.2 55.76 0.51 7.57 15.98 8.3
5/6/2022 10:45:00 PM 13.16 55.688 0.523 7.57 15.6 8.29
5/6/2022 11:00:00 PM 13.12 55.616 0.537 7.57 14.86 8.29
5/6/2022 11:15:00 PM 13.09 55.562 0.551 7.57 14.07 8.29
5/6/2022 11:30:00 PM 13.04 55.472 0.564 7.58 13.28 8.29
5/6/2022 11:45:00 PM 13 55.4 0.575 7.58 12.62 8.3
5/7/2022 12:00:00 AM 12.96 55.328 0.587 7.59 11.99 8.31
5/7/2022 12:15:00 AM 12.92 55.256 0.599 7.59 11.33 8.31
5/7/2022 12:30:00 AM 12.88 55.184 0.609 7.6 10.99 8.32
5/7/2022 12:45:00 AM 12.84 55.112 0.62 7.61 10.46 8.33
5/7/2022 1:00:00 AM 12.81 55.058 0.63 7.61 10 8.34
5/7/2022 1:15:00 AM 12.77 54.986 0.636 7.62 9.78 8.35
5/7/2022 1:30:00 AM 12.74 54.932 0.641 7.62 9.67 8.36
5/7/2022 1:45:00 AM 12.72 54.896 0.645 7.63 9.02 8.36
5/7/2022 2:00:00 AM 12.68 54.824 0.648 7.63 8.83 8.37
5/7/2022 2:15:00 AM 12.65 54.77 0.652 7.64 9.15 8.37
5/7/2022 2:30:00 AM 12.62 54.716 0.649 7.64 11.65 8.38
5/7/2022 2:45:00 AM 12.59 54.662 0.657 7.64 8.03 8.4
5/7/2022 3:00:00 AM 12.57 54.626 0.661 7.64 7.86 8.41
5/7/2022 3:15:00 AM 12.53 54.554 0.663 7.64 8.17 8.42
5/7/2022 3:30:00 AM 12.5 54.5 0.661 7.65 8.2 8.43
5/7/2022 3:45:00 AM 12.47 54.446 0.656 7.65 8.63 8.45
5/7/2022 4:00:00 AM 12.43 54.374 0.651 7.66 8.51 8.46
5/7/2022 4:15:00 AM 12.4 54.32 0.648 7.66 8.1 8.47
5/7/2022 4:30:00 AM 12.37 54.266 0.648 7.66 8.44 8.48
5/7/2022 4:45:00 AM 12.34 54.212 0.648 7.66 8.01 8.49
5/7/2022 5:00:00 AM 12.32 54.176 0.647 7.67 8.27 8.51
5/7/2022 5:15:00 AM 12.29 54.122 0.645 7.67 8.29 8.52
5/7/2022 5:30:00 AM 12.26 54.068 0.64 7.67 8.69 8.54
5/7/2022 5:45:00 AM 12.23 54.014 0.637 7.66 8.4 8.55
5/7/2022 6:00:00 AM 12.21 53.978 0.635 7.67 8.37 8.57
5/7/2022 6:15:00 AM 12.18 53.924 0.633 7.67 8.62 8.59
5/7/2022 6:30:00 AM 12.16 53.888 0.634 7.66 8.86 8.6
5/7/2022 6:45:00 AM 12.16 53.888 0.635 7.66 8.99 8.62
5/7/2022 7:00:00 AM 12.15 53.87 0.634 7.67 9.2 8.63
5/7/2022 7:15:00 AM 12.14 53.852 0.629 7.66 9.2 8.65
5/7/2022 7:30:00 AM 12.13 53.834 0.622 7.66 9.58 8.69
5/7/2022 7:45:00 AM 12.12 53.816 0.616 7.66 9.7 8.72
5/7/2022 8:00:00 AM 12.1 53.78 0.607 7.65 9.74 8.75
5/7/2022 8:15:00 AM 12.08 53.744 0.592 7.65 9.64 8.78
5/7/2022 8:30:00 AM 12.06 53.708 0.577 7.64 9.49 8.82
5/7/2022 8:45:00 AM 12.04 53.672 0.563 7.65 9.46 8.87
5/7/2022 9:00:00 AM 12.02 53.636 0.551 7.63 9.03 8.92
5/7/2022 9:15:00 AM 12.01 53.618 0.541 7.64 8.84 8.97
5/7/2022 9:30:00 AM 12 53.6 0.532 7.63 8.62 9.02
5/7/2022 9:45:00 AM 11.99 53.582 0.525 7.64 8.73 9.06
5/7/2022 10:00:00 AM 11.98 53.564 0.521 7.64 8.97 9.09
5/7/2022 10:15:00 AM 11.99 53.582 0.523 7.64